Check out our new PWSWeather beta!
PWSweather.com
Personal Weather Stations
Station Observations
KNYISLAN6
Islandia, NY

Islandia, NY

Lat: 40.802, Lon: -73.192

Elevation: 100

Station Type: Ambient Weather WS-2902A

High Low Average
Temperature 52.3°F11.3°C 33.1°F0.6°C 42.8°F6.0°C
Dew Point 46.5°F8.1°C 19.3°F-7.1°C 30.1°F-1.1°C
Winds 15.0 mph 24.1 kmh Calm Calm 4.0 mph W6.4 kmh W
Wind Gusts 17.2 mph27.7 kmh -- 5.0 mph8.0 kmh
Humidity 99% 44% 62%
Pressure 30.14 in1020.7 mb 29.80 in1009.1 mb -
Precipitation 0.14 in3.6 mm - -
Hour Temp Dew Point Humidity Winds Wind Gusts Pressure Precip Precip Rate Daily Precip Total
12:00 AM 38.5°F3.6°C 36.4°F2.4°C 92% Calm Calm -- 30.04 in1017.3 mb 0.00 in0.0 mm 0.00 in0.0 mm 0.00 in0.0 mm
12:01 AM 38.5°F3.6°C 36.4°F2.4°C 92% Calm Calm -- 30.04 in1017.3 mb 0.00 in0.0 mm 0.00 in0.0 mm 0.00 in0.0 mm
12:02 AM 38.7°F3.7°C 36.6°F2.6°C 92% Calm Calm -- 30.04 in1017.3 mb 0.00 in0.0 mm 0.00 in0.0 mm 0.00 in0.0 mm
12:03 AM 38.8°F3.8°C 36.7°F2.6°C 92% Calm Calm -- 30.04 in1017.3 mb 0.00 in0.0 mm 0.00 in0.0 mm 0.00 in0.0 mm
12:04 AM 39.0°F3.9°C 37.2°F2.9°C 93% Calm Calm -- 30.03 in1016.9 mb 0.00 in0.0 mm 0.00 in0.0 mm 0.00 in0.0 mm
12:05 AM 39.2°F4.0°C 37.3°F2.9°C 93% Calm Calm -- 30.04 in1017.3 mb 0.00 in0.0 mm 0.00 in0.0 mm 0.00 in0.0 mm
12:06 AM 39.4°F4.1°C 37.5°F3.1°C 93% 2.0 mph NW3.2 kmh NW 2.2 mph3.5 kmh 30.03 in1016.9 mb 0.00 in0.0 mm 0.00 in0.0 mm 0.00 in0.0 mm
12:07 AM 39.6°F4.2°C 37.7°F3.2°C 93% 0.9 mph NW1.4 kmh NW 1.1 mph1.8 kmh 30.04 in1017.3 mb 0.00 in0.0 mm 0.00 in0.0 mm 0.00 in0.0 mm
12:08 AM 39.7°F4.3°C 37.8°F3.2°C 93% Calm Calm -- 30.03 in1016.9 mb 0.00 in0.0 mm 0.00 in0.0 mm 0.00 in0.0 mm
12:09 AM 39.7°F4.3°C 37.8°F3.2°C 93% Calm Calm -- 30.03 in1016.9 mb 0.00 in0.0 mm 0.00 in0.0 mm 0.00 in0.0 mm
12:10 AM 39.7°F4.3°C 37.8°F3.2°C 93% Calm Calm -- 30.03 in1016.9 mb 0.00 in0.0 mm 0.00 in0.0 mm 0.00 in0.0 mm
12:11 AM 39.7°F4.3°C 37.8°F3.2°C 93% Calm Calm -- 30.03 in1016.9 mb 0.00 in0.0 mm 0.00 in0.0 mm 0.00 in0.0 mm
12:12 AM 39.7°F4.3°C 37.8°F3.2°C 93% Calm Calm -- 30.03 in1016.9 mb 0.00 in0.0 mm 0.00 in0.0 mm 0.00 in0.0 mm
12:13 AM 39.7°F4.3°C 38.1°F3.4°C 94% 1.1 mph NW1.8 kmh NW 1.1 mph1.8 kmh 30.03 in1016.9 mb 0.00 in0.0 mm 0.00 in0.0 mm 0.00 in0.0 mm
12:14 AM 39.9°F4.4°C 38.3°F3.5°C 94% Calm Calm -- 30.03 in1016.9 mb 0.00 in0.0 mm 0.00 in0.0 mm 0.00 in0.0 mm
12:15 AM 40.1°F4.5°C 38.5°F3.6°C 94% 0.7 mph NW1.1 kmh NW 1.1 mph1.8 kmh 30.03 in1016.9 mb 0.00 in0.0 mm 0.00 in0.0 mm 0.00 in0.0 mm
12:16 AM 40.5°F4.7°C 38.9°F3.8°C 94% 0.4 mph NW0.6 kmh NW 1.1 mph1.8 kmh 30.04 in1017.3 mb 0.00 in0.0 mm 0.00 in0.0 mm 0.00 in0.0 mm
12:17 AM 40.8°F4.9°C 39.2°F4.0°C 94% 0.9 mph NW1.4 kmh NW 1.1 mph1.8 kmh 30.03 in1016.9 mb 0.00 in0.0 mm 0.00 in0.0 mm 0.00 in0.0 mm
12:18 AM 41.2°F5.1°C 39.6°F4.2°C 94% Calm Calm -- 30.03 in1016.9 mb 0.00 in0.0 mm 0.00 in0.0 mm 0.00 in0.0 mm
12:19 AM 41.4°F5.2°C 39.8°F4.3°C 94% Calm Calm -- 30.03 in1016.9 mb 0.00 in0.0 mm 0.00 in0.0 mm 0.00 in0.0 mm
12:20 AM 41.5°F5.3°C 40.2°F4.6°C 95% Calm Calm -- 30.03 in1016.9 mb 0.00 in0.0 mm 0.00 in0.0 mm 0.00 in0.0 mm
12:21 AM 41.7°F5.4°C 40.4°F4.7°C 95% Calm Calm -- 30.02 in1016.6 mb 0.00 in0.0 mm 0.00 in0.0 mm 0.00 in0.0 mm
12:22 AM 41.9°F5.5°C 40.6°F4.8°C 95% Calm Calm -- 30.03 in1016.9 mb 0.00 in0.0 mm 0.00 in0.0 mm 0.00 in0.0 mm
12:23 AM 42.1°F5.6°C 40.8°F4.9°C 95% Calm Calm -- 30.02 in1016.6 mb 0.00 in0.0 mm 0.00 in0.0 mm 0.00 in0.0 mm
12:24 AM 42.1°F5.6°C 40.8°F4.9°C 95% 1.3 mph N2.1 kmh N 2.2 mph3.5 kmh 30.02 in1016.6 mb 0.00 in0.0 mm 0.00 in0.0 mm 0.00 in0.0 mm
12:25 AM 42.3°F5.7°C 41.0°F5.0°C 95% 0.7 mph NW1.1 kmh NW 1.1 mph1.8 kmh 30.02 in1016.6 mb 0.00 in0.0 mm 0.00 in0.0 mm 0.00 in0.0 mm
12:26 AM 42.4°F5.8°C 41.1°F5.1°C 95% 0.7 mph NNW1.1 kmh NNW 1.1 mph1.8 kmh 30.02 in1016.6 mb 0.00 in0.0 mm 0.00 in0.0 mm 0.00 in0.0 mm
12:27 AM 42.6°F5.9°C 41.3°F5.2°C 95% 5.8 mph NW9.3 kmh NW 6.9 mph11.1 kmh 30.01 in1016.3 mb 0.00 in0.0 mm 0.00 in0.0 mm 0.00 in0.0 mm
12:28 AM 43.0°F6.1°C 41.7°F5.4°C 95% 0.9 mph NW1.4 kmh NW 1.1 mph1.8 kmh 30.02 in1016.6 mb 0.00 in0.0 mm 0.00 in0.0 mm 0.00 in0.0 mm
12:29 AM 43.2°F6.2°C 41.9°F5.5°C 95% 3.1 mph W5.0 kmh W 3.4 mph5.5 kmh 30.02 in1016.6 mb 0.00 in0.0 mm 0.00 in0.0 mm 0.00 in0.0 mm
12:30 AM 43.3°F6.3°C 42.0°F5.6°C 95% 1.8 mph NW2.9 kmh NW 2.2 mph3.5 kmh 30.02 in1016.6 mb 0.00 in0.0 mm 0.00 in0.0 mm 0.00 in0.0 mm
12:31 AM 43.5°F6.4°C 42.2°F5.7°C 95% 2.2 mph WNW3.5 kmh WNW 2.2 mph3.5 kmh 30.02 in1016.6 mb 0.00 in0.0 mm 0.00 in0.0 mm 0.00 in0.0 mm
12:32 AM 43.7°F6.5°C 42.4°F5.8°C 95% 0.7 mph NW1.1 kmh NW 1.1 mph1.8 kmh 30.02 in1016.6 mb 0.00 in0.0 mm 0.00 in0.0 mm 0.00 in0.0 mm
12:33 AM 43.7°F6.5°C 42.4°F5.8°C 95% 4.9 mph W7.9 kmh W 5.8 mph9.3 kmh 30.02 in1016.6 mb 0.00 in0.0 mm 0.00 in0.0 mm 0.00 in0.0 mm
12:34 AM 43.9°F6.6°C 42.8°F6.0°C 96% 4.3 mph WNW6.9 kmh WNW 5.8 mph9.3 kmh 30.02 in1016.6 mb 0.00 in0.0 mm 0.00 in0.0 mm 0.00 in0.0 mm
12:35 AM 43.9°F6.6°C 42.6°F5.9°C 95% 2.2 mph NW3.5 kmh NW 4.5 mph7.2 kmh 30.01 in1016.3 mb 0.00 in0.0 mm 0.00 in0.0 mm 0.00 in0.0 mm
06:36 AM 46.0°F7.8°C 45.7°F7.6°C 99% Calm Calm -- 29.81 in1009.5 mb 0.00 in0.0 mm 0.00 in0.0 mm 0.12 in3.0 mm
06:37 AM 46.0°F7.8°C 45.7°F7.6°C 99% 1.3 mph NW2.1 kmh NW 2.2 mph3.5 kmh 29.81 in1009.5 mb 0.00 in0.0 mm 0.00 in0.0 mm 0.12 in3.0 mm
06:38 AM 46.0°F7.8°C 45.7°F7.6°C 99% 0.7 mph NW1.1 kmh NW 1.1 mph1.8 kmh 29.81 in1009.5 mb 0.00 in0.0 mm 0.00 in0.0 mm 0.12 in3.0 mm
06:39 AM 46.0°F7.8°C 45.7°F7.6°C 99% 0.9 mph NW1.4 kmh NW 2.2 mph3.5 kmh 29.81 in1009.5 mb 0.00 in0.0 mm 0.00 in0.0 mm 0.12 in3.0 mm
06:40 AM 46.0°F7.8°C 45.7°F7.6°C 99% 3.4 mph NW5.5 kmh NW 4.5 mph7.2 kmh 29.80 in1009.1 mb 0.00 in0.0 mm 0.00 in0.0 mm 0.12 in3.0 mm
06:41 AM 46.0°F7.8°C 45.7°F7.6°C 99% 4.0 mph WNW6.4 kmh WNW 4.5 mph7.2 kmh 29.81 in1009.5 mb 0.00 in0.0 mm 0.00 in0.0 mm 0.12 in3.0 mm
06:42 AM 46.0°F7.8°C 45.7°F7.6°C 99% 1.8 mph NW2.9 kmh NW 3.4 mph5.5 kmh 29.81 in1009.5 mb 0.00 in0.0 mm 0.00 in0.0 mm 0.12 in3.0 mm
06:43 AM 46.0°F7.8°C 45.7°F7.6°C 99% 1.1 mph S1.8 kmh S 2.2 mph3.5 kmh 29.81 in1009.5 mb 0.00 in0.0 mm 0.00 in0.0 mm 0.12 in3.0 mm
06:44 AM 46.0°F7.8°C 45.7°F7.6°C 99% 2.2 mph NW3.5 kmh NW 2.2 mph3.5 kmh 29.81 in1009.5 mb 0.00 in0.0 mm 0.00 in0.0 mm 0.12 in3.0 mm
06:45 AM 46.0°F7.8°C 45.7°F7.6°C 99% 2.9 mph NW4.7 kmh NW 3.4 mph5.5 kmh 29.81 in1009.5 mb 0.00 in0.0 mm 0.00 in0.0 mm 0.12 in3.0 mm
06:46 AM 46.0°F7.8°C 45.7°F7.6°C 99% 3.4 mph NW5.5 kmh NW 4.5 mph7.2 kmh 29.82 in1009.8 mb 0.00 in0.0 mm 0.00 in0.0 mm 0.12 in3.0 mm
06:47 AM 46.0°F7.8°C 45.7°F7.6°C 99% 2.0 mph NW3.2 kmh NW 2.2 mph3.5 kmh 29.81 in1009.5 mb 0.00 in0.0 mm 0.00 in0.0 mm 0.12 in3.0 mm
06:48 AM 46.0°F7.8°C 45.7°F7.6°C 99% 1.8 mph NW2.9 kmh NW 2.2 mph3.5 kmh 29.82 in1009.8 mb 0.00 in0.0 mm 0.00 in0.0 mm 0.12 in3.0 mm
06:49 AM 46.0°F7.8°C 45.5°F7.5°C 98% 3.8 mph NW6.1 kmh NW 5.8 mph9.3 kmh 29.81 in1009.5 mb 0.00 in0.0 mm 0.00 in0.0 mm 0.12 in3.0 mm
06:50 AM 46.0°F7.8°C 45.5°F7.5°C 98% 2.5 mph W4.0 kmh W 3.4 mph5.5 kmh 29.82 in1009.8 mb 0.00 in0.0 mm 0.00 in0.0 mm 0.12 in3.0 mm
06:51 AM 46.0°F7.8°C 45.7°F7.6°C 99% 4.0 mph WNW6.4 kmh WNW 4.5 mph7.2 kmh 29.81 in1009.5 mb 0.00 in0.0 mm 0.00 in0.0 mm 0.12 in3.0 mm
06:52 AM 46.0°F7.8°C 45.5°F7.5°C 98% 3.1 mph WNW5.0 kmh WNW 4.5 mph7.2 kmh 29.82 in1009.8 mb 0.00 in0.0 mm 0.00 in0.0 mm 0.12 in3.0 mm
06:53 AM 46.0°F7.8°C 45.5°F7.5°C 98% 4.9 mph WNW7.9 kmh WNW 5.8 mph9.3 kmh 29.81 in1009.5 mb 0.00 in0.0 mm 0.00 in0.0 mm 0.12 in3.0 mm
06:54 AM 46.0°F7.8°C 45.5°F7.5°C 98% 2.7 mph WNW4.3 kmh WNW 4.5 mph7.2 kmh 29.82 in1009.8 mb 0.00 in0.0 mm 0.00 in0.0 mm 0.12 in3.0 mm
06:55 AM 46.0°F7.8°C 45.5°F7.5°C 98% 1.3 mph NW2.1 kmh NW 2.2 mph3.5 kmh 29.81 in1009.5 mb 0.00 in0.0 mm 0.00 in0.0 mm 0.12 in3.0 mm
06:56 AM 46.0°F7.8°C 45.5°F7.5°C 98% 1.8 mph NW2.9 kmh NW 2.2 mph3.5 kmh 29.81 in1009.5 mb 0.00 in0.0 mm 0.00 in0.0 mm 0.12 in3.0 mm
06:57 AM 46.0°F7.8°C 45.5°F7.5°C 98% 4.3 mph WNW6.9 kmh WNW 4.5 mph7.2 kmh 29.80 in1009.1 mb 0.00 in0.0 mm 0.00 in0.0 mm 0.12 in3.0 mm
06:58 AM 46.0°F7.8°C 45.5°F7.5°C 98% 3.6 mph NW5.8 kmh NW 4.5 mph7.2 kmh 29.81 in1009.5 mb 0.00 in0.0 mm 0.00 in0.0 mm 0.12 in3.0 mm
06:59 AM 46.0°F7.8°C 45.5°F7.5°C 98% 2.9 mph WNW4.7 kmh WNW 3.4 mph5.5 kmh 29.81 in1009.5 mb 0.00 in0.0 mm 0.00 in0.0 mm 0.12 in3.0 mm
07:00 AM 46.0°F7.8°C 45.5°F7.5°C 98% 3.4 mph W5.5 kmh W 4.5 mph7.2 kmh 29.81 in1009.5 mb 0.00 in0.0 mm 0.00 in0.0 mm 0.12 in3.0 mm
07:01 AM 46.0°F7.8°C 45.5°F7.5°C 98% 6.3 mph WNW10.1 kmh WNW 8.1 mph13.0 kmh 29.81 in1009.5 mb 0.00 in0.0 mm 0.00 in0.0 mm 0.12 in3.0 mm
07:02 AM 46.0°F7.8°C 45.5°F7.5°C 98% 4.5 mph WNW7.2 kmh WNW 5.8 mph9.3 kmh 29.80 in1009.1 mb 0.00 in0.0 mm 0.00 in0.0 mm 0.12 in3.0 mm
07:03 AM 46.0°F7.8°C 45.5°F7.5°C 98% 2.2 mph WNW3.5 kmh WNW 2.2 mph3.5 kmh 29.81 in1009.5 mb 0.00 in0.0 mm 0.00 in0.0 mm 0.12 in3.0 mm
07:04 AM 46.0°F7.8°C 45.5°F7.5°C 98% 2.7 mph NW4.3 kmh NW 3.4 mph5.5 kmh 29.81 in1009.5 mb 0.00 in0.0 mm 0.00 in0.0 mm 0.12 in3.0 mm
07:05 AM 46.0°F7.8°C 45.2°F7.3°C 97% 1.3 mph NW2.1 kmh NW 2.2 mph3.5 kmh 29.81 in1009.5 mb 0.00 in0.0 mm 0.00 in0.0 mm 0.12 in3.0 mm
07:06 AM 46.0°F7.8°C 45.5°F7.5°C 98% 4.0 mph WNW6.4 kmh WNW 4.5 mph7.2 kmh 29.81 in1009.5 mb 0.00 in0.0 mm 0.00 in0.0 mm 0.12 in3.0 mm
07:07 AM 46.0°F7.8°C 45.2°F7.3°C 97% 3.4 mph WNW5.5 kmh WNW 4.5 mph7.2 kmh 29.80 in1009.1 mb 0.00 in0.0 mm 0.00 in0.0 mm 0.12 in3.0 mm
07:08 AM 46.0°F7.8°C 45.2°F7.3°C 97% 3.4 mph WNW5.5 kmh WNW 4.5 mph7.2 kmh 29.81 in1009.5 mb 0.00 in0.0 mm 0.00 in0.0 mm 0.12 in3.0 mm
07:09 AM 46.0°F7.8°C 45.2°F7.3°C 97% 0.7 mph NW1.1 kmh NW 1.1 mph1.8 kmh 29.81 in1009.5 mb 0.00 in0.0 mm 0.00 in0.0 mm 0.12 in3.0 mm
07:11 AM 46.0°F7.8°C 45.2°F7.3°C 97% 1.6 mph NW2.6 kmh NW 2.2 mph3.5 kmh 29.81 in1009.5 mb 0.00 in0.0 mm 0.00 in0.0 mm 0.12 in3.0 mm
07:12 AM 46.0°F7.8°C 45.2°F7.3°C 97% 4.9 mph WNW7.9 kmh WNW 6.9 mph11.1 kmh 29.81 in1009.5 mb 0.00 in0.0 mm 0.00 in0.0 mm 0.12 in3.0 mm
07:13 AM 46.0°F7.8°C 45.2°F7.3°C 97% 2.9 mph W4.7 kmh W 4.5 mph7.2 kmh 29.81 in1009.5 mb 0.00 in0.0 mm 0.00 in0.0 mm 0.12 in3.0 mm
07:14 AM 46.0°F7.8°C 45.2°F7.3°C 97% 3.4 mph NW5.5 kmh NW 4.5 mph7.2 kmh 29.81 in1009.5 mb 0.00 in0.0 mm 0.00 in0.0 mm 0.12 in3.0 mm
07:15 AM 46.0°F7.8°C 45.2°F7.3°C 97% 3.8 mph WNW6.1 kmh WNW 4.5 mph7.2 kmh 29.82 in1009.8 mb 0.00 in0.0 mm 0.00 in0.0 mm 0.12 in3.0 mm
07:16 AM 46.0°F7.8°C 45.2°F7.3°C 97% 3.6 mph WNW5.8 kmh WNW 4.5 mph7.2 kmh 29.82 in1009.8 mb 0.00 in0.0 mm 0.00 in0.0 mm 0.12 in3.0 mm
07:17 AM 46.0°F7.8°C 45.2°F7.3°C 97% 5.6 mph WNW9.0 kmh WNW 6.9 mph11.1 kmh 29.82 in1009.8 mb 0.00 in0.0 mm 0.00 in0.0 mm 0.12 in3.0 mm
07:18 AM 46.0°F7.8°C 45.2°F7.3°C 97% 4.0 mph WNW6.4 kmh WNW 4.5 mph7.2 kmh 29.81 in1009.5 mb 0.00 in0.0 mm 0.00 in0.0 mm 0.12 in3.0 mm
07:19 AM 46.0°F7.8°C 45.2°F7.3°C 97% 2.0 mph WNW3.2 kmh WNW 2.2 mph3.5 kmh 29.82 in1009.8 mb 0.00 in0.0 mm 0.00 in0.0 mm 0.12 in3.0 mm
07:20 AM 46.0°F7.8°C 45.2°F7.3°C 97% 2.9 mph WNW4.7 kmh WNW 3.4 mph5.5 kmh 29.81 in1009.5 mb 0.00 in0.0 mm 0.00 in0.0 mm 0.12 in3.0 mm
07:21 AM 46.0°F7.8°C 44.9°F7.2°C 96% 4.7 mph W7.6 kmh W 5.8 mph9.3 kmh 29.82 in1009.8 mb 0.00 in0.0 mm 0.00 in0.0 mm 0.12 in3.0 mm
07:22 AM 46.0°F7.8°C 44.9°F7.2°C 96% 2.9 mph NW4.7 kmh NW 3.4 mph5.5 kmh 29.83 in1010.2 mb 0.00 in0.0 mm 0.00 in0.0 mm 0.12 in3.0 mm
07:23 AM 46.0°F7.8°C 44.9°F7.2°C 96% 1.6 mph NW2.6 kmh NW 2.2 mph3.5 kmh 29.82 in1009.8 mb 0.00 in0.0 mm 0.00 in0.0 mm 0.12 in3.0 mm
07:24 AM 45.9°F7.7°C 44.8°F7.1°C 96% 2.9 mph WNW4.7 kmh WNW 3.4 mph5.5 kmh 29.82 in1009.8 mb 0.00 in0.0 mm 0.00 in0.0 mm 0.12 in3.0 mm
07:25 AM 46.0°F7.8°C 44.9°F7.2°C 96% 3.8 mph NW6.1 kmh NW 5.8 mph9.3 kmh 29.81 in1009.5 mb 0.00 in0.0 mm 0.00 in0.0 mm 0.12 in3.0 mm
07:26 AM 46.0°F7.8°C 44.9°F7.2°C 96% 2.9 mph WNW4.7 kmh WNW 3.4 mph5.5 kmh 29.82 in1009.8 mb 0.00 in0.0 mm 0.00 in0.0 mm 0.12 in3.0 mm
07:27 AM 46.0°F7.8°C 44.9°F7.2°C 96% 4.5 mph WNW7.2 kmh WNW 6.9 mph11.1 kmh 29.82 in1009.8 mb 0.00 in0.0 mm 0.00 in0.0 mm 0.12 in3.0 mm
07:28 AM 46.0°F7.8°C 44.9°F7.2°C 96% 2.2 mph WNW3.5 kmh WNW 3.4 mph5.5 kmh 29.82 in1009.8 mb 0.00 in0.0 mm 0.00 in0.0 mm 0.12 in3.0 mm
07:29 AM 46.0°F7.8°C 44.9°F7.2°C 96% 2.5 mph WNW4.0 kmh WNW 3.4 mph5.5 kmh 29.81 in1009.5 mb 0.00 in0.0 mm 0.00 in0.0 mm 0.12 in3.0 mm
07:30 AM 46.0°F7.8°C 44.9°F7.2°C 96% 1.8 mph NW2.9 kmh NW 2.2 mph3.5 kmh 29.82 in1009.8 mb 0.00 in0.0 mm 0.00 in0.0 mm 0.12 in3.0 mm
07:31 AM 46.0°F7.8°C 44.9°F7.2°C 96% 2.7 mph WNW4.3 kmh WNW 3.4 mph5.5 kmh 29.82 in1009.8 mb 0.00 in0.0 mm 0.00 in0.0 mm 0.12 in3.0 mm
07:32 AM 46.0°F7.8°C 44.9°F7.2°C 96% 3.4 mph WNW5.5 kmh WNW 3.4 mph5.5 kmh 29.82 in1009.8 mb 0.00 in0.0 mm 0.00 in0.0 mm 0.12 in3.0 mm
07:33 AM 46.0°F7.8°C 44.9°F7.2°C 96% 2.2 mph NW3.5 kmh NW 2.2 mph3.5 kmh 29.82 in1009.8 mb 0.00 in0.0 mm 0.00 in0.0 mm 0.12 in3.0 mm
07:34 AM 46.0°F7.8°C 44.9°F7.2°C 96% 1.8 mph NW2.9 kmh NW 2.2 mph3.5 kmh 29.82 in1009.8 mb 0.00 in0.0 mm 0.00 in0.0 mm 0.12 in3.0 mm
07:35 AM 46.0°F7.8°C 44.9°F7.2°C 96% 1.3 mph NW2.1 kmh NW 2.2 mph3.5 kmh 29.81 in1009.5 mb 0.00 in0.0 mm 0.00 in0.0 mm 0.12 in3.0 mm
07:36 AM 46.0°F7.8°C 44.9°F7.2°C 96% 5.1 mph WNW8.2 kmh WNW 6.9 mph11.1 kmh 29.81 in1009.5 mb 0.00 in0.0 mm 0.00 in0.0 mm 0.12 in3.0 mm
07:37 AM 45.9°F7.7°C 44.8°F7.1°C 96% 2.7 mph WNW4.3 kmh WNW 3.4 mph5.5 kmh 29.82 in1009.8 mb 0.00 in0.0 mm 0.00 in0.0 mm 0.12 in3.0 mm
07:38 AM 45.9°F7.7°C 44.8°F7.1°C 96% 3.4 mph NW5.5 kmh NW 4.5 mph7.2 kmh 29.82 in1009.8 mb 0.00 in0.0 mm 0.00 in0.0 mm 0.12 in3.0 mm
07:39 AM 45.9°F7.7°C 44.8°F7.1°C 96% 2.2 mph WNW3.5 kmh WNW 3.4 mph5.5 kmh 29.81 in1009.5 mb 0.00 in0.0 mm 0.00 in0.0 mm 0.12 in3.0 mm
07:40 AM 45.9°F7.7°C 44.8°F7.1°C 96% 3.1 mph WNW5.0 kmh WNW 4.5 mph7.2 kmh 29.81 in1009.5 mb 0.00 in0.0 mm 0.00 in0.0 mm 0.12 in3.0 mm
07:41 AM 45.9°F7.7°C 44.8°F7.1°C 96% 2.2 mph WNW3.5 kmh WNW 3.4 mph5.5 kmh 29.82 in1009.8 mb 0.00 in0.0 mm 0.00 in0.0 mm 0.12 in3.0 mm
07:42 AM 45.9°F7.7°C 44.8°F7.1°C 96% 1.1 mph NW1.8 kmh NW 1.1 mph1.8 kmh 29.81 in1009.5 mb 0.00 in0.0 mm 0.00 in0.0 mm 0.12 in3.0 mm
07:43 AM 45.9°F7.7°C 44.8°F7.1°C 96% 4.3 mph WNW6.9 kmh WNW 5.8 mph9.3 kmh 29.81 in1009.5 mb 0.00 in0.0 mm 0.00 in0.0 mm 0.12 in3.0 mm
07:44 AM 45.9°F7.7°C 44.8°F7.1°C 96% 4.7 mph NW7.6 kmh NW 5.8 mph9.3 kmh 29.82 in1009.8 mb 0.00 in0.0 mm 0.00 in0.0 mm 0.12 in3.0 mm
07:45 AM 45.9°F7.7°C 44.8°F7.1°C 96% 3.8 mph WNW6.1 kmh WNW 4.5 mph7.2 kmh 29.81 in1009.5 mb 0.00 in0.0 mm 0.00 in0.0 mm 0.12 in3.0 mm
07:46 AM 45.9°F7.7°C 44.8°F7.1°C 96% 3.4 mph WNW5.5 kmh WNW 4.5 mph7.2 kmh 29.81 in1009.5 mb 0.00 in0.0 mm 0.00 in0.0 mm 0.12 in3.0 mm
07:47 AM 46.0°F7.8°C 44.9°F7.2°C 96% 1.6 mph NW2.6 kmh NW 2.2 mph3.5 kmh 29.81 in1009.5 mb 0.00 in0.0 mm 0.00 in0.0 mm 0.12 in3.0 mm
07:48 AM 46.0°F7.8°C 44.9°F7.2°C 96% 5.4 mph W8.7 kmh W 6.9 mph11.1 kmh 29.81 in1009.5 mb 0.00 in0.0 mm 0.00 in0.0 mm 0.12 in3.0 mm
07:49 AM 46.0°F7.8°C 44.9°F7.2°C 96% 3.4 mph WNW5.5 kmh WNW 4.5 mph7.2 kmh 29.81 in1009.5 mb 0.00 in0.0 mm 0.00 in0.0 mm 0.12 in3.0 mm
07:50 AM 46.0°F7.8°C 44.9°F7.2°C 96% 2.7 mph NW4.3 kmh NW 3.4 mph5.5 kmh 29.82 in1009.8 mb 0.00 in0.0 mm 0.00 in0.0 mm 0.12 in3.0 mm
07:51 AM 46.0°F7.8°C 44.9°F7.2°C 96% 2.9 mph WNW4.7 kmh WNW 4.5 mph7.2 kmh 29.81 in1009.5 mb 0.00 in0.0 mm 0.00 in0.0 mm 0.12 in3.0 mm
07:52 AM 46.0°F7.8°C 44.9°F7.2°C 96% 3.4 mph WNW5.5 kmh WNW 4.5 mph7.2 kmh 29.81 in1009.5 mb 0.00 in0.0 mm 0.00 in0.0 mm 0.12 in3.0 mm
07:53 AM 46.0°F7.8°C 44.9°F7.2°C 96% 1.1 mph WNW1.8 kmh WNW 1.1 mph1.8 kmh 29.81 in1009.5 mb 0.00 in0.0 mm 0.00 in0.0 mm 0.12 in3.0 mm
07:54 AM 46.0°F7.8°C 44.9°F7.2°C 96% 2.2 mph WNW3.5 kmh WNW 2.2 mph3.5 kmh 29.81 in1009.5 mb 0.00 in0.0 mm 0.00 in0.0 mm 0.12 in3.0 mm
07:55 AM 46.2°F7.9°C 45.1°F7.3°C 96% 4.9 mph WNW7.9 kmh WNW 5.8 mph9.3 kmh 29.81 in1009.5 mb 0.00 in0.0 mm 0.00 in0.0 mm 0.12 in3.0 mm
07:56 AM 46.2°F7.9°C 45.1°F7.3°C 96% 5.8 mph NW9.3 kmh NW 5.8 mph9.3 kmh 29.81 in1009.5 mb 0.00 in0.0 mm 0.00 in0.0 mm 0.12 in3.0 mm
07:57 AM 46.2°F7.9°C 45.1°F7.3°C 96% 2.9 mph WNW4.7 kmh WNW 3.4 mph5.5 kmh 29.80 in1009.1 mb 0.00 in0.0 mm 0.00 in0.0 mm 0.12 in3.0 mm
07:58 AM 46.2°F7.9°C 45.1°F7.3°C 96% 3.4 mph WNW5.5 kmh WNW 3.4 mph5.5 kmh 29.81 in1009.5 mb 0.00 in0.0 mm 0.00 in0.0 mm 0.12 in3.0 mm
07:59 AM 46.2°F7.9°C 45.1°F7.3°C 96% 1.8 mph WNW2.9 kmh WNW 2.2 mph3.5 kmh 29.81 in1009.5 mb 0.00 in0.0 mm 0.00 in0.0 mm 0.12 in3.0 mm
08:00 AM 46.4°F8.0°C 45.3°F7.4°C 96% 3.8 mph WNW6.1 kmh WNW 4.5 mph7.2 kmh 29.81 in1009.5 mb 0.00 in0.0 mm 0.00 in0.0 mm 0.12 in3.0 mm
08:01 AM 46.4°F8.0°C 45.3°F7.4°C 96% 2.2 mph NW3.5 kmh NW 2.2 mph3.5 kmh 29.81 in1009.5 mb 0.00 in0.0 mm 0.00 in0.0 mm 0.12 in3.0 mm
08:02 AM 46.4°F8.0°C 45.3°F7.4°C 96% 2.7 mph NW4.3 kmh NW 3.4 mph5.5 kmh 29.81 in1009.5 mb 0.00 in0.0 mm 0.00 in0.0 mm 0.12 in3.0 mm
08:03 AM 46.4°F8.0°C 45.3°F7.4°C 96% 3.8 mph W6.1 kmh W 4.5 mph7.2 kmh 29.81 in1009.5 mb 0.00 in0.0 mm 0.00 in0.0 mm 0.12 in3.0 mm
08:04 AM 46.4°F8.0°C 45.0°F7.2°C 95% 1.3 mph WNW2.1 kmh WNW 2.2 mph3.5 kmh 29.81 in1009.5 mb 0.00 in0.0 mm 0.00 in0.0 mm 0.12 in3.0 mm
08:05 AM 46.4°F8.0°C 45.0°F7.2°C 95% 4.5 mph WNW7.2 kmh WNW 4.5 mph7.2 kmh 29.81 in1009.5 mb 0.00 in0.0 mm 0.00 in0.0 mm 0.12 in3.0 mm
08:06 AM 46.6°F8.1°C 45.2°F7.3°C 95% 2.9 mph NW4.7 kmh NW 3.4 mph5.5 kmh 29.81 in1009.5 mb 0.00 in0.0 mm 0.00 in0.0 mm 0.12 in3.0 mm
08:07 AM 46.6°F8.1°C 45.2°F7.3°C 95% 2.7 mph WNW4.3 kmh WNW 3.4 mph5.5 kmh 29.81 in1009.5 mb 0.00 in0.0 mm 0.00 in0.0 mm 0.12 in3.0 mm
08:08 AM 46.6°F8.1°C 45.2°F7.3°C 95% 1.1 mph NW1.8 kmh NW 1.1 mph1.8 kmh 29.81 in1009.5 mb 0.00 in0.0 mm 0.00 in0.0 mm 0.12 in3.0 mm
08:09 AM 46.6°F8.1°C 45.2°F7.3°C 95% 1.3 mph NW2.1 kmh NW 2.2 mph3.5 kmh 29.81 in1009.5 mb 0.00 in0.0 mm 0.00 in0.0 mm 0.12 in3.0 mm
08:10 AM 46.6°F8.1°C 45.2°F7.3°C 95% 3.1 mph WNW5.0 kmh WNW 4.5 mph7.2 kmh 29.81 in1009.5 mb 0.00 in0.0 mm 0.00 in0.0 mm 0.12 in3.0 mm
08:11 AM 46.6°F8.1°C 45.2°F7.3°C 95% 2.7 mph WNW4.3 kmh WNW 3.4 mph5.5 kmh 29.81 in1009.5 mb 0.00 in0.0 mm 0.00 in0.0 mm 0.12 in3.0 mm
08:12 AM 46.8°F8.2°C 45.4°F7.4°C 95% 2.0 mph NW3.2 kmh NW 3.4 mph5.5 kmh 29.81 in1009.5 mb 0.00 in0.0 mm 0.00 in0.0 mm 0.12 in3.0 mm
08:13 AM 46.8°F8.2°C 45.4°F7.4°C 95% 2.5 mph WNW4.0 kmh WNW 4.5 mph7.2 kmh 29.80 in1009.1 mb 0.00 in0.0 mm 0.00 in0.0 mm 0.12 in3.0 mm
08:14 AM 46.8°F8.2°C 45.4°F7.4°C 95% 1.3 mph NW2.1 kmh NW 2.2 mph3.5 kmh 29.81 in1009.5 mb 0.00 in0.0 mm 0.00 in0.0 mm 0.12 in3.0 mm
08:15 AM 46.8°F8.2°C 45.4°F7.4°C 95% 3.4 mph WNW5.5 kmh WNW 4.5 mph7.2 kmh 29.81 in1009.5 mb 0.00 in0.0 mm 0.00 in0.0 mm 0.12 in3.0 mm
08:16 AM 46.8°F8.2°C 45.4°F7.4°C 95% 4.5 mph WNW7.2 kmh WNW 5.8 mph9.3 kmh 29.81 in1009.5 mb 0.00 in0.0 mm 0.00 in0.0 mm 0.12 in3.0 mm
08:17 AM 46.9°F8.3°C 45.5°F7.5°C 95% 3.4 mph WNW5.5 kmh WNW 5.8 mph9.3 kmh 29.81 in1009.5 mb 0.00 in0.0 mm 0.00 in0.0 mm 0.12 in3.0 mm
08:18 AM 46.9°F8.3°C 45.5°F7.5°C 95% 0.7 mph NW1.1 kmh NW 1.1 mph1.8 kmh 29.81 in1009.5 mb 0.00 in0.0 mm 0.00 in0.0 mm 0.12 in3.0 mm
08:19 AM 46.9°F8.3°C 45.3°F7.4°C 94% 2.9 mph WNW4.7 kmh WNW 3.4 mph5.5 kmh 29.81 in1009.5 mb 0.00 in0.0 mm 0.00 in0.0 mm 0.12 in3.0 mm
08:20 AM 47.1°F8.4°C 45.5°F7.5°C 94% 4.0 mph W6.4 kmh W 4.5 mph7.2 kmh 29.81 in1009.5 mb 0.00 in0.0 mm 0.00 in0.0 mm 0.12 in3.0 mm
08:21 AM 47.1°F8.4°C 45.5°F7.5°C 94% 4.0 mph NW6.4 kmh NW 5.8 mph9.3 kmh 29.81 in1009.5 mb 0.00 in0.0 mm 0.00 in0.0 mm 0.12 in3.0 mm
08:22 AM 47.3°F8.5°C 45.7°F7.6°C 94% 3.4 mph WNW5.5 kmh WNW 4.5 mph7.2 kmh 29.81 in1009.5 mb 0.00 in0.0 mm 0.00 in0.0 mm 0.12 in3.0 mm
08:23 AM 47.3°F8.5°C 45.7°F7.6°C 94% 4.3 mph WNW6.9 kmh WNW 4.5 mph7.2 kmh 29.81 in1009.5 mb 0.00 in0.0 mm 0.00 in0.0 mm 0.12 in3.0 mm
08:24 AM 47.5°F8.6°C 45.9°F7.7°C 94% 3.4 mph WNW5.5 kmh WNW 3.4 mph5.5 kmh 29.81 in1009.5 mb 0.00 in0.0 mm 0.00 in0.0 mm 0.12 in3.0 mm
08:25 AM 47.5°F8.6°C 45.6°F7.6°C 93% 2.7 mph WNW4.3 kmh WNW 3.4 mph5.5 kmh 29.81 in1009.5 mb 0.00 in0.0 mm 0.00 in0.0 mm 0.12 in3.0 mm
08:26 AM 47.7°F8.7°C 45.8°F7.7°C 93% 3.6 mph WNW5.8 kmh WNW 5.8 mph9.3 kmh 29.81 in1009.5 mb 0.00 in0.0 mm 0.00 in0.0 mm 0.12 in3.0 mm
08:27 AM 47.8°F8.8°C 45.9°F7.7°C 93% 2.9 mph WNW4.7 kmh WNW 3.4 mph5.5 kmh 29.81 in1009.5 mb 0.00 in0.0 mm 0.00 in0.0 mm 0.12 in3.0 mm
08:28 AM 48.2°F9.0°C 46.3°F7.9°C 93% 2.2 mph WNW3.5 kmh WNW 2.2 mph3.5 kmh 29.81 in1009.5 mb 0.00 in0.0 mm 0.00 in0.0 mm 0.12 in3.0 mm
08:29 AM 48.4°F9.1°C 46.5°F8.1°C 93% 2.9 mph WNW4.7 kmh WNW 3.4 mph5.5 kmh 29.81 in1009.5 mb 0.00 in0.0 mm 0.00 in0.0 mm 0.12 in3.0 mm
08:30 AM 48.6°F9.2°C 46.4°F8.0°C 92% 1.3 mph NW2.1 kmh NW 2.2 mph3.5 kmh 29.81 in1009.5 mb 0.00 in0.0 mm 0.00 in0.0 mm 0.12 in3.0 mm
08:31 AM 48.6°F9.2°C 46.4°F8.0°C 92% 2.2 mph W3.5 kmh W 4.5 mph7.2 kmh 29.81 in1009.5 mb 0.00 in0.0 mm 0.00 in0.0 mm 0.12 in3.0 mm
08:32 AM 48.7°F9.3°C 46.5°F8.1°C 92% 5.4 mph W8.7 kmh W 6.9 mph11.1 kmh 29.81 in1009.5 mb 0.00 in0.0 mm 0.00 in0.0 mm 0.12 in3.0 mm
08:33 AM 48.7°F9.3°C 46.2°F7.9°C 91% 5.4 mph W8.7 kmh W 5.8 mph9.3 kmh 29.81 in1009.5 mb 0.00 in0.0 mm 0.00 in0.0 mm 0.12 in3.0 mm
08:34 AM 48.7°F9.3°C 46.2°F7.9°C 91% 4.9 mph NW7.9 kmh NW 6.9 mph11.1 kmh 29.81 in1009.5 mb 0.00 in0.0 mm 0.00 in0.0 mm 0.12 in3.0 mm
08:35 AM 48.7°F9.3°C 46.2°F7.9°C 91% 3.6 mph W5.8 kmh W 4.5 mph7.2 kmh 29.81 in1009.5 mb 0.00 in0.0 mm 0.00 in0.0 mm 0.12 in3.0 mm
08:36 AM 48.6°F9.2°C 46.4°F8.0°C 92% 3.8 mph WNW6.1 kmh WNW 4.5 mph7.2 kmh 29.81 in1009.5 mb 0.00 in0.0 mm 0.00 in0.0 mm 0.12 in3.0 mm
08:37 AM 48.6°F9.2°C 46.4°F8.0°C 92% 2.5 mph NW4.0 kmh NW 3.4 mph5.5 kmh 29.81 in1009.5 mb 0.00 in0.0 mm 0.00 in0.0 mm 0.12 in3.0 mm
08:38 AM 48.4°F9.1°C 46.2°F7.9°C 92% 3.8 mph WNW6.1 kmh WNW 4.5 mph7.2 kmh 29.81 in1009.5 mb 0.00 in0.0 mm 0.00 in0.0 mm 0.12 in3.0 mm
08:39 AM 48.4°F9.1°C 46.2°F7.9°C 92% 2.9 mph NW4.7 kmh NW 3.4 mph5.5 kmh 29.81 in1009.5 mb 0.00 in0.0 mm 0.00 in0.0 mm 0.12 in3.0 mm
08:40 AM 48.4°F9.1°C 46.2°F7.9°C 92% 2.2 mph NW3.5 kmh NW 3.4 mph5.5 kmh 29.82 in1009.8 mb 0.00 in0.0 mm 0.00 in0.0 mm 0.12 in3.0 mm
08:41 AM 48.4°F9.1°C 46.2°F7.9°C 92% 3.4 mph WNW5.5 kmh WNW 4.5 mph7.2 kmh 29.82 in1009.8 mb 0.00 in0.0 mm 0.00 in0.0 mm 0.12 in3.0 mm
08:42 AM 48.4°F9.1°C 46.2°F7.9°C 92% 2.5 mph NW4.0 kmh NW 3.4 mph5.5 kmh 29.81 in1009.5 mb 0.00 in0.0 mm 0.00 in0.0 mm 0.12 in3.0 mm
08:43 AM 48.4°F9.1°C 46.2°F7.9°C 92% 3.8 mph WNW6.1 kmh WNW 4.5 mph7.2 kmh 29.82 in1009.8 mb 0.00 in0.0 mm 0.00 in0.0 mm 0.12 in3.0 mm
08:44 AM 48.4°F9.1°C 46.2°F7.9°C 92% 4.0 mph WNW6.4 kmh WNW 5.8 mph9.3 kmh 29.81 in1009.5 mb 0.00 in0.0 mm 0.00 in0.0 mm 0.12 in3.0 mm
08:45 AM 48.4°F9.1°C 46.2°F7.9°C 92% 2.0 mph NW3.2 kmh NW 2.2 mph3.5 kmh 29.81 in1009.5 mb 0.00 in0.0 mm 0.00 in0.0 mm 0.12 in3.0 mm
08:47 AM 48.4°F9.1°C 46.2°F7.9°C 92% 2.9 mph WNW4.7 kmh WNW 3.4 mph5.5 kmh 29.81 in1009.5 mb 0.00 in0.0 mm 0.00 in0.0 mm 0.12 in3.0 mm
08:48 AM 48.4°F9.1°C 46.2°F7.9°C 92% 1.3 mph NW2.1 kmh NW 2.2 mph3.5 kmh 29.82 in1009.8 mb 0.00 in0.0 mm 0.00 in0.0 mm 0.12 in3.0 mm
08:49 AM 48.6°F9.2°C 46.4°F8.0°C 92% 2.0 mph NW3.2 kmh NW 2.2 mph3.5 kmh 29.82 in1009.8 mb 0.00 in0.0 mm 0.00 in0.0 mm 0.12 in3.0 mm
08:50 AM 48.6°F9.2°C 46.4°F8.0°C 92% 3.8 mph W6.1 kmh W 4.5 mph7.2 kmh 29.82 in1009.8 mb 0.00 in0.0 mm 0.00 in0.0 mm 0.12 in3.0 mm
08:51 AM 48.4°F9.1°C 45.9°F7.7°C 91% 4.9 mph WNW7.9 kmh WNW 6.9 mph11.1 kmh 29.81 in1009.5 mb 0.00 in0.0 mm 0.00 in0.0 mm 0.12 in3.0 mm
08:52 AM 48.4°F9.1°C 45.9°F7.7°C 91% 8.1 mph WNW13.0 kmh WNW 9.2 mph14.8 kmh 29.82 in1009.8 mb 0.00 in0.0 mm 0.00 in0.0 mm 0.12 in3.0 mm
08:53 AM 48.4°F9.1°C 45.9°F7.7°C 91% 5.4 mph WNW8.7 kmh WNW 5.8 mph9.3 kmh 29.82 in1009.8 mb 0.00 in0.0 mm 0.00 in0.0 mm 0.12 in3.0 mm
08:54 AM 48.4°F9.1°C 45.9°F7.7°C 91% 3.4 mph WNW5.5 kmh WNW 4.5 mph7.2 kmh 29.82 in1009.8 mb 0.00 in0.0 mm 0.00 in0.0 mm 0.12 in3.0 mm
08:55 AM 48.4°F9.1°C 45.9°F7.7°C 91% 4.5 mph W7.2 kmh W 5.8 mph9.3 kmh 29.82 in1009.8 mb 0.00 in0.0 mm 0.00 in0.0 mm 0.12 in3.0 mm
08:56 AM 48.4°F9.1°C 45.9°F7.7°C 91% 5.8 mph W9.3 kmh W 6.9 mph11.1 kmh 29.82 in1009.8 mb 0.00 in0.0 mm 0.00 in0.0 mm 0.12 in3.0 mm
08:57 AM 48.4°F9.1°C 45.9°F7.7°C 91% 5.1 mph W8.2 kmh W 6.9 mph11.1 kmh 29.83 in1010.2 mb 0.00 in0.0 mm 0.00 in0.0 mm 0.12 in3.0 mm
08:58 AM 48.4°F9.1°C 45.9°F7.7°C 91% 3.1 mph WNW5.0 kmh WNW 3.4 mph5.5 kmh 29.83 in1010.2 mb 0.00 in0.0 mm 0.00 in0.0 mm 0.12 in3.0 mm
08:59 AM 48.4°F9.1°C 46.2°F7.9°C 92% 4.7 mph NW7.6 kmh NW 5.8 mph9.3 kmh 29.83 in1010.2 mb 0.00 in0.0 mm 0.00 in0.0 mm 0.12 in3.0 mm
09:00 AM 48.4°F9.1°C 46.2°F7.9°C 92% 5.8 mph W9.3 kmh W 6.9 mph11.1 kmh 29.83 in1010.2 mb 0.00 in0.0 mm 0.00 in0.0 mm 0.12 in3.0 mm
09:01 AM 48.2°F9.0°C 46.0°F7.8°C 92% 4.3 mph WNW6.9 kmh WNW 5.8 mph9.3 kmh 29.82 in1009.8 mb 0.00 in0.0 mm 0.00 in0.0 mm 0.12 in3.0 mm
09:02 AM 48.2°F9.0°C 46.0°F7.8°C 92% 6.3 mph WNW10.1 kmh WNW 6.9 mph11.1 kmh 29.83 in1010.2 mb 0.00 in0.0 mm 0.00 in0.0 mm 0.12 in3.0 mm
09:03 AM 48.2°F9.0°C 46.0°F7.8°C 92% 3.8 mph W6.1 kmh W 4.5 mph7.2 kmh 29.83 in1010.2 mb 0.00 in0.0 mm 0.00 in0.0 mm 0.12 in3.0 mm
09:04 AM 48.0°F8.9°C 45.8°F7.7°C 92% 2.2 mph WNW3.5 kmh WNW 3.4 mph5.5 kmh 29.82 in1009.8 mb 0.00 in0.0 mm 0.00 in0.0 mm 0.12 in3.0 mm
09:05 AM 48.0°F8.9°C 45.8°F7.7°C 92% 6.9 mph W11.1 kmh W 8.1 mph13.0 kmh 29.83 in1010.2 mb 0.00 in0.0 mm 0.00 in0.0 mm 0.12 in3.0 mm
09:06 AM 48.0°F8.9°C 45.8°F7.7°C 92% 5.4 mph W8.7 kmh W 6.9 mph11.1 kmh 29.83 in1010.2 mb 0.00 in0.0 mm 0.00 in0.0 mm 0.12 in3.0 mm
09:07 AM 48.0°F8.9°C 45.8°F7.7°C 92% 5.4 mph WNW8.7 kmh WNW 6.9 mph11.1 kmh 29.83 in1010.2 mb 0.00 in0.0 mm 0.00 in0.0 mm 0.12 in3.0 mm
09:08 AM 48.0°F8.9°C 45.8°F7.7°C 92% 2.5 mph NW4.0 kmh NW 3.4 mph5.5 kmh 29.82 in1009.8 mb 0.00 in0.0 mm 0.00 in0.0 mm 0.12 in3.0 mm
09:09 AM 48.0°F8.9°C 45.8°F7.7°C 92% 4.5 mph W7.2 kmh W 5.8 mph9.3 kmh 29.83 in1010.2 mb 0.00 in0.0 mm 0.00 in0.0 mm 0.12 in3.0 mm
09:10 AM 48.0°F8.9°C 45.5°F7.5°C 91% 5.8 mph WNW9.3 kmh WNW 8.1 mph13.0 kmh 29.83 in1010.2 mb 0.00 in0.0 mm 0.00 in0.0 mm 0.12 in3.0 mm
09:11 AM 48.0°F8.9°C 45.5°F7.5°C 91% 3.4 mph NW5.5 kmh NW 4.5 mph7.2 kmh 29.83 in1010.2 mb 0.00 in0.0 mm 0.00 in0.0 mm 0.12 in3.0 mm
09:12 AM 47.8°F8.8°C 45.3°F7.4°C 91% 4.3 mph WNW6.9 kmh WNW 5.8 mph9.3 kmh 29.83 in1010.2 mb 0.00 in0.0 mm 0.00 in0.0 mm 0.12 in3.0 mm
09:13 AM 47.8°F8.8°C 45.0°F7.2°C 90% 7.8 mph W12.6 kmh W 10.3 mph16.6 kmh 29.83 in1010.2 mb 0.07 in1.8 mm 4.26 in108.2 mm 0.13 in3.3 mm
09:14 AM 47.7°F8.7°C 44.9°F7.2°C 90% 4.3 mph WNW6.9 kmh WNW 5.8 mph9.3 kmh 29.84 in1010.5 mb 0.07 in1.8 mm 0.00 in0.0 mm 0.13 in3.3 mm
09:15 AM 47.5°F8.6°C 44.4°F6.9°C 89% 4.9 mph WNW7.9 kmh WNW 8.1 mph13.0 kmh 29.84 in1010.5 mb 0.07 in1.8 mm 0.00 in0.0 mm 0.13 in3.3 mm
09:16 AM 47.3°F8.5°C 44.5°F6.9°C 90% 6.9 mph W11.1 kmh W 9.2 mph14.8 kmh 29.84 in1010.5 mb 0.07 in1.8 mm 0.00 in0.0 mm 0.13 in3.3 mm
09:17 AM 47.3°F8.5°C 44.5°F6.9°C 90% 2.9 mph WNW4.7 kmh WNW 6.9 mph11.1 kmh 29.83 in1010.2 mb 0.07 in1.8 mm 0.00 in0.0 mm 0.13 in3.3 mm
09:18 AM 47.1°F8.4°C 44.3°F6.8°C 90% 3.1 mph NW5.0 kmh NW 4.5 mph7.2 kmh 29.84 in1010.5 mb 0.07 in1.8 mm 0.00 in0.0 mm 0.13 in3.3 mm
09:19 AM 46.9°F8.3°C 44.1°F6.7°C 90% 5.1 mph WNW8.2 kmh WNW 5.8 mph9.3 kmh 29.84 in1010.5 mb 0.07 in1.8 mm 0.00 in0.0 mm 0.13 in3.3 mm
09:20 AM 46.8°F8.2°C 44.3°F6.8°C 91% 3.4 mph WNW5.5 kmh WNW 4.5 mph7.2 kmh 29.83 in1010.2 mb 0.07 in1.8 mm 0.00 in0.0 mm 0.13 in3.3 mm
09:21 AM 46.6°F8.1°C 44.1°F6.7°C 91% 7.8 mph WNW12.6 kmh WNW 10.3 mph16.6 kmh 29.84 in1010.5 mb 0.07 in1.8 mm 0.00 in0.0 mm 0.13 in3.3 mm
09:22 AM 46.6°F8.1°C 44.1°F6.7°C 91% 4.7 mph WNW7.6 kmh WNW 5.8 mph9.3 kmh 29.84 in1010.5 mb 0.07 in1.8 mm 0.00 in0.0 mm 0.13 in3.3 mm
09:23 AM 46.4°F8.0°C 43.9°F6.6°C 91% 5.4 mph WNW8.7 kmh WNW 8.1 mph13.0 kmh 29.83 in1010.2 mb 0.00 in0.0 mm 0.00 in0.0 mm 0.13 in3.3 mm
09:24 AM 46.2°F7.9°C 43.7°F6.5°C 91% 2.9 mph W4.7 kmh W 3.4 mph5.5 kmh 29.84 in1010.5 mb 0.00 in0.0 mm 0.00 in0.0 mm 0.13 in3.3 mm
09:25 AM 46.0°F7.8°C 43.5°F6.4°C 91% 5.6 mph WNW9.0 kmh WNW 6.9 mph11.1 kmh 29.84 in1010.5 mb 0.00 in0.0 mm 0.00 in0.0 mm 0.13 in3.3 mm
09:26 AM 46.0°F7.8°C 43.5°F6.4°C 91% 6.5 mph NW10.5 kmh NW 6.9 mph11.1 kmh 29.83 in1010.2 mb 0.00 in0.0 mm 0.00 in0.0 mm 0.13 in3.3 mm
09:27 AM 45.9°F7.7°C 43.4°F6.3°C 91% 7.6 mph WNW12.2 kmh WNW 10.3 mph16.6 kmh 29.84 in1010.5 mb 0.00 in0.0 mm 0.00 in0.0 mm 0.13 in3.3 mm
09:28 AM 45.9°F7.7°C 43.4°F6.3°C 91% 3.6 mph NW5.8 kmh NW 4.5 mph7.2 kmh 29.84 in1010.5 mb 0.00 in0.0 mm 0.00 in0.0 mm 0.13 in3.3 mm
09:29 AM 45.7°F7.6°C 43.2°F6.2°C 91% 0.7 mph NW1.1 kmh NW 1.1 mph1.8 kmh 29.84 in1010.5 mb 0.00 in0.0 mm 0.00 in0.0 mm 0.13 in3.3 mm
09:30 AM 45.7°F7.6°C 43.2°F6.2°C 91% 1.6 mph NW2.6 kmh NW 2.2 mph3.5 kmh 29.84 in1010.5 mb 0.00 in0.0 mm 0.00 in0.0 mm 0.13 in3.3 mm
09:31 AM 45.7°F7.6°C 43.2°F6.2°C 91% 1.8 mph NW2.9 kmh NW 2.2 mph3.5 kmh 29.84 in1010.5 mb 0.00 in0.0 mm 0.00 in0.0 mm 0.13 in3.3 mm
09:32 AM 45.7°F7.6°C 43.2°F6.2°C 91% 2.9 mph NW4.7 kmh NW 3.4 mph5.5 kmh 29.84 in1010.5 mb 0.00 in0.0 mm 0.00 in0.0 mm 0.13 in3.3 mm
09:33 AM 45.7°F7.6°C 43.2°F6.2°C 91% 0.4 mph NNW0.6 kmh NNW 1.1 mph1.8 kmh 29.84 in1010.5 mb 0.00 in0.0 mm 0.00 in0.0 mm 0.13 in3.3 mm
09:34 AM 45.7°F7.6°C 43.2°F6.2°C 91% 3.1 mph WNW5.0 kmh WNW 4.5 mph7.2 kmh 29.84 in1010.5 mb 0.00 in0.0 mm 0.00 in0.0 mm 0.13 in3.3 mm
09:35 AM 45.7°F7.6°C 43.2°F6.2°C 91% 2.5 mph NW4.0 kmh NW 4.5 mph7.2 kmh 29.84 in1010.5 mb 0.00 in0.0 mm 0.00 in0.0 mm 0.13 in3.3 mm
09:36 AM 45.7°F7.6°C 43.2°F6.2°C 91% 2.9 mph WNW4.7 kmh WNW 4.5 mph7.2 kmh 29.84 in1010.5 mb 0.00 in0.0 mm 0.00 in0.0 mm 0.13 in3.3 mm
09:37 AM 45.7°F7.6°C 43.2°F6.2°C 91% 0.9 mph NW1.4 kmh NW 2.2 mph3.5 kmh 29.84 in1010.5 mb 0.00 in0.0 mm 0.00 in0.0 mm 0.13 in3.3 mm
09:38 AM 45.7°F7.6°C 43.2°F6.2°C 91% 3.4 mph NW5.5 kmh NW 5.8 mph9.3 kmh 29.85 in1010.8 mb 0.00 in0.0 mm 0.00 in0.0 mm 0.13 in3.3 mm
09:39 AM 45.7°F7.6°C 42.9°F6.1°C 90% 3.8 mph W6.1 kmh W 5.8 mph9.3 kmh 29.84 in1010.5 mb 0.00 in0.0 mm 0.00 in0.0 mm 0.13 in3.3 mm
09:40 AM 45.7°F7.6°C 42.9°F6.1°C 90% 1.8 mph W2.9 kmh W 3.4 mph5.5 kmh 29.84 in1010.5 mb 0.00 in0.0 mm 0.00 in0.0 mm 0.13 in3.3 mm
09:41 AM 45.7°F7.6°C 42.6°F5.9°C 89% 3.4 mph NW5.5 kmh NW 4.5 mph7.2 kmh 29.84 in1010.5 mb 0.00 in0.0 mm 0.00 in0.0 mm 0.13 in3.3 mm
09:42 AM 45.9°F7.7°C 42.8°F6.0°C 89% 5.4 mph WNW8.7 kmh WNW 9.2 mph14.8 kmh 29.84 in1010.5 mb 0.07 in1.8 mm 4.26 in108.2 mm 0.14 in3.6 mm
09:43 AM 45.9°F7.7°C 42.5°F5.8°C 88% 7.4 mph W11.9 kmh W 12.5 mph20.1 kmh 29.84 in1010.5 mb 0.07 in1.8 mm 0.00 in0.0 mm 0.14 in3.6 mm
09:44 AM 45.9°F7.7°C 42.5°F5.8°C 88% 2.9 mph WNW4.7 kmh WNW 5.8 mph9.3 kmh 29.85 in1010.8 mb 0.07 in1.8 mm 0.00 in0.0 mm 0.14 in3.6 mm
09:45 AM 46.0°F7.8°C 42.6°F5.9°C 88% 3.4 mph WNW5.5 kmh WNW 4.5 mph7.2 kmh 29.84 in1010.5 mb 0.07 in1.8 mm 0.00 in0.0 mm 0.14 in3.6 mm
09:46 AM 46.0°F7.8°C 42.4°F5.8°C 87% 5.6 mph WSW9.0 kmh WSW 8.1 mph13.0 kmh 29.85 in1010.8 mb 0.07 in1.8 mm 0.00 in0.0 mm 0.14 in3.6 mm
09:47 AM 46.0°F7.8°C 42.1°F5.6°C 86% 4.0 mph W6.4 kmh W 6.9 mph11.1 kmh 29.86 in1011.2 mb 0.07 in1.8 mm 0.00 in0.0 mm 0.14 in3.6 mm
09:48 AM 46.2°F7.9°C 41.9°F5.5°C 85% 2.5 mph NW4.0 kmh NW 3.4 mph5.5 kmh 29.86 in1011.2 mb 0.07 in1.8 mm 0.00 in0.0 mm 0.14 in3.6 mm
09:49 AM 46.2°F7.9°C 41.6°F5.3°C 84% 4.3 mph W6.9 kmh W 4.5 mph7.2 kmh 29.86 in1011.2 mb 0.07 in1.8 mm 0.00 in0.0 mm 0.14 in3.6 mm
09:50 AM 46.4°F8.0°C 41.8°F5.4°C 84% 3.4 mph WNW5.5 kmh WNW 6.9 mph11.1 kmh 29.85 in1010.8 mb 0.07 in1.8 mm 0.00 in0.0 mm 0.14 in3.6 mm
09:51 AM 46.8°F8.2°C 41.6°F5.3°C 82% 5.8 mph WNW9.3 kmh WNW 6.9 mph11.1 kmh 29.86 in1011.2 mb 0.07 in1.8 mm 0.00 in0.0 mm 0.14 in3.6 mm
09:52 AM 46.9°F8.3°C 41.1°F5.1°C 80% 6.9 mph WNW11.1 kmh WNW 8.1 mph13.0 kmh 29.86 in1011.2 mb 0.07 in1.8 mm 0.00 in0.0 mm 0.14 in3.6 mm
09:53 AM 47.3°F8.5°C 40.8°F4.9°C 78% 11.2 mph W18.0 kmh W 14.8 mph23.8 kmh 29.86 in1011.2 mb 0.00 in0.0 mm 0.00 in0.0 mm 0.14 in3.6 mm
09:54 AM 47.5°F8.6°C 40.0°F4.4°C 75% 6.0 mph WSW9.7 kmh WSW 8.1 mph13.0 kmh 29.86 in1011.2 mb 0.00 in0.0 mm 0.00 in0.0 mm 0.14 in3.6 mm
09:55 AM 47.7°F8.7°C 40.2°F4.6°C 75% 10.7 mph W17.2 kmh W 12.5 mph20.1 kmh 29.86 in1011.2 mb 0.00 in0.0 mm 0.00 in0.0 mm 0.14 in3.6 mm
09:56 AM 47.7°F8.7°C 39.8°F4.3°C 74% 5.1 mph W8.2 kmh W 6.9 mph11.1 kmh 29.86 in1011.2 mb 0.00 in0.0 mm 0.00 in0.0 mm 0.14 in3.6 mm
09:57 AM 47.8°F8.8°C 39.9°F4.4°C 74% 5.1 mph W8.2 kmh W 8.1 mph13.0 kmh 29.86 in1011.2 mb 0.00 in0.0 mm 0.00 in0.0 mm 0.14 in3.6 mm
09:58 AM 47.8°F8.8°C 39.9°F4.4°C 74% 7.4 mph W11.9 kmh W 8.1 mph13.0 kmh 29.86 in1011.2 mb 0.00 in0.0 mm 0.00 in0.0 mm 0.14 in3.6 mm
09:59 AM 48.0°F8.9°C 39.8°F4.3°C 73% 4.3 mph WNW6.9 kmh WNW 5.8 mph9.3 kmh 29.86 in1011.2 mb 0.00 in0.0 mm 0.00 in0.0 mm 0.14 in3.6 mm
10:00 AM 48.2°F9.0°C 40.0°F4.4°C 73% 4.5 mph WNW7.2 kmh WNW 5.8 mph9.3 kmh 29.86 in1011.2 mb 0.00 in0.0 mm 0.00 in0.0 mm 0.14 in3.6 mm
10:01 AM 48.2°F9.0°C 39.2°F4.0°C 71% 7.2 mph W11.6 kmh W 9.2 mph14.8 kmh 29.86 in1011.2 mb 0.00 in0.0 mm 0.00 in0.0 mm 0.14 in3.6 mm
10:02 AM 48.4°F9.1°C 39.4°F4.1°C 71% 6.5 mph SSE10.5 kmh SSE 8.1 mph13.0 kmh 29.87 in1011.5 mb 0.00 in0.0 mm 0.00 in0.0 mm 0.14 in3.6 mm
10:03 AM 48.4°F9.1°C 38.3°F3.5°C 68% 15.0 mph NNW24.1 kmh NNW 17.2 mph27.7 kmh 29.87 in1011.5 mb 0.00 in0.0 mm 0.00 in0.0 mm 0.14 in3.6 mm
10:04 AM 48.4°F9.1°C 38.7°F3.7°C 69% 5.4 mph W8.7 kmh W 8.1 mph13.0 kmh 29.86 in1011.2 mb 0.00 in0.0 mm 0.00 in0.0 mm 0.14 in3.6 mm
10:05 AM 48.4°F9.1°C 38.3°F3.5°C 68% 6.5 mph W10.5 kmh W 8.1 mph13.0 kmh 29.86 in1011.2 mb 0.00 in0.0 mm 0.00 in0.0 mm 0.14 in3.6 mm
10:06 AM 48.4°F9.1°C 38.0°F3.3°C 67% 8.7 mph W14.0 kmh W 10.3 mph16.6 kmh 29.86 in1011.2 mb 0.00 in0.0 mm 0.00 in0.0 mm 0.14 in3.6 mm
10:07 AM 48.4°F9.1°C 38.0°F3.3°C 67% 8.3 mph WNW13.4 kmh WNW 13.6 mph21.9 kmh 29.86 in1011.2 mb 0.00 in0.0 mm 0.00 in0.0 mm 0.14 in3.6 mm
10:08 AM 48.4°F9.1°C 37.6°F3.1°C 66% 5.8 mph NW9.3 kmh NW 8.1 mph13.0 kmh 29.87 in1011.5 mb 0.00 in0.0 mm 0.00 in0.0 mm 0.14 in3.6 mm
10:09 AM 48.4°F9.1°C 37.2°F2.9°C 65% 7.2 mph W11.6 kmh W 9.2 mph14.8 kmh 29.86 in1011.2 mb 0.00 in0.0 mm 0.00 in0.0 mm 0.14 in3.6 mm
10:10 AM 48.4°F9.1°C 36.8°F2.7°C 64% 6.3 mph WNW10.1 kmh WNW 8.1 mph13.0 kmh 29.87 in1011.5 mb 0.00 in0.0 mm 0.00 in0.0 mm 0.14 in3.6 mm
10:11 AM 48.6°F9.2°C 37.4°F3.0°C 65% 4.0 mph WNW6.4 kmh WNW 4.5 mph7.2 kmh 29.87 in1011.5 mb 0.00 in0.0 mm 0.00 in0.0 mm 0.14 in3.6 mm
10:12 AM 48.6°F9.2°C 37.0°F2.8°C 64% 6.0 mph NW9.7 kmh NW 8.1 mph13.0 kmh 29.86 in1011.2 mb 0.00 in0.0 mm 0.00 in0.0 mm 0.14 in3.6 mm
10:13 AM 48.7°F9.3°C 36.3°F2.4°C 62% 4.7 mph W7.6 kmh W 5.8 mph9.3 kmh 29.87 in1011.5 mb 0.00 in0.0 mm 0.00 in0.0 mm 0.14 in3.6 mm
10:14 AM 48.7°F9.3°C 36.7°F2.6°C 63% 2.2 mph NE3.5 kmh NE 3.4 mph5.5 kmh 29.87 in1011.5 mb 0.00 in0.0 mm 0.00 in0.0 mm 0.14 in3.6 mm
10:15 AM 48.9°F9.4°C 35.2°F1.8°C 59% 10.5 mph W16.9 kmh W 15.9 mph25.6 kmh 29.87 in1011.5 mb 0.00 in0.0 mm 0.00 in0.0 mm 0.14 in3.6 mm
10:16 AM 48.9°F9.4°C 35.6°F2.0°C 60% 6.3 mph WNW10.1 kmh WNW 8.1 mph13.0 kmh 29.87 in1011.5 mb 0.00 in0.0 mm 0.00 in0.0 mm 0.14 in3.6 mm
10:17 AM 48.9°F9.4°C 36.0°F2.2°C 61% 8.9 mph W14.3 kmh W 10.3 mph16.6 kmh 29.87 in1011.5 mb 0.00 in0.0 mm 0.00 in0.0 mm 0.14 in3.6 mm
10:18 AM 49.1°F9.5°C 35.8°F2.1°C 60% 5.6 mph NW9.0 kmh NW 6.9 mph11.1 kmh 29.87 in1011.5 mb 0.00 in0.0 mm 0.00 in0.0 mm 0.14 in3.6 mm
10:19 AM 49.1°F9.5°C 35.0°F1.7°C 58% 6.5 mph NNW10.5 kmh NNW 8.1 mph13.0 kmh 29.88 in1011.9 mb 0.00 in0.0 mm 0.00 in0.0 mm 0.14 in3.6 mm
10:20 AM 49.1°F9.5°C 35.4°F1.9°C 59% 6.0 mph NW9.7 kmh NW 6.9 mph11.1 kmh 29.88 in1011.9 mb 0.00 in0.0 mm 0.00 in0.0 mm 0.14 in3.6 mm
10:21 AM 49.1°F9.5°C 36.2°F2.3°C 61% 1.3 mph NW2.1 kmh NW 2.2 mph3.5 kmh 29.86 in1011.2 mb 0.00 in0.0 mm 0.00 in0.0 mm 0.14 in3.6 mm
10:22 AM 49.1°F9.5°C 35.8°F2.1°C 60% 2.9 mph NW4.7 kmh NW 4.5 mph7.2 kmh 29.87 in1011.5 mb 0.00 in0.0 mm 0.00 in0.0 mm 0.14 in3.6 mm
10:23 AM 49.1°F9.5°C 35.8°F2.1°C 60% 6.0 mph WNW9.7 kmh WNW 9.2 mph14.8 kmh 29.87 in1011.5 mb 0.00 in0.0 mm 0.00 in0.0 mm 0.14 in3.6 mm
10:24 AM 49.3°F9.6°C 35.2°F1.8°C 58% 12.1 mph W19.5 kmh W 15.9 mph25.6 kmh 29.87 in1011.5 mb 0.00 in0.0 mm 0.00 in0.0 mm 0.14 in3.6 mm
10:25 AM 49.1°F9.5°C 35.4°F1.9°C 59% 6.0 mph WNW9.7 kmh WNW 8.1 mph13.0 kmh 29.87 in1011.5 mb 0.00 in0.0 mm 0.00 in0.0 mm 0.14 in3.6 mm
10:26 AM 49.1°F9.5°C 35.8°F2.1°C 60% 5.8 mph WNW9.3 kmh WNW 6.9 mph11.1 kmh 29.87 in1011.5 mb 0.00 in0.0 mm 0.00 in0.0 mm 0.14 in3.6 mm
10:27 AM 49.1°F9.5°C 35.8°F2.1°C 60% 4.5 mph WNW7.2 kmh WNW 5.8 mph9.3 kmh 29.88 in1011.9 mb 0.00 in0.0 mm 0.00 in0.0 mm 0.14 in3.6 mm
10:28 AM 49.1°F9.5°C 35.4°F1.9°C 59% 9.6 mph WNW15.4 kmh WNW 12.5 mph20.1 kmh 29.87 in1011.5 mb 0.00 in0.0 mm 0.00 in0.0 mm 0.14 in3.6 mm
10:29 AM 49.3°F9.6°C 36.0°F2.2°C 60% 4.3 mph W6.9 kmh W 6.9 mph11.1 kmh 29.87 in1011.5 mb 0.00 in0.0 mm 0.00 in0.0 mm 0.14 in3.6 mm
10:30 AM 49.3°F9.6°C 35.2°F1.8°C 58% 8.3 mph WSW13.4 kmh WSW 11.4 mph18.3 kmh 29.86 in1011.2 mb 0.00 in0.0 mm 0.00 in0.0 mm 0.14 in3.6 mm
10:31 AM 49.3°F9.6°C 35.2°F1.8°C 58% 10.5 mph WNW16.9 kmh WNW 12.5 mph20.1 kmh 29.87 in1011.5 mb 0.00 in0.0 mm 0.00 in0.0 mm 0.14 in3.6 mm
10:32 AM 49.3°F9.6°C 35.6°F2.0°C 59% 7.8 mph W12.6 kmh W 9.2 mph14.8 kmh 29.87 in1011.5 mb 0.00 in0.0 mm 0.00 in0.0 mm 0.14 in3.6 mm
10:33 AM 49.3°F9.6°C 36.0°F2.2°C 60% 6.0 mph WNW9.7 kmh WNW 9.2 mph14.8 kmh 29.87 in1011.5 mb 0.00 in0.0 mm 0.00 in0.0 mm 0.14 in3.6 mm
10:34 AM 49.1°F9.5°C 35.0°F1.7°C 58% 9.6 mph W15.4 kmh W 12.5 mph20.1 kmh 29.87 in1011.5 mb 0.00 in0.0 mm 0.00 in0.0 mm 0.14 in3.6 mm
10:35 AM 49.1°F9.5°C 35.4°F1.9°C 59% 8.1 mph W13.0 kmh W 10.3 mph16.6 kmh 29.86 in1011.2 mb 0.00 in0.0 mm 0.00 in0.0 mm 0.14 in3.6 mm
10:36 AM 49.1°F9.5°C 35.4°F1.9°C 59% 6.5 mph W10.5 kmh W 8.1 mph13.0 kmh 29.87 in1011.5 mb 0.00 in0.0 mm 0.00 in0.0 mm 0.14 in3.6 mm
10:37 AM 48.9°F9.4°C 36.0°F2.2°C 61% 3.1 mph WNW5.0 kmh WNW 4.5 mph7.2 kmh 29.87 in1011.5 mb 0.00 in0.0 mm 0.00 in0.0 mm 0.14 in3.6 mm
10:38 AM 49.1°F9.5°C 36.2°F2.3°C 61% 2.2 mph W3.5 kmh W 5.8 mph9.3 kmh 29.87 in1011.5 mb 0.00 in0.0 mm 0.00 in0.0 mm 0.14 in3.6 mm
10:39 AM 49.1°F9.5°C 36.2°F2.3°C 61% 4.9 mph WNW7.9 kmh WNW 5.8 mph9.3 kmh 29.88 in1011.9 mb 0.00 in0.0 mm 0.00 in0.0 mm 0.14 in3.6 mm
10:40 AM 49.3°F9.6°C 36.4°F2.4°C 61% 2.0 mph WNW3.2 kmh WNW 2.2 mph3.5 kmh 29.87 in1011.5 mb 0.00 in0.0 mm 0.00 in0.0 mm 0.14 in3.6 mm
10:41 AM 49.6°F9.8°C 36.3°F2.4°C 60% 4.3 mph W6.9 kmh W 5.8 mph9.3 kmh 29.87 in1011.5 mb 0.00 in0.0 mm 0.00 in0.0 mm 0.14 in3.6 mm
10:42 AM 49.8°F9.9°C 36.9°F2.7°C 61% 2.7 mph N4.3 kmh N 5.8 mph9.3 kmh 29.87 in1011.5 mb 0.00 in0.0 mm 0.00 in0.0 mm 0.14 in3.6 mm
10:43 AM 50.0°F10.0°C 36.7°F2.6°C 60% 2.2 mph NW3.5 kmh NW 3.4 mph5.5 kmh 29.87 in1011.5 mb 0.00 in0.0 mm 0.00 in0.0 mm 0.14 in3.6 mm
10:44 AM 50.2°F10.1°C 36.9°F2.7°C 60% 1.8 mph WNW2.9 kmh WNW 3.4 mph5.5 kmh 29.87 in1011.5 mb 0.00 in0.0 mm 0.00 in0.0 mm 0.14 in3.6 mm
10:45 AM 50.2°F10.1°C 35.1°F1.7°C 56% 6.0 mph WNW9.7 kmh WNW 6.9 mph11.1 kmh 29.87 in1011.5 mb 0.00 in0.0 mm 0.00 in0.0 mm 0.14 in3.6 mm
10:46 AM 50.2°F10.1°C 35.6°F2.0°C 57% 7.4 mph W11.9 kmh W 10.3 mph16.6 kmh 29.86 in1011.2 mb 0.00 in0.0 mm 0.00 in0.0 mm 0.14 in3.6 mm
10:47 AM 50.0°F10.0°C 34.9°F1.6°C 56% 8.1 mph W13.0 kmh W 10.3 mph16.6 kmh 29.87 in1011.5 mb 0.00 in0.0 mm 0.00 in0.0 mm 0.14 in3.6 mm
10:48 AM 49.6°F9.8°C 35.4°F1.9°C 58% 6.9 mph NW11.1 kmh NW 10.3 mph16.6 kmh 29.86 in1011.2 mb 0.00 in0.0 mm 0.00 in0.0 mm 0.14 in3.6 mm
10:49 AM 49.1°F9.5°C 34.1°F1.2°C 56% 6.5 mph NW10.5 kmh NW 8.1 mph13.0 kmh 29.86 in1011.2 mb 0.00 in0.0 mm 0.00 in0.0 mm 0.14 in3.6 mm
10:50 AM 48.9°F9.4°C 34.3°F1.3°C 57% 9.2 mph WNW14.8 kmh WNW 14.8 mph23.8 kmh 29.87 in1011.5 mb 0.00 in0.0 mm 0.00 in0.0 mm 0.14 in3.6 mm
10:51 AM 48.6°F9.2°C 34.1°F1.2°C 57% 5.8 mph WNW9.3 kmh WNW 8.1 mph13.0 kmh 29.86 in1011.2 mb 0.00 in0.0 mm 0.00 in0.0 mm 0.14 in3.6 mm
10:52 AM 48.6°F9.2°C 33.6°F0.9°C 56% 5.1 mph NW8.2 kmh NW 6.9 mph11.1 kmh 29.86 in1011.2 mb 0.00 in0.0 mm 0.00 in0.0 mm 0.14 in3.6 mm
10:53 AM 48.7°F9.3°C 33.7°F0.9°C 56% 2.9 mph WNW4.7 kmh WNW 4.5 mph7.2 kmh 29.86 in1011.2 mb 0.00 in0.0 mm 0.00 in0.0 mm 0.14 in3.6 mm
10:54 AM 48.9°F9.4°C 34.8°F1.6°C 58% 1.6 mph S2.6 kmh S 3.4 mph5.5 kmh 29.86 in1011.2 mb 0.00 in0.0 mm 0.00 in0.0 mm 0.14 in3.6 mm
10:55 AM 49.1°F9.5°C 34.1°F1.2°C 56% 4.5 mph NW7.2 kmh NW 5.8 mph9.3 kmh 29.86 in1011.2 mb 0.00 in0.0 mm 0.00 in0.0 mm 0.14 in3.6 mm
10:56 AM 49.5°F9.7°C 34.9°F1.6°C 57% 4.5 mph WNW7.2 kmh WNW 6.9 mph11.1 kmh 29.87 in1011.5 mb 0.00 in0.0 mm 0.00 in0.0 mm 0.14 in3.6 mm
10:57 AM 49.5°F9.7°C 34.5°F1.4°C 56% 4.5 mph W7.2 kmh W 5.8 mph9.3 kmh 29.86 in1011.2 mb 0.00 in0.0 mm 0.00 in0.0 mm 0.14 in3.6 mm
10:58 AM 49.5°F9.7°C 34.0°F1.1°C 55% 5.8 mph NW9.3 kmh NW 9.2 mph14.8 kmh 29.86 in1011.2 mb 0.00 in0.0 mm 0.00 in0.0 mm 0.14 in3.6 mm
10:59 AM 49.6°F9.8°C 34.6°F1.4°C 56% 4.0 mph WNW6.4 kmh WNW 4.5 mph7.2 kmh 29.86 in1011.2 mb 0.00 in0.0 mm 0.00 in0.0 mm 0.14 in3.6 mm
11:00 AM 49.8°F9.9°C 34.7°F1.5°C 56% 2.5 mph WNW4.0 kmh WNW 3.4 mph5.5 kmh 29.86 in1011.2 mb 0.00 in0.0 mm 0.00 in0.0 mm 0.14 in3.6 mm
11:01 AM 50.2°F10.1°C 34.2°F1.2°C 54% 4.5 mph WNW7.2 kmh WNW 6.9 mph11.1 kmh 29.87 in1011.5 mb 0.00 in0.0 mm 0.00 in0.0 mm 0.14 in3.6 mm
11:02 AM 50.4°F10.2°C 33.4°F0.8°C 52% 9.2 mph W14.8 kmh W 12.5 mph20.1 kmh 29.87 in1011.5 mb 0.00 in0.0 mm 0.00 in0.0 mm 0.14 in3.6 mm
11:03 AM 50.4°F10.2°C 33.4°F0.8°C 52% 8.1 mph WNW13.0 kmh WNW 10.3 mph16.6 kmh 29.86 in1011.2 mb 0.00 in0.0 mm 0.00 in0.0 mm 0.14 in3.6 mm
11:04 AM 50.2°F10.1°C 33.7°F0.9°C 53% 4.5 mph N7.2 kmh N 5.8 mph9.3 kmh 29.86 in1011.2 mb 0.00 in0.0 mm 0.00 in0.0 mm 0.14 in3.6 mm
11:05 AM 50.2°F10.1°C 33.3°F0.7°C 52% 3.6 mph E5.8 kmh E 4.5 mph7.2 kmh 29.86 in1011.2 mb 0.00 in0.0 mm 0.00 in0.0 mm 0.14 in3.6 mm
11:06 AM 50.2°F10.1°C 32.8°F0.4°C 51% 4.5 mph W7.2 kmh W 5.8 mph9.3 kmh 29.86 in1011.2 mb 0.00 in0.0 mm 0.00 in0.0 mm 0.14 in3.6 mm
11:07 AM 50.2°F10.1°C 32.8°F0.4°C 51% 6.9 mph NW11.1 kmh NW 8.1 mph13.0 kmh 29.86 in1011.2 mb 0.00 in0.0 mm 0.00 in0.0 mm 0.14 in3.6 mm
11:08 AM 50.4°F10.2°C 33.9°F1.1°C 53% 4.7 mph WNW7.6 kmh WNW 6.9 mph11.1 kmh 29.86 in1011.2 mb 0.00 in0.0 mm 0.00 in0.0 mm 0.14 in3.6 mm
11:09 AM 50.5°F10.3°C 33.5°F0.8°C 52% 3.8 mph WNW6.1 kmh WNW 4.5 mph7.2 kmh 29.86 in1011.2 mb 0.00 in0.0 mm 0.00 in0.0 mm 0.14 in3.6 mm
11:10 AM 50.5°F10.3°C 33.5°F0.8°C 52% 3.8 mph W6.1 kmh W 4.5 mph7.2 kmh 29.86 in1011.2 mb 0.00 in0.0 mm 0.00 in0.0 mm 0.14 in3.6 mm
11:11 AM 50.5°F10.3°C 33.5°F0.8°C 52% 3.8 mph SW6.1 kmh SW 5.8 mph9.3 kmh 29.86 in1011.2 mb 0.00 in0.0 mm 0.00 in0.0 mm 0.14 in3.6 mm
11:12 AM 50.5°F10.3°C 33.1°F0.6°C 51% 3.8 mph WNW6.1 kmh WNW 5.8 mph9.3 kmh 29.86 in1011.2 mb 0.00 in0.0 mm 0.00 in0.0 mm 0.14 in3.6 mm
11:13 AM 50.7°F10.4°C 34.2°F1.2°C 53% 6.0 mph W9.7 kmh W 6.9 mph11.1 kmh 29.86 in1011.2 mb 0.00 in0.0 mm 0.00 in0.0 mm 0.14 in3.6 mm
11:14 AM 50.9°F10.5°C 33.9°F1.1°C 52% 6.0 mph W9.7 kmh W 8.1 mph13.0 kmh 29.86 in1011.2 mb 0.00 in0.0 mm 0.00 in0.0 mm 0.14 in3.6 mm
11:15 AM 50.9°F10.5°C 33.4°F0.8°C 51% 9.2 mph W14.8 kmh W 11.4 mph18.3 kmh 29.86 in1011.2 mb 0.00 in0.0 mm 0.00 in0.0 mm 0.14 in3.6 mm
11:16 AM 50.7°F10.4°C 33.7°F0.9°C 52% 5.4 mph W8.7 kmh W 6.9 mph11.1 kmh 29.86 in1011.2 mb 0.00 in0.0 mm 0.00 in0.0 mm 0.14 in3.6 mm
11:17 AM 50.7°F10.4°C 33.2°F0.7°C 51% 8.7 mph W14.0 kmh W 10.3 mph16.6 kmh 29.86 in1011.2 mb 0.00 in0.0 mm 0.00 in0.0 mm 0.14 in3.6 mm
11:18 AM 50.5°F10.3°C 33.1°F0.6°C 51% 6.9 mph W11.1 kmh W 8.1 mph13.0 kmh 29.85 in1010.8 mb 0.00 in0.0 mm 0.00 in0.0 mm 0.14 in3.6 mm
11:19 AM 50.4°F10.2°C 33.0°F0.6°C 51% 5.8 mph WNW9.3 kmh WNW 6.9 mph11.1 kmh 29.86 in1011.2 mb 0.00 in0.0 mm 0.00 in0.0 mm 0.14 in3.6 mm
11:20 AM 50.4°F10.2°C 33.0°F0.6°C 51% 6.0 mph WNW9.7 kmh WNW 8.1 mph13.0 kmh 29.85 in1010.8 mb 0.00 in0.0 mm 0.00 in0.0 mm 0.14 in3.6 mm
11:21 AM 50.4°F10.2°C 32.5°F0.3°C 50% 6.9 mph W11.1 kmh W 9.2 mph14.8 kmh 29.86 in1011.2 mb 0.00 in0.0 mm 0.00 in0.0 mm 0.14 in3.6 mm
11:22 AM 50.4°F10.2°C 32.0°F0.0°C 49% 9.4 mph W15.1 kmh W 12.5 mph20.1 kmh 29.86 in1011.2 mb 0.00 in0.0 mm 0.00 in0.0 mm 0.14 in3.6 mm
11:23 AM 50.2°F10.1°C 32.3°F0.2°C 50% 7.6 mph W12.2 kmh W 9.2 mph14.8 kmh 29.86 in1011.2 mb 0.00 in0.0 mm 0.00 in0.0 mm 0.14 in3.6 mm
11:24 AM 50.2°F10.1°C 31.8°F-0.1°C 49% 8.9 mph W14.3 kmh W 11.4 mph18.3 kmh 29.85 in1010.8 mb 0.00 in0.0 mm 0.00 in0.0 mm 0.14 in3.6 mm
11:25 AM 50.2°F10.1°C 33.7°F0.9°C 53% 2.5 mph N4.0 kmh N 3.4 mph5.5 kmh 29.85 in1010.8 mb 0.00 in0.0 mm 0.00 in0.0 mm 0.14 in3.6 mm
11:26 AM 50.4°F10.2°C 31.5°F-0.3°C 48% 8.5 mph W13.7 kmh W 10.3 mph16.6 kmh 29.85 in1010.8 mb 0.00 in0.0 mm 0.00 in0.0 mm 0.14 in3.6 mm
11:27 AM 50.4°F10.2°C 32.5°F0.3°C 50% 5.8 mph NW9.3 kmh NW 8.1 mph13.0 kmh 29.85 in1010.8 mb 0.00 in0.0 mm 0.00 in0.0 mm 0.14 in3.6 mm
11:28 AM 50.4°F10.2°C 33.0°F0.6°C 51% 4.3 mph NW6.9 kmh NW 5.8 mph9.3 kmh 29.85 in1010.8 mb 0.00 in0.0 mm 0.00 in0.0 mm 0.14 in3.6 mm
11:29 AM 50.7°F10.4°C 34.2°F1.2°C 53% 0.7 mph NW1.1 kmh NW 1.1 mph1.8 kmh 29.85 in1010.8 mb 0.00 in0.0 mm 0.00 in0.0 mm 0.14 in3.6 mm
11:30 AM 50.9°F10.5°C 31.9°F-0.1°C 48% 6.0 mph WNW9.7 kmh WNW 8.1 mph13.0 kmh 29.85 in1010.8 mb 0.00 in0.0 mm 0.00 in0.0 mm 0.14 in3.6 mm
11:31 AM 50.9°F10.5°C 32.9°F0.5°C 50% 5.8 mph WSW9.3 kmh WSW 8.1 mph13.0 kmh 29.86 in1011.2 mb 0.00 in0.0 mm 0.00 in0.0 mm 0.14 in3.6 mm
11:32 AM 50.7°F10.4°C 32.2°F0.1°C 49% 5.1 mph WNW8.2 kmh WNW 6.9 mph11.1 kmh 29.86 in1011.2 mb 0.00 in0.0 mm 0.00 in0.0 mm 0.14 in3.6 mm
11:33 AM 50.5°F10.3°C 31.5°F-0.3°C 48% 8.5 mph W13.7 kmh W 10.3 mph16.6 kmh 29.86 in1011.2 mb 0.00 in0.0 mm 0.00 in0.0 mm 0.14 in3.6 mm
11:34 AM 50.4°F10.2°C 32.0°F0.0°C 49% 7.2 mph SW11.6 kmh SW 10.3 mph16.6 kmh 29.85 in1010.8 mb 0.00 in0.0 mm 0.00 in0.0 mm 0.14 in3.6 mm
11:35 AM 50.0°F10.0°C 32.1°F0.1°C 50% 4.5 mph W7.2 kmh W 5.8 mph9.3 kmh 29.84 in1010.5 mb 0.00 in0.0 mm 0.00 in0.0 mm 0.14 in3.6 mm
11:36 AM 49.8°F9.9°C 31.4°F-0.3°C 49% 4.0 mph WNW6.4 kmh WNW 5.8 mph9.3 kmh 29.84 in1010.5 mb 0.00 in0.0 mm 0.00 in0.0 mm 0.14 in3.6 mm
11:37 AM 49.8°F9.9°C 31.4°F-0.3°C 49% 2.9 mph WNW4.7 kmh WNW 3.4 mph5.5 kmh 29.84 in1010.5 mb 0.00 in0.0 mm 0.00 in0.0 mm 0.14 in3.6 mm
11:38 AM 50.0°F10.0°C 32.6°F0.3°C 51% 1.3 mph NNE2.1 kmh NNE 2.2 mph3.5 kmh 29.85 in1010.8 mb 0.00 in0.0 mm 0.00 in0.0 mm 0.14 in3.6 mm
11:39 AM 50.4°F10.2°C 31.5°F-0.3°C 48% 4.5 mph WNW7.2 kmh WNW 6.9 mph11.1 kmh 29.85 in1010.8 mb 0.00 in0.0 mm 0.00 in0.0 mm 0.14 in3.6 mm
11:40 AM 50.9°F10.5°C 33.9°F1.1°C 52% 1.1 mph NNW1.8 kmh NNW 1.1 mph1.8 kmh 29.84 in1010.5 mb 0.00 in0.0 mm 0.00 in0.0 mm 0.14 in3.6 mm
11:41 AM 51.4°F10.8°C 32.9°F0.5°C 49% 2.0 mph WNW3.2 kmh WNW 3.4 mph5.5 kmh 29.85 in1010.8 mb 0.00 in0.0 mm 0.00 in0.0 mm 0.14 in3.6 mm
11:42 AM 51.6°F10.9°C 31.5°F-0.3°C 46% 3.8 mph NW6.1 kmh NW 4.5 mph7.2 kmh 29.85 in1010.8 mb 0.00 in0.0 mm 0.00 in0.0 mm 0.14 in3.6 mm
11:43 AM 52.0°F11.1°C 31.9°F-0.1°C 46% 5.1 mph WNW8.2 kmh WNW 5.8 mph9.3 kmh 29.84 in1010.5 mb 0.00 in0.0 mm 0.00 in0.0 mm 0.14 in3.6 mm
11:44 AM 52.0°F11.1°C 32.4°F0.2°C 47% 5.4 mph NW8.7 kmh NW 5.8 mph9.3 kmh 29.85 in1010.8 mb 0.00 in0.0 mm 0.00 in0.0 mm 0.14 in3.6 mm
11:45 AM 51.8°F11.0°C 31.7°F-0.2°C 46% 5.8 mph NW9.3 kmh NW 8.1 mph13.0 kmh 29.85 in1010.8 mb 0.00 in0.0 mm 0.00 in0.0 mm 0.14 in3.6 mm
11:46 AM 51.6°F10.9°C 32.0°F0.0°C 47% 8.5 mph W13.7 kmh W 10.3 mph16.6 kmh 29.84 in1010.5 mb 0.00 in0.0 mm 0.00 in0.0 mm 0.14 in3.6 mm
11:47 AM 51.3°F10.7°C 32.3°F0.2°C 48% 2.9 mph WNW4.7 kmh WNW 3.4 mph5.5 kmh 29.84 in1010.5 mb 0.00 in0.0 mm 0.00 in0.0 mm 0.14 in3.6 mm
11:48 AM 51.3°F10.7°C 31.8°F-0.1°C 47% 2.9 mph WSW4.7 kmh WSW 3.4 mph5.5 kmh 29.85 in1010.8 mb 0.00 in0.0 mm 0.00 in0.0 mm 0.14 in3.6 mm
11:49 AM 51.1°F10.6°C 30.5°F-0.8°C 45% 3.8 mph NW6.1 kmh NW 5.8 mph9.3 kmh 29.84 in1010.5 mb 0.00 in0.0 mm 0.00 in0.0 mm 0.14 in3.6 mm
11:50 AM 51.1°F10.6°C 31.0°F-0.6°C 46% 6.0 mph WNW9.7 kmh WNW 9.2 mph14.8 kmh 29.84 in1010.5 mb 0.00 in0.0 mm 0.00 in0.0 mm 0.14 in3.6 mm
11:51 AM 51.1°F10.6°C 30.5°F-0.8°C 45% 10.3 mph WNW16.6 kmh WNW 13.6 mph21.9 kmh 29.84 in1010.5 mb 0.00 in0.0 mm 0.00 in0.0 mm 0.14 in3.6 mm
11:52 AM 51.1°F10.6°C 31.6°F-0.2°C 47% 6.5 mph W10.5 kmh W 10.3 mph16.6 kmh 29.84 in1010.5 mb 0.00 in0.0 mm 0.00 in0.0 mm 0.14 in3.6 mm
11:53 AM 51.1°F10.6°C 31.6°F-0.2°C 47% 4.0 mph W6.4 kmh W 5.8 mph9.3 kmh 29.84 in1010.5 mb 0.00 in0.0 mm 0.00 in0.0 mm 0.14 in3.6 mm
11:54 AM 50.9°F10.5°C 30.9°F-0.6°C 46% 4.0 mph WNW6.4 kmh WNW 5.8 mph9.3 kmh 29.85 in1010.8 mb 0.00 in0.0 mm 0.00 in0.0 mm 0.14 in3.6 mm
11:55 AM 51.1°F10.6°C 30.5°F-0.8°C 45% 8.7 mph W14.0 kmh W 10.3 mph16.6 kmh 29.84 in1010.5 mb 0.00 in0.0 mm 0.00 in0.0 mm 0.14 in3.6 mm
11:56 AM 51.1°F10.6°C 32.1°F0.1°C 48% 2.2 mph WNW3.5 kmh WNW 3.4 mph5.5 kmh 29.84 in1010.5 mb 0.00 in0.0 mm 0.00 in0.0 mm 0.14 in3.6 mm
11:57 AM 51.3°F10.7°C 31.2°F-0.4°C 46% 3.6 mph NW5.8 kmh NW 4.5 mph7.2 kmh 29.85 in1010.8 mb 0.00 in0.0 mm 0.00 in0.0 mm 0.14 in3.6 mm
11:58 AM 51.4°F10.8°C 31.3°F-0.4°C 46% 1.8 mph W2.9 kmh W 3.4 mph5.5 kmh 29.83 in1010.2 mb 0.00 in0.0 mm 0.00 in0.0 mm 0.14 in3.6 mm
11:59 AM 51.4°F10.8°C 30.2°F-1.0°C 44% 7.4 mph WNW11.9 kmh WNW 9.2 mph14.8 kmh 29.84 in1010.5 mb 0.00 in0.0 mm 0.00 in0.0 mm 0.14 in3.6 mm
12:00 PM 51.3°F10.7°C 30.7°F-0.7°C 45% 5.8 mph W9.3 kmh W 6.9 mph11.1 kmh 29.84 in1010.5 mb 0.00 in0.0 mm 0.00 in0.0 mm 0.14 in3.6 mm
12:01 PM 51.1°F10.6°C 31.6°F-0.2°C 47% 6.0 mph W9.7 kmh W 8.1 mph13.0 kmh 29.84 in1010.5 mb 0.00 in0.0 mm 0.00 in0.0 mm 0.14 in3.6 mm
12:02 PM 51.1°F10.6°C 31.0°F-0.6°C 46% 4.3 mph WNW6.9 kmh WNW 6.9 mph11.1 kmh 29.84 in1010.5 mb 0.00 in0.0 mm 0.00 in0.0 mm 0.14 in3.6 mm
12:03 PM 51.1°F10.6°C 31.0°F-0.6°C 46% 2.5 mph WNW4.0 kmh WNW 3.4 mph5.5 kmh 29.85 in1010.8 mb 0.00 in0.0 mm 0.00 in0.0 mm 0.14 in3.6 mm
12:04 PM 51.3°F10.7°C 31.2°F-0.4°C 46% 2.2 mph NW3.5 kmh NW 3.4 mph5.5 kmh 29.84 in1010.5 mb 0.00 in0.0 mm 0.00 in0.0 mm 0.14 in3.6 mm
12:05 PM 51.8°F11.0°C 30.6°F-0.8°C 44% 3.6 mph WNW5.8 kmh WNW 5.8 mph9.3 kmh 29.85 in1010.8 mb 0.00 in0.0 mm 0.00 in0.0 mm 0.14 in3.6 mm
12:06 PM 52.2°F11.2°C 31.0°F-0.6°C 44% 2.5 mph NW4.0 kmh NW 3.4 mph5.5 kmh 29.84 in1010.5 mb 0.00 in0.0 mm 0.00 in0.0 mm 0.14 in3.6 mm
12:07 PM 52.3°F11.3°C 31.6°F-0.2°C 45% 7.4 mph WNW11.9 kmh WNW 9.2 mph14.8 kmh 29.84 in1010.5 mb 0.00 in0.0 mm 0.00 in0.0 mm 0.14 in3.6 mm
12:08 PM 52.3°F11.3°C 33.7°F0.9°C 49% 1.3 mph NW2.1 kmh NW 2.2 mph3.5 kmh 29.84 in1010.5 mb 0.00 in0.0 mm 0.00 in0.0 mm 0.14 in3.6 mm
12:09 PM 52.0°F11.1°C 30.8°F-0.7°C 44% 4.7 mph WNW7.6 kmh WNW 6.9 mph11.1 kmh 29.84 in1010.5 mb 0.00 in0.0 mm 0.00 in0.0 mm 0.14 in3.6 mm
12:10 PM 51.6°F10.9°C 31.5°F-0.3°C 46% 5.8 mph WNW9.3 kmh WNW 6.9 mph11.1 kmh 29.84 in1010.5 mb 0.00 in0.0 mm 0.00 in0.0 mm 0.14 in3.6 mm
12:11 PM 51.1°F10.6°C 31.6°F-0.2°C 47% 6.5 mph WNW10.5 kmh WNW 6.9 mph11.1 kmh 29.84 in1010.5 mb 0.00 in0.0 mm 0.00 in0.0 mm 0.14 in3.6 mm
12:12 PM 50.5°F10.3°C 31.5°F-0.3°C 48% 2.2 mph NW3.5 kmh NW 3.4 mph5.5 kmh 29.84 in1010.5 mb 0.00 in0.0 mm 0.00 in0.0 mm 0.14 in3.6 mm
12:13 PM 50.0°F10.0°C 30.0°F-1.1°C 46% 4.7 mph WNW7.6 kmh WNW 5.8 mph9.3 kmh 29.84 in1010.5 mb 0.00 in0.0 mm 0.00 in0.0 mm 0.14 in3.6 mm
12:14 PM 49.6°F9.8°C 30.2°F-1.0°C 47% 4.7 mph W7.6 kmh W 8.1 mph13.0 kmh 29.84 in1010.5 mb 0.00 in0.0 mm 0.00 in0.0 mm 0.14 in3.6 mm
12:15 PM 49.5°F9.7°C 30.1°F-1.1°C 47% 6.0 mph WNW9.7 kmh WNW 6.9 mph11.1 kmh 29.84 in1010.5 mb 0.00 in0.0 mm 0.00 in0.0 mm 0.14 in3.6 mm
12:16 PM 49.5°F9.7°C 31.1°F-0.5°C 49% 4.5 mph NW7.2 kmh NW 4.5 mph7.2 kmh 29.84 in1010.5 mb 0.00 in0.0 mm 0.00 in0.0 mm 0.14 in3.6 mm
12:17 PM 49.5°F9.7°C 31.1°F-0.5°C 49% 2.5 mph W4.0 kmh W 5.8 mph9.3 kmh 29.84 in1010.5 mb 0.00 in0.0 mm 0.00 in0.0 mm 0.14 in3.6 mm
12:18 PM 49.5°F9.7°C 29.6°F-1.3°C 46% 6.9 mph NW11.1 kmh NW 8.1 mph13.0 kmh 29.84 in1010.5 mb 0.00 in0.0 mm 0.00 in0.0 mm 0.14 in3.6 mm
12:19 PM 49.6°F9.8°C 31.2°F-0.4°C 49% 4.0 mph W6.4 kmh W 8.1 mph13.0 kmh 29.84 in1010.5 mb 0.00 in0.0 mm 0.00 in0.0 mm 0.14 in3.6 mm
12:20 PM 49.5°F9.7°C 29.6°F-1.3°C 46% 10.5 mph W16.9 kmh W 13.6 mph21.9 kmh 29.83 in1010.2 mb 0.00 in0.0 mm 0.00 in0.0 mm 0.14 in3.6 mm
12:21 PM 49.3°F9.6°C 29.9°F-1.2°C 47% 5.4 mph NNW8.7 kmh NNW 6.9 mph11.1 kmh 29.84 in1010.5 mb 0.00 in0.0 mm 0.00 in0.0 mm 0.14 in3.6 mm
12:22 PM 49.1°F9.5°C 29.2°F-1.6°C 46% 7.8 mph W12.6 kmh W 11.4 mph18.3 kmh 29.84 in1010.5 mb 0.00 in0.0 mm 0.00 in0.0 mm 0.14 in3.6 mm
12:23 PM 48.9°F9.4°C 29.6°F-1.3°C 47% 3.8 mph NW6.1 kmh NW 4.5 mph7.2 kmh 29.84 in1010.5 mb 0.00 in0.0 mm 0.00 in0.0 mm 0.14 in3.6 mm
12:24 PM 48.7°F9.3°C 29.4°F-1.4°C 47% 5.1 mph NW8.2 kmh NW 5.8 mph9.3 kmh 29.84 in1010.5 mb 0.00 in0.0 mm 0.00 in0.0 mm 0.14 in3.6 mm
12:25 PM 48.6°F9.2°C 29.3°F-1.5°C 47% 4.9 mph WSW7.9 kmh WSW 6.9 mph11.1 kmh 29.84 in1010.5 mb 0.00 in0.0 mm 0.00 in0.0 mm 0.14 in3.6 mm
12:26 PM 48.6°F9.2°C 29.3°F-1.5°C 47% 5.8 mph WNW9.3 kmh WNW 8.1 mph13.0 kmh 29.83 in1010.2 mb 0.00 in0.0 mm 0.00 in0.0 mm 0.14 in3.6 mm
12:27 PM 48.6°F9.2°C 30.3°F-0.9°C 49% 2.9 mph NNE4.7 kmh NNE 4.5 mph7.2 kmh 29.84 in1010.5 mb 0.00 in0.0 mm 0.00 in0.0 mm 0.14 in3.6 mm
12:28 PM 48.4°F9.1°C 28.6°F-1.9°C 46% 6.3 mph W10.1 kmh W 9.2 mph14.8 kmh 29.84 in1010.5 mb 0.00 in0.0 mm 0.00 in0.0 mm 0.14 in3.6 mm
12:29 PM 48.2°F9.0°C 27.9°F-2.3°C 45% 10.3 mph WNW16.6 kmh WNW 11.4 mph18.3 kmh 29.83 in1010.2 mb 0.00 in0.0 mm 0.00 in0.0 mm 0.14 in3.6 mm
12:30 PM 48.0°F8.9°C 29.3°F-1.5°C 48% 4.0 mph W6.4 kmh W 6.9 mph11.1 kmh 29.84 in1010.5 mb 0.00 in0.0 mm 0.00 in0.0 mm 0.14 in3.6 mm
12:31 PM 48.0°F8.9°C 28.7°F-1.8°C 47% 6.0 mph WNW9.7 kmh WNW 6.9 mph11.1 kmh 29.83 in1010.2 mb 0.00 in0.0 mm 0.00 in0.0 mm 0.14 in3.6 mm
12:32 PM 48.2°F9.0°C 28.4°F-2.0°C 46% 3.8 mph W6.1 kmh W 4.5 mph7.2 kmh 29.84 in1010.5 mb 0.00 in0.0 mm 0.00 in0.0 mm 0.14 in3.6 mm
12:33 PM 48.6°F9.2°C 29.8°F-1.2°C 48% 4.0 mph WNW6.4 kmh WNW 4.5 mph7.2 kmh 29.84 in1010.5 mb 0.00 in0.0 mm 0.00 in0.0 mm 0.14 in3.6 mm
12:34 PM 48.9°F9.4°C 28.5°F-1.9°C 45% 2.0 mph NW3.2 kmh NW 3.4 mph5.5 kmh 29.83 in1010.2 mb 0.00 in0.0 mm 0.00 in0.0 mm 0.14 in3.6 mm
12:35 PM 49.3°F9.6°C 29.9°F-1.2°C 47% 2.9 mph NW4.7 kmh NW 3.4 mph5.5 kmh 29.84 in1010.5 mb 0.00 in0.0 mm 0.00 in0.0 mm 0.14 in3.6 mm
12:36 PM 49.6°F9.8°C 29.7°F-1.3°C 46% 7.2 mph WNW11.6 kmh WNW 11.4 mph18.3 kmh 29.83 in1010.2 mb 0.00 in0.0 mm 0.00 in0.0 mm 0.14 in3.6 mm
12:37 PM 50.0°F10.0°C 30.0°F-1.1°C 46% 7.6 mph NW12.2 kmh NW 9.2 mph14.8 kmh 29.83 in1010.2 mb 0.00 in0.0 mm 0.00 in0.0 mm 0.14 in3.6 mm
12:39 PM 49.8°F9.9°C 29.9°F-1.2°C 46% 1.6 mph NW2.6 kmh NW 3.4 mph5.5 kmh 29.83 in1010.2 mb 0.00 in0.0 mm 0.00 in0.0 mm 0.14 in3.6 mm
12:40 PM 49.8°F9.9°C 29.3°F-1.5°C 45% 7.6 mph NW12.2 kmh NW 10.3 mph16.6 kmh 29.84 in1010.5 mb 0.00 in0.0 mm 0.00 in0.0 mm 0.14 in3.6 mm
12:41 PM 49.5°F9.7°C 29.6°F-1.3°C 46% 7.6 mph NW12.2 kmh NW 9.2 mph14.8 kmh 29.84 in1010.5 mb 0.00 in0.0 mm 0.00 in0.0 mm 0.14 in3.6 mm
12:42 PM 49.3°F9.6°C 29.9°F-1.2°C 47% 8.5 mph W13.7 kmh W 12.5 mph20.1 kmh 29.83 in1010.2 mb 0.00 in0.0 mm 0.00 in0.0 mm 0.14 in3.6 mm
12:43 PM 48.7°F9.3°C 30.4°F-0.9°C 49% 4.9 mph NW7.9 kmh NW 5.8 mph9.3 kmh 29.83 in1010.2 mb 0.00 in0.0 mm 0.00 in0.0 mm 0.14 in3.6 mm
12:44 PM 48.6°F9.2°C 29.8°F-1.2°C 48% 6.0 mph W9.7 kmh W 8.1 mph13.0 kmh 29.83 in1010.2 mb 0.00 in0.0 mm 0.00 in0.0 mm 0.14 in3.6 mm
12:45 PM 48.2°F9.0°C 29.9°F-1.2°C 49% 2.7 mph NW4.3 kmh NW 4.5 mph7.2 kmh 29.84 in1010.5 mb 0.00 in0.0 mm 0.00 in0.0 mm 0.14 in3.6 mm
12:46 PM 48.0°F8.9°C 29.8°F-1.2°C 49% 3.1 mph NW5.0 kmh NW 5.8 mph9.3 kmh 29.83 in1010.2 mb 0.00 in0.0 mm 0.00 in0.0 mm 0.14 in3.6 mm
12:47 PM 47.8°F8.8°C 30.1°F-1.1°C 50% 1.8 mph NW2.9 kmh NW 3.4 mph5.5 kmh 29.84 in1010.5 mb 0.00 in0.0 mm 0.00 in0.0 mm 0.14 in3.6 mm
12:48 PM 47.8°F8.8°C 29.6°F-1.3°C 49% 1.3 mph NNW2.1 kmh NNW 2.2 mph3.5 kmh 29.83 in1010.2 mb 0.00 in0.0 mm 0.00 in0.0 mm 0.14 in3.6 mm
12:49 PM 47.8°F8.8°C 29.6°F-1.3°C 49% 4.5 mph W7.2 kmh W 5.8 mph9.3 kmh 29.83 in1010.2 mb 0.00 in0.0 mm 0.00 in0.0 mm 0.14 in3.6 mm
12:50 PM 48.0°F8.9°C 30.3°F-0.9°C 50% 2.2 mph N3.5 kmh N 3.4 mph5.5 kmh 29.84 in1010.5 mb 0.00 in0.0 mm 0.00 in0.0 mm 0.14 in3.6 mm
12:51 PM 48.0°F8.9°C 29.8°F-1.2°C 49% 1.1 mph NW1.8 kmh NW 1.1 mph1.8 kmh 29.84 in1010.5 mb 0.00 in0.0 mm 0.00 in0.0 mm 0.14 in3.6 mm
12:52 PM 48.0°F8.9°C 29.8°F-1.2°C 49% 3.8 mph SSW6.1 kmh SSW 4.5 mph7.2 kmh 29.83 in1010.2 mb 0.00 in0.0 mm 0.00 in0.0 mm 0.14 in3.6 mm
12:53 PM 48.0°F8.9°C 30.7°F-0.7°C 51% 2.5 mph WNW4.0 kmh WNW 3.4 mph5.5 kmh 29.83 in1010.2 mb 0.00 in0.0 mm 0.00 in0.0 mm 0.14 in3.6 mm
12:54 PM 48.0°F8.9°C 29.8°F-1.2°C 49% 4.0 mph NW6.4 kmh NW 4.5 mph7.2 kmh 29.83 in1010.2 mb 0.00 in0.0 mm 0.00 in0.0 mm 0.14 in3.6 mm
12:55 PM 48.0°F8.9°C 30.3°F-0.9°C 50% 7.8 mph W12.6 kmh W 9.2 mph14.8 kmh 29.83 in1010.2 mb 0.00 in0.0 mm 0.00 in0.0 mm 0.14 in3.6 mm
12:56 PM 47.8°F8.8°C 30.1°F-1.1°C 50% 6.5 mph W10.5 kmh W 8.1 mph13.0 kmh 29.84 in1010.5 mb 0.00 in0.0 mm 0.00 in0.0 mm 0.14 in3.6 mm
12:57 PM 47.7°F8.7°C 30.0°F-1.1°C 50% 6.0 mph NW9.7 kmh NW 8.1 mph13.0 kmh 29.84 in1010.5 mb 0.00 in0.0 mm 0.00 in0.0 mm 0.14 in3.6 mm
12:58 PM 47.7°F8.7°C 30.5°F-0.8°C 51% 2.9 mph NW4.7 kmh NW 5.8 mph9.3 kmh 29.84 in1010.5 mb 0.00 in0.0 mm 0.00 in0.0 mm 0.14 in3.6 mm
12:59 PM 47.5°F8.6°C 30.3°F-0.9°C 51% 3.8 mph E6.1 kmh E 6.9 mph11.1 kmh 29.84 in1010.5 mb 0.00 in0.0 mm 0.00 in0.0 mm 0.14 in3.6 mm
01:00 PM 47.5°F8.6°C 32.1°F0.1°C 55% 4.0 mph NW6.4 kmh NW 6.9 mph11.1 kmh 29.84 in1010.5 mb 0.00 in0.0 mm 0.00 in0.0 mm 0.14 in3.6 mm
01:01 PM 47.3°F8.5°C 32.0°F0.0°C 55% 2.2 mph NW3.5 kmh NW 3.4 mph5.5 kmh 29.84 in1010.5 mb 0.00 in0.0 mm 0.00 in0.0 mm 0.14 in3.6 mm
01:02 PM 47.1°F8.4°C 32.2°F0.1°C 56% 4.3 mph NW6.9 kmh NW 5.8 mph9.3 kmh 29.83 in1010.2 mb 0.00 in0.0 mm 0.00 in0.0 mm 0.14 in3.6 mm
01:03 PM 47.1°F8.4°C 33.1°F0.6°C 58% 2.5 mph WNW4.0 kmh WNW 4.5 mph7.2 kmh 29.84 in1010.5 mb 0.00 in0.0 mm 0.00 in0.0 mm 0.14 in3.6 mm
01:04 PM 47.1°F8.4°C 33.1°F0.6°C 58% Calm Calm -- 29.84 in1010.5 mb 0.00 in0.0 mm 0.00 in0.0 mm 0.14 in3.6 mm
01:05 PM 47.3°F8.5°C 31.5°F-0.3°C 54% 1.3 mph WSW2.1 kmh WSW 2.2 mph3.5 kmh 29.84 in1010.5 mb 0.00 in0.0 mm 0.00 in0.0 mm 0.14 in3.6 mm
01:06 PM 47.5°F8.6°C 32.1°F0.1°C 55% 1.3 mph NNE2.1 kmh NNE 2.2 mph3.5 kmh 29.84 in1010.5 mb 0.00 in0.0 mm 0.00 in0.0 mm 0.14 in3.6 mm
01:07 PM 47.8°F8.8°C 31.0°F-0.6°C 52% 2.2 mph NW3.5 kmh NW 3.4 mph5.5 kmh 29.84 in1010.5 mb 0.00 in0.0 mm 0.00 in0.0 mm 0.14 in3.6 mm
01:11 PM 48.9°F9.4°C 31.6°F-0.2°C 51% 5.4 mph WNW8.7 kmh WNW 6.9 mph11.1 kmh 29.84 in1010.5 mb 0.00 in0.0 mm 0.00 in0.0 mm 0.14 in3.6 mm
01:12 PM 48.9°F9.4°C 31.1°F-0.5°C 50% 8.9 mph W14.3 kmh W 10.3 mph16.6 kmh 29.84 in1010.5 mb 0.00 in0.0 mm 0.00 in0.0 mm 0.14 in3.6 mm
01:13 PM 48.7°F9.3°C 31.4°F-0.3°C 51% 4.5 mph WNW7.2 kmh WNW 6.9 mph11.1 kmh 29.84 in1010.5 mb 0.00 in0.0 mm 0.00 in0.0 mm 0.14 in3.6 mm
01:14 PM 48.7°F9.3°C 30.9°F-0.6°C 50% 4.5 mph WNW7.2 kmh WNW 4.5 mph7.2 kmh 29.84 in1010.5 mb 0.00 in0.0 mm 0.00 in0.0 mm 0.14 in3.6 mm
01:15 PM 48.7°F9.3°C 31.4°F-0.3°C 51% 2.2 mph WNW3.5 kmh WNW 3.4 mph5.5 kmh 29.84 in1010.5 mb 0.00 in0.0 mm 0.00 in0.0 mm 0.14 in3.6 mm
01:16 PM 48.7°F9.3°C 31.9°F-0.1°C 52% 8.1 mph W13.0 kmh W 13.6 mph21.9 kmh 29.84 in1010.5 mb 0.00 in0.0 mm 0.00 in0.0 mm 0.14 in3.6 mm
01:17 PM 48.7°F9.3°C 32.3°F0.2°C 53% 4.0 mph NW6.4 kmh NW 8.1 mph13.0 kmh 29.84 in1010.5 mb 0.00 in0.0 mm 0.00 in0.0 mm 0.14 in3.6 mm
01:18 PM 48.7°F9.3°C 31.9°F-0.1°C 52% 4.5 mph SW7.2 kmh SW 8.1 mph13.0 kmh 29.84 in1010.5 mb 0.00 in0.0 mm 0.00 in0.0 mm 0.14 in3.6 mm
01:19 PM 48.7°F9.3°C 31.9°F-0.1°C 52% 3.4 mph NNW5.5 kmh NNW 5.8 mph9.3 kmh 29.84 in1010.5 mb 0.00 in0.0 mm 0.00 in0.0 mm 0.14 in3.6 mm
01:20 PM 48.7°F9.3°C 31.4°F-0.3°C 51% 3.8 mph N6.1 kmh N 6.9 mph11.1 kmh 29.83 in1010.2 mb 0.00 in0.0 mm 0.00 in0.0 mm 0.14 in3.6 mm
01:21 PM 48.7°F9.3°C 31.4°F-0.3°C 51% 5.8 mph NNW9.3 kmh NNW 6.9 mph11.1 kmh 29.84 in1010.5 mb 0.00 in0.0 mm 0.00 in0.0 mm 0.14 in3.6 mm
01:22 PM 48.7°F9.3°C 31.4°F-0.3°C 51% 3.1 mph NW5.0 kmh NW 5.8 mph9.3 kmh 29.83 in1010.2 mb 0.00 in0.0 mm 0.00 in0.0 mm 0.14 in3.6 mm
01:23 PM 48.9°F9.4°C 32.1°F0.1°C 52% 2.7 mph NW4.3 kmh NW 4.5 mph7.2 kmh 29.83 in1010.2 mb 0.00 in0.0 mm 0.00 in0.0 mm 0.14 in3.6 mm
01:24 PM 48.9°F9.4°C 31.1°F-0.5°C 50% 4.0 mph WNW6.4 kmh WNW 5.8 mph9.3 kmh 29.83 in1010.2 mb 0.00 in0.0 mm 0.00 in0.0 mm 0.14 in3.6 mm
01:25 PM 49.1°F9.5°C 31.3°F-0.4°C 50% 3.4 mph NW5.5 kmh NW 6.9 mph11.1 kmh 29.83 in1010.2 mb 0.00 in0.0 mm 0.00 in0.0 mm 0.14 in3.6 mm
01:26 PM 48.9°F9.4°C 31.6°F-0.2°C 51% 2.2 mph N3.5 kmh N 2.2 mph3.5 kmh 29.84 in1010.5 mb 0.00 in0.0 mm 0.00 in0.0 mm 0.14 in3.6 mm
01:27 PM 48.9°F9.4°C 31.6°F-0.2°C 51% 6.3 mph WNW10.1 kmh WNW 8.1 mph13.0 kmh 29.84 in1010.5 mb 0.00 in0.0 mm 0.00 in0.0 mm 0.14 in3.6 mm
01:28 PM 48.7°F9.3°C 31.4°F-0.3°C 51% 6.5 mph S10.5 kmh S 9.2 mph14.8 kmh 29.83 in1010.2 mb 0.00 in0.0 mm 0.00 in0.0 mm 0.14 in3.6 mm
01:29 PM 48.6°F9.2°C 30.3°F-0.9°C 49% 7.4 mph W11.9 kmh W 9.2 mph14.8 kmh 29.84 in1010.5 mb 0.00 in0.0 mm 0.00 in0.0 mm 0.14 in3.6 mm
01:31 PM 48.2°F9.0°C 30.4°F-0.9°C 50% 12.1 mph WNW19.5 kmh WNW 15.9 mph25.6 kmh 29.84 in1010.5 mb 0.00 in0.0 mm 0.00 in0.0 mm 0.14 in3.6 mm
01:32 PM 48.0°F8.9°C 30.7°F-0.7°C 51% 4.5 mph SE7.2 kmh SE 6.9 mph11.1 kmh 29.84 in1010.5 mb 0.00 in0.0 mm 0.00 in0.0 mm 0.14 in3.6 mm
01:33 PM 47.8°F8.8°C 30.6°F-0.8°C 51% 4.0 mph NNW6.4 kmh NNW 6.9 mph11.1 kmh 29.83 in1010.2 mb 0.00 in0.0 mm 0.00 in0.0 mm 0.14 in3.6 mm
01:34 PM 48.0°F8.9°C 30.3°F-0.9°C 50% 5.1 mph W8.2 kmh W 6.9 mph11.1 kmh 29.84 in1010.5 mb 0.00 in0.0 mm 0.00 in0.0 mm 0.14 in3.6 mm
01:35 PM 48.0°F8.9°C 30.3°F-0.9°C 50% 7.8 mph WNW12.6 kmh WNW 11.4 mph18.3 kmh 29.84 in1010.5 mb 0.00 in0.0 mm 0.00 in0.0 mm 0.14 in3.6 mm
01:36 PM 47.8°F8.8°C 30.6°F-0.8°C 51% 5.8 mph WNW9.3 kmh WNW 8.1 mph13.0 kmh 29.84 in1010.5 mb 0.00 in0.0 mm 0.00 in0.0 mm 0.14 in3.6 mm
01:37 PM 48.0°F8.9°C 31.2°F-0.4°C 52% 5.6 mph SW9.0 kmh SW 11.4 mph18.3 kmh 29.84 in1010.5 mb 0.00 in0.0 mm 0.00 in0.0 mm 0.14 in3.6 mm
01:38 PM 48.0°F8.9°C 29.8°F-1.2°C 49% 8.1 mph W13.0 kmh W 11.4 mph18.3 kmh 29.84 in1010.5 mb 0.00 in0.0 mm 0.00 in0.0 mm 0.14 in3.6 mm
01:39 PM 48.0°F8.9°C 30.3°F-0.9°C 50% 5.1 mph W8.2 kmh W 5.8 mph9.3 kmh 29.83 in1010.2 mb 0.00 in0.0 mm 0.00 in0.0 mm 0.14 in3.6 mm
01:40 PM 48.0°F8.9°C 30.3°F-0.9°C 50% 8.1 mph WSW13.0 kmh WSW 10.3 mph16.6 kmh 29.84 in1010.5 mb 0.00 in0.0 mm 0.00 in0.0 mm 0.14 in3.6 mm
01:41 PM 48.2°F9.0°C 30.9°F-0.6°C 51% 4.9 mph N7.9 kmh N 9.2 mph14.8 kmh 29.84 in1010.5 mb 0.00 in0.0 mm 0.00 in0.0 mm 0.14 in3.6 mm
01:42 PM 48.2°F9.0°C 29.9°F-1.2°C 49% 10.1 mph WNW16.3 kmh WNW 12.5 mph20.1 kmh 29.84 in1010.5 mb 0.00 in0.0 mm 0.00 in0.0 mm 0.14 in3.6 mm
01:43 PM 48.0°F8.9°C 29.8°F-1.2°C 49% 6.5 mph WNW10.5 kmh WNW 9.2 mph14.8 kmh 29.84 in1010.5 mb 0.00 in0.0 mm 0.00 in0.0 mm 0.14 in3.6 mm
01:44 PM 48.0°F8.9°C 30.3°F-0.9°C 50% 4.7 mph W7.6 kmh W 8.1 mph13.0 kmh 29.85 in1010.8 mb 0.00 in0.0 mm 0.00 in0.0 mm 0.14 in3.6 mm
01:45 PM 48.2°F9.0°C 30.9°F-0.6°C 51% 2.9 mph NW4.7 kmh NW 4.5 mph7.2 kmh 29.84 in1010.5 mb 0.00 in0.0 mm 0.00 in0.0 mm 0.14 in3.6 mm
01:46 PM 48.2°F9.0°C 29.4°F-1.4°C 48% 8.3 mph W13.4 kmh W 12.5 mph20.1 kmh 29.84 in1010.5 mb 0.00 in0.0 mm 0.00 in0.0 mm 0.14 in3.6 mm
01:47 PM 48.2°F9.0°C 29.9°F-1.2°C 49% 2.5 mph NNW4.0 kmh NNW 3.4 mph5.5 kmh 29.85 in1010.8 mb 0.00 in0.0 mm 0.00 in0.0 mm 0.14 in3.6 mm
01:48 PM 48.4°F9.1°C 30.1°F-1.1°C 49% 4.9 mph W7.9 kmh W 5.8 mph9.3 kmh 29.84 in1010.5 mb 0.00 in0.0 mm 0.00 in0.0 mm 0.14 in3.6 mm
01:49 PM 48.6°F9.2°C 30.3°F-0.9°C 49% 4.5 mph WNW7.2 kmh WNW 8.1 mph13.0 kmh 29.85 in1010.8 mb 0.00 in0.0 mm 0.00 in0.0 mm 0.14 in3.6 mm
01:50 PM 48.6°F9.2°C 30.3°F-0.9°C 49% 3.4 mph NW5.5 kmh NW 5.8 mph9.3 kmh 29.85 in1010.8 mb 0.00 in0.0 mm 0.00 in0.0 mm 0.14 in3.6 mm
01:51 PM 48.6°F9.2°C 29.8°F-1.2°C 48% 6.0 mph WNW9.7 kmh WNW 8.1 mph13.0 kmh 29.85 in1010.8 mb 0.00 in0.0 mm 0.00 in0.0 mm 0.14 in3.6 mm
01:52 PM 48.7°F9.3°C 30.4°F-0.9°C 49% 1.8 mph NNE2.9 kmh NNE 2.2 mph3.5 kmh 29.85 in1010.8 mb 0.00 in0.0 mm 0.00 in0.0 mm 0.14 in3.6 mm
01:53 PM 48.7°F9.3°C 29.9°F-1.2°C 48% 6.0 mph WNW9.7 kmh WNW 10.3 mph16.6 kmh 29.85 in1010.8 mb 0.00 in0.0 mm 0.00 in0.0 mm 0.14 in3.6 mm
01:54 PM 48.7°F9.3°C 29.4°F-1.4°C 47% 7.4 mph W11.9 kmh W 10.3 mph16.6 kmh 29.84 in1010.5 mb 0.00 in0.0 mm 0.00 in0.0 mm 0.14 in3.6 mm
01:55 PM 48.7°F9.3°C 29.9°F-1.2°C 48% 2.9 mph WNW4.7 kmh WNW 4.5 mph7.2 kmh 29.85 in1010.8 mb 0.00 in0.0 mm 0.00 in0.0 mm 0.14 in3.6 mm
01:56 PM 48.9°F9.4°C 30.6°F-0.8°C 49% 5.4 mph NW8.7 kmh NW 8.1 mph13.0 kmh 29.86 in1011.2 mb 0.00 in0.0 mm 0.00 in0.0 mm 0.14 in3.6 mm
01:57 PM 49.1°F9.5°C 30.8°F-0.7°C 49% 4.5 mph W7.2 kmh W 6.9 mph11.1 kmh 29.86 in1011.2 mb 0.00 in0.0 mm 0.00 in0.0 mm 0.14 in3.6 mm
01:58 PM 49.1°F9.5°C 29.7°F-1.3°C 47% 5.1 mph WNW8.2 kmh WNW 6.9 mph11.1 kmh 29.85 in1010.8 mb 0.00 in0.0 mm 0.00 in0.0 mm 0.14 in3.6 mm
01:59 PM 49.1°F9.5°C 30.3°F-0.9°C 48% 5.8 mph W9.3 kmh W 10.3 mph16.6 kmh 29.84 in1010.5 mb 0.00 in0.0 mm 0.00 in0.0 mm 0.14 in3.6 mm
02:00 PM 49.3°F9.6°C 30.4°F-0.9°C 48% 6.0 mph WNW9.7 kmh WNW 8.1 mph13.0 kmh 29.85 in1010.8 mb 0.00 in0.0 mm 0.00 in0.0 mm 0.14 in3.6 mm
02:01 PM 49.1°F9.5°C 30.3°F-0.9°C 48% 5.8 mph W9.3 kmh W 9.2 mph14.8 kmh 29.85 in1010.8 mb 0.00 in0.0 mm 0.00 in0.0 mm 0.14 in3.6 mm
02:02 PM 48.9°F9.4°C 29.6°F-1.3°C 47% 7.4 mph W11.9 kmh W 12.5 mph20.1 kmh 29.84 in1010.5 mb 0.00 in0.0 mm 0.00 in0.0 mm 0.14 in3.6 mm
02:03 PM 48.6°F9.2°C 30.3°F-0.9°C 49% 6.3 mph W10.1 kmh W 6.9 mph11.1 kmh 29.85 in1010.8 mb 0.00 in0.0 mm 0.00 in0.0 mm 0.14 in3.6 mm
02:04 PM 48.4°F9.1°C 29.6°F-1.3°C 48% 3.8 mph WNW6.1 kmh WNW 4.5 mph7.2 kmh 29.85 in1010.8 mb 0.00 in0.0 mm 0.00 in0.0 mm 0.14 in3.6 mm
02:05 PM 48.2°F9.0°C 29.4°F-1.4°C 48% 9.2 mph W14.8 kmh W 10.3 mph16.6 kmh 29.85 in1010.8 mb 0.00 in0.0 mm 0.00 in0.0 mm 0.14 in3.6 mm
02:06 PM 48.0°F8.9°C 29.3°F-1.5°C 48% 6.5 mph W10.5 kmh W 8.1 mph13.0 kmh 29.85 in1010.8 mb 0.00 in0.0 mm 0.00 in0.0 mm 0.14 in3.6 mm
02:07 PM 48.0°F8.9°C 29.8°F-1.2°C 49% 4.3 mph WNW6.9 kmh WNW 6.9 mph11.1 kmh 29.86 in1011.2 mb 0.00 in0.0 mm 0.00 in0.0 mm 0.14 in3.6 mm
02:08 PM 48.0°F8.9°C 29.3°F-1.5°C 48% 10.7 mph WNW17.2 kmh WNW 12.5 mph20.1 kmh 29.85 in1010.8 mb 0.00 in0.0 mm 0.00 in0.0 mm 0.14 in3.6 mm
02:09 PM 47.8°F8.8°C 30.1°F-1.1°C 50% 5.4 mph WNW8.7 kmh WNW 8.1 mph13.0 kmh 29.86 in1011.2 mb 0.00 in0.0 mm 0.00 in0.0 mm 0.14 in3.6 mm
02:10 PM 47.7°F8.7°C 29.5°F-1.4°C 49% 8.9 mph W14.3 kmh W 11.4 mph18.3 kmh 29.86 in1011.2 mb 0.00 in0.0 mm 0.00 in0.0 mm 0.14 in3.6 mm
02:11 PM 47.5°F8.6°C 29.8°F-1.2°C 50% 6.9 mph WNW11.1 kmh WNW 8.1 mph13.0 kmh 29.85 in1010.8 mb 0.00 in0.0 mm 0.00 in0.0 mm 0.14 in3.6 mm
02:12 PM 47.1°F8.4°C 29.4°F-1.4°C 50% 8.5 mph W13.7 kmh W 9.2 mph14.8 kmh 29.85 in1010.8 mb 0.00 in0.0 mm 0.00 in0.0 mm 0.14 in3.6 mm
02:13 PM 46.9°F8.3°C 29.2°F-1.6°C 50% 10.7 mph NW17.2 kmh NW 12.5 mph20.1 kmh 29.85 in1010.8 mb 0.00 in0.0 mm 0.00 in0.0 mm 0.14 in3.6 mm
02:14 PM 46.8°F8.2°C 29.2°F-1.6°C 50% 7.2 mph W11.6 kmh W 9.2 mph14.8 kmh 29.84 in1010.5 mb 0.00 in0.0 mm 0.00 in0.0 mm 0.14 in3.6 mm
02:15 PM 46.8°F8.2°C 29.2°F-1.6°C 50% 7.4 mph WNW11.9 kmh WNW 8.1 mph13.0 kmh 29.85 in1010.8 mb 0.00 in0.0 mm 0.00 in0.0 mm 0.14 in3.6 mm
02:16 PM 46.8°F8.2°C 29.6°F-1.3°C 51% 2.7 mph NW4.3 kmh NW 4.5 mph7.2 kmh 29.86 in1011.2 mb 0.00 in0.0 mm 0.00 in0.0 mm 0.14 in3.6 mm
02:17 PM 46.9°F8.3°C 29.2°F-1.6°C 50% 4.9 mph NW7.9 kmh NW 9.2 mph14.8 kmh 29.85 in1010.8 mb 0.00 in0.0 mm 0.00 in0.0 mm 0.14 in3.6 mm
02:18 PM 47.1°F8.4°C 28.9°F-1.7°C 49% 8.9 mph WSW14.3 kmh WSW 12.5 mph20.1 kmh 29.85 in1010.8 mb 0.00 in0.0 mm 0.00 in0.0 mm 0.14 in3.6 mm
02:19 PM 47.5°F8.6°C 29.8°F-1.2°C 50% 3.6 mph NW5.8 kmh NW 5.8 mph9.3 kmh 29.85 in1010.8 mb 0.00 in0.0 mm 0.00 in0.0 mm 0.14 in3.6 mm
02:20 PM 47.7°F8.7°C 29.5°F-1.4°C 49% 6.0 mph W9.7 kmh W 6.9 mph11.1 kmh 29.86 in1011.2 mb 0.00 in0.0 mm 0.00 in0.0 mm 0.14 in3.6 mm
02:21 PM 48.0°F8.9°C 29.3°F-1.5°C 48% 6.3 mph WNW10.1 kmh WNW 6.9 mph11.1 kmh 29.85 in1010.8 mb 0.00 in0.0 mm 0.00 in0.0 mm 0.14 in3.6 mm
02:22 PM 48.0°F8.9°C 29.3°F-1.5°C 48% 9.6 mph W15.4 kmh W 11.4 mph18.3 kmh 29.85 in1010.8 mb 0.00 in0.0 mm 0.00 in0.0 mm 0.14 in3.6 mm
02:23 PM 47.8°F8.8°C 29.6°F-1.3°C 49% 5.4 mph WNW8.7 kmh WNW 5.8 mph9.3 kmh 29.85 in1010.8 mb 0.00 in0.0 mm 0.00 in0.0 mm 0.14 in3.6 mm
02:24 PM 47.7°F8.7°C 29.5°F-1.4°C 49% 14.1 mph W22.7 kmh W 17.2 mph27.7 kmh 29.85 in1010.8 mb 0.00 in0.0 mm 0.00 in0.0 mm 0.14 in3.6 mm
02:25 PM 47.3°F8.5°C 29.6°F-1.3°C 50% 6.9 mph W11.1 kmh W 9.2 mph14.8 kmh 29.86 in1011.2 mb 0.00 in0.0 mm 0.00 in0.0 mm 0.14 in3.6 mm
02:26 PM 47.1°F8.4°C 29.4°F-1.4°C 50% 8.5 mph WNW13.7 kmh WNW 10.3 mph16.6 kmh 29.85 in1010.8 mb 0.00 in0.0 mm 0.00 in0.0 mm 0.14 in3.6 mm
02:27 PM 46.8°F8.2°C 29.6°F-1.3°C 51% 6.5 mph WNW10.5 kmh WNW 8.1 mph13.0 kmh 29.85 in1010.8 mb 0.00 in0.0 mm 0.00 in0.0 mm 0.14 in3.6 mm
02:28 PM 46.4°F8.0°C 29.3°F-1.5°C 51% 3.4 mph WNW5.5 kmh WNW 4.5 mph7.2 kmh 29.85 in1010.8 mb 0.00 in0.0 mm 0.00 in0.0 mm 0.14 in3.6 mm
02:29 PM 46.2°F7.9°C 29.1°F-1.6°C 51% 4.0 mph W6.4 kmh W 6.9 mph11.1 kmh 29.86 in1011.2 mb 0.00 in0.0 mm 0.00 in0.0 mm 0.14 in3.6 mm
02:30 PM 46.2°F7.9°C 29.1°F-1.6°C 51% 5.1 mph WNW8.2 kmh WNW 6.9 mph11.1 kmh 29.86 in1011.2 mb 0.00 in0.0 mm 0.00 in0.0 mm 0.14 in3.6 mm
02:31 PM 46.0°F7.8°C 28.9°F-1.7°C 51% 4.5 mph WNW7.2 kmh WNW 5.8 mph9.3 kmh 29.86 in1011.2 mb 0.00 in0.0 mm 0.00 in0.0 mm 0.14 in3.6 mm
02:32 PM 46.0°F7.8°C 28.9°F-1.7°C 51% 4.5 mph WNW7.2 kmh WNW 5.8 mph9.3 kmh 29.86 in1011.2 mb 0.00 in0.0 mm 0.00 in0.0 mm 0.14 in3.6 mm
02:33 PM 46.0°F7.8°C 28.9°F-1.7°C 51% 6.9 mph WNW11.1 kmh WNW 9.2 mph14.8 kmh 29.86 in1011.2 mb 0.00 in0.0 mm 0.00 in0.0 mm 0.14 in3.6 mm
02:34 PM 46.2°F7.9°C 28.1°F-2.2°C 49% 9.6 mph W15.4 kmh W 12.5 mph20.1 kmh 29.86 in1011.2 mb 0.00 in0.0 mm 0.00 in0.0 mm 0.14 in3.6 mm
02:35 PM 46.4°F8.0°C 28.3°F-2.1°C 49% 5.8 mph WNW9.3 kmh WNW 6.9 mph11.1 kmh 29.86 in1011.2 mb 0.00 in0.0 mm 0.00 in0.0 mm 0.14 in3.6 mm
02:36 PM 46.8°F8.2°C 29.2°F-1.6°C 50% 5.4 mph NW8.7 kmh NW 8.1 mph13.0 kmh 29.86 in1011.2 mb 0.00 in0.0 mm 0.00 in0.0 mm 0.14 in3.6 mm
02:37 PM 46.9°F8.3°C 28.2°F-2.1°C 48% 4.3 mph WNW6.9 kmh WNW 5.8 mph9.3 kmh 29.86 in1011.2 mb 0.00 in0.0 mm 0.00 in0.0 mm 0.14 in3.6 mm
02:38 PM 47.3°F8.5°C 28.6°F-1.9°C 48% 6.5 mph W10.5 kmh W 8.1 mph13.0 kmh 29.86 in1011.2 mb 0.00 in0.0 mm 0.00 in0.0 mm 0.14 in3.6 mm
02:39 PM 47.3°F8.5°C 29.1°F-1.6°C 49% 3.8 mph WNW6.1 kmh WNW 4.5 mph7.2 kmh 29.86 in1011.2 mb 0.00 in0.0 mm 0.00 in0.0 mm 0.14 in3.6 mm
02:40 PM 47.3°F8.5°C 29.1°F-1.6°C 49% 7.6 mph WNW12.2 kmh WNW 9.2 mph14.8 kmh 29.86 in1011.2 mb 0.00 in0.0 mm 0.00 in0.0 mm 0.14 in3.6 mm
02:41 PM 47.1°F8.4°C 28.4°F-2.0°C 48% 8.7 mph NW14.0 kmh NW 14.8 mph23.8 kmh 29.86 in1011.2 mb 0.00 in0.0 mm 0.00 in0.0 mm 0.14 in3.6 mm
02:42 PM 47.1°F8.4°C 29.4°F-1.4°C 50% 2.9 mph W4.7 kmh W 4.5 mph7.2 kmh 29.86 in1011.2 mb 0.00 in0.0 mm 0.00 in0.0 mm 0.14 in3.6 mm
02:43 PM 46.8°F8.2°C 29.2°F-1.6°C 50% 8.5 mph WNW13.7 kmh WNW 10.3 mph16.6 kmh 29.87 in1011.5 mb 0.00 in0.0 mm 0.00 in0.0 mm 0.14 in3.6 mm
02:44 PM 46.4°F8.0°C 28.8°F-1.8°C 50% 9.2 mph WNW14.8 kmh WNW 12.5 mph20.1 kmh 29.87 in1011.5 mb 0.00 in0.0 mm 0.00 in0.0 mm 0.14 in3.6 mm
02:45 PM 46.2°F7.9°C 28.1°F-2.2°C 49% 6.0 mph WNW9.7 kmh WNW 10.3 mph16.6 kmh 29.87 in1011.5 mb 0.00 in0.0 mm 0.00 in0.0 mm 0.14 in3.6 mm
02:46 PM 46.0°F7.8°C 28.4°F-2.0°C 50% 5.4 mph WNW8.7 kmh WNW 6.9 mph11.1 kmh 29.87 in1011.5 mb 0.00 in0.0 mm 0.00 in0.0 mm 0.14 in3.6 mm
02:47 PM 45.9°F7.7°C 28.8°F-1.8°C 51% 2.5 mph NW4.0 kmh NW 3.4 mph5.5 kmh 29.86 in1011.2 mb 0.00 in0.0 mm 0.00 in0.0 mm 0.14 in3.6 mm
02:48 PM 45.7°F7.6°C 28.6°F-1.9°C 51% 5.8 mph WNW9.3 kmh WNW 6.9 mph11.1 kmh 29.86 in1011.2 mb 0.00 in0.0 mm 0.00 in0.0 mm 0.14 in3.6 mm
02:49 PM 45.7°F7.6°C 28.6°F-1.9°C 51% 4.5 mph NW7.2 kmh NW 5.8 mph9.3 kmh 29.87 in1011.5 mb 0.00 in0.0 mm 0.00 in0.0 mm 0.14 in3.6 mm
02:50 PM 45.7°F7.6°C 28.6°F-1.9°C 51% 6.9 mph WSW11.1 kmh WSW 9.2 mph14.8 kmh 29.87 in1011.5 mb 0.00 in0.0 mm 0.00 in0.0 mm 0.14 in3.6 mm
02:51 PM 45.5°F7.5°C 28.4°F-2.0°C 51% 9.2 mph WNW14.8 kmh WNW 12.5 mph20.1 kmh 29.88 in1011.9 mb 0.00 in0.0 mm 0.00 in0.0 mm 0.14 in3.6 mm
02:52 PM 45.5°F7.5°C 28.4°F-2.0°C 51% 4.5 mph WNW7.2 kmh WNW 5.8 mph9.3 kmh 29.87 in1011.5 mb 0.00 in0.0 mm 0.00 in0.0 mm 0.14 in3.6 mm
02:53 PM 45.5°F7.5°C 28.4°F-2.0°C 51% 6.0 mph WNW9.7 kmh WNW 6.9 mph11.1 kmh 29.86 in1011.2 mb 0.00 in0.0 mm 0.00 in0.0 mm 0.14 in3.6 mm
02:54 PM 45.3°F7.4°C 28.3°F-2.1°C 51% 2.9 mph NW4.7 kmh NW 4.5 mph7.2 kmh 29.87 in1011.5 mb 0.00 in0.0 mm 0.00 in0.0 mm 0.14 in3.6 mm
02:55 PM 45.3°F7.4°C 28.3°F-2.1°C 51% 5.4 mph WNW8.7 kmh WNW 5.8 mph9.3 kmh 29.87 in1011.5 mb 0.00 in0.0 mm 0.00 in0.0 mm 0.14 in3.6 mm
02:56 PM 45.3°F7.4°C 28.7°F-1.8°C 52% 4.3 mph WNW6.9 kmh WNW 4.5 mph7.2 kmh 29.87 in1011.5 mb 0.00 in0.0 mm 0.00 in0.0 mm 0.14 in3.6 mm
02:57 PM 45.1°F7.3°C 28.5°F-1.9°C 52% 6.0 mph W9.7 kmh W 9.2 mph14.8 kmh 29.88 in1011.9 mb 0.00 in0.0 mm 0.00 in0.0 mm 0.14 in3.6 mm
02:58 PM 45.1°F7.3°C 28.5°F-1.9°C 52% 5.8 mph WNW9.3 kmh WNW 6.9 mph11.1 kmh 29.87 in1011.5 mb 0.00 in0.0 mm 0.00 in0.0 mm 0.14 in3.6 mm
02:59 PM 45.1°F7.3°C 28.5°F-1.9°C 52% 5.4 mph NW8.7 kmh NW 6.9 mph11.1 kmh 29.88 in1011.9 mb 0.00 in0.0 mm 0.00 in0.0 mm 0.14 in3.6 mm
03:00 PM 45.1°F7.3°C 29.0°F-1.7°C 53% 8.3 mph NW13.4 kmh NW 10.3 mph16.6 kmh 29.87 in1011.5 mb 0.00 in0.0 mm 0.00 in0.0 mm 0.14 in3.6 mm
03:01 PM 45.1°F7.3°C 29.0°F-1.7°C 53% 6.0 mph W9.7 kmh W 8.1 mph13.0 kmh 29.88 in1011.9 mb 0.00 in0.0 mm 0.00 in0.0 mm 0.14 in3.6 mm
03:02 PM 45.1°F7.3°C 29.0°F-1.7°C 53% 10.1 mph W16.3 kmh W 11.4 mph18.3 kmh 29.88 in1011.9 mb 0.00 in0.0 mm 0.00 in0.0 mm 0.14 in3.6 mm
03:03 PM 45.1°F7.3°C 29.5°F-1.4°C 54% 4.3 mph W6.9 kmh W 6.9 mph11.1 kmh 29.87 in1011.5 mb 0.00 in0.0 mm 0.00 in0.0 mm 0.14 in3.6 mm
03:04 PM 45.0°F7.2°C 29.4°F-1.4°C 54% 6.9 mph W11.1 kmh W 8.1 mph13.0 kmh 29.87 in1011.5 mb 0.00 in0.0 mm 0.00 in0.0 mm 0.14 in3.6 mm
03:05 PM 45.0°F7.2°C 29.4°F-1.4°C 54% 3.6 mph WNW5.8 kmh WNW 4.5 mph7.2 kmh 29.87 in1011.5 mb 0.00 in0.0 mm 0.00 in0.0 mm 0.14 in3.6 mm
03:06 PM 44.8°F7.1°C 29.6°F-1.3°C 55% 6.0 mph WNW9.7 kmh WNW 6.9 mph11.1 kmh 29.88 in1011.9 mb 0.00 in0.0 mm 0.00 in0.0 mm 0.14 in3.6 mm
03:07 PM 44.6°F7.0°C 29.9°F-1.2°C 56% 5.6 mph W9.0 kmh W 8.1 mph13.0 kmh 29.88 in1011.9 mb 0.00 in0.0 mm 0.00 in0.0 mm 0.14 in3.6 mm
03:08 PM 44.4°F6.9°C 29.7°F-1.3°C 56% 2.2 mph WNW3.5 kmh WNW 3.4 mph5.5 kmh 29.89 in1012.2 mb 0.00 in0.0 mm 0.00 in0.0 mm 0.14 in3.6 mm
03:09 PM 44.4°F6.9°C 29.7°F-1.3°C 56% 6.0 mph W9.7 kmh W 8.1 mph13.0 kmh 29.89 in1012.2 mb 0.00 in0.0 mm 0.00 in0.0 mm 0.14 in3.6 mm
03:10 PM 44.4°F6.9°C 29.7°F-1.3°C 56% 7.4 mph WNW11.9 kmh WNW 10.3 mph16.6 kmh 29.88 in1011.9 mb 0.00 in0.0 mm 0.00 in0.0 mm 0.14 in3.6 mm
03:11 PM 44.2°F6.8°C 29.9°F-1.2°C 57% 7.8 mph W12.6 kmh W 9.2 mph14.8 kmh 29.89 in1012.2 mb 0.00 in0.0 mm 0.00 in0.0 mm 0.14 in3.6 mm
03:12 PM 44.2°F6.8°C 29.9°F-1.2°C 57% 6.9 mph WNW11.1 kmh WNW 8.1 mph13.0 kmh 29.88 in1011.9 mb 0.00 in0.0 mm 0.00 in0.0 mm 0.14 in3.6 mm
03:13 PM 44.2°F6.8°C 29.9°F-1.2°C 57% 10.3 mph W16.6 kmh W 12.5 mph20.1 kmh 29.88 in1011.9 mb 0.00 in0.0 mm 0.00 in0.0 mm 0.14 in3.6 mm
03:14 PM 44.1°F6.7°C 29.9°F-1.2°C 57% 5.8 mph NW9.3 kmh NW 6.9 mph11.1 kmh 29.89 in1012.2 mb 0.00 in0.0 mm 0.00 in0.0 mm 0.14 in3.6 mm
03:15 PM 43.9°F6.6°C 30.1°F-1.1°C 58% 5.8 mph WNW9.3 kmh WNW 9.2 mph14.8 kmh 29.89 in1012.2 mb 0.00 in0.0 mm 0.00 in0.0 mm 0.14 in3.6 mm
03:16 PM 43.9°F6.6°C 30.1°F-1.1°C 58% 4.7 mph WNW7.6 kmh WNW 5.8 mph9.3 kmh 29.89 in1012.2 mb 0.00 in0.0 mm 0.00 in0.0 mm 0.14 in3.6 mm
03:17 PM 43.7°F6.5°C 29.9°F-1.2°C 58% 8.9 mph WNW14.3 kmh WNW 10.3 mph16.6 kmh 29.89 in1012.2 mb 0.00 in0.0 mm 0.00 in0.0 mm 0.14 in3.6 mm
03:18 PM 43.7°F6.5°C 29.9°F-1.2°C 58% 6.3 mph W10.1 kmh W 8.1 mph13.0 kmh 29.89 in1012.2 mb 0.00 in0.0 mm 0.00 in0.0 mm 0.14 in3.6 mm
03:19 PM 43.9°F6.6°C 29.7°F-1.3°C 57% 5.1 mph WNW8.2 kmh WNW 5.8 mph9.3 kmh 29.89 in1012.2 mb 0.00 in0.0 mm 0.00 in0.0 mm 0.14 in3.6 mm
03:20 PM 43.9°F6.6°C 30.1°F-1.1°C 58% 3.8 mph NW6.1 kmh NW 5.8 mph9.3 kmh 29.89 in1012.2 mb 0.00 in0.0 mm 0.00 in0.0 mm 0.14 in3.6 mm
03:21 PM 44.1°F6.7°C 29.9°F-1.2°C 57% 4.7 mph W7.6 kmh W 6.9 mph11.1 kmh 29.89 in1012.2 mb 0.00 in0.0 mm 0.00 in0.0 mm 0.14 in3.6 mm
03:22 PM 44.1°F6.7°C 30.3°F-0.9°C 58% 0.7 mph NW1.1 kmh NW 2.2 mph3.5 kmh 29.89 in1012.2 mb 0.00 in0.0 mm 0.00 in0.0 mm 0.14 in3.6 mm
03:23 PM 44.2°F6.8°C 30.4°F-0.9°C 58% 3.8 mph WNW6.1 kmh WNW 4.5 mph7.2 kmh 29.89 in1012.2 mb 0.00 in0.0 mm 0.00 in0.0 mm 0.14 in3.6 mm
03:24 PM 44.1°F6.7°C 30.3°F-0.9°C 58% 4.7 mph W7.6 kmh W 6.9 mph11.1 kmh 29.89 in1012.2 mb 0.00 in0.0 mm 0.00 in0.0 mm 0.14 in3.6 mm
03:25 PM 44.1°F6.7°C 29.9°F-1.2°C 57% 2.9 mph W4.7 kmh W 4.5 mph7.2 kmh 29.89 in1012.2 mb 0.00 in0.0 mm 0.00 in0.0 mm 0.14 in3.6 mm
03:26 PM 44.1°F6.7°C 29.9°F-1.2°C 57% 6.0 mph NW9.7 kmh NW 6.9 mph11.1 kmh 29.89 in1012.2 mb 0.00 in0.0 mm 0.00 in0.0 mm 0.14 in3.6 mm
03:27 PM 43.9°F6.6°C 29.2°F-1.6°C 56% 4.0 mph WNW6.4 kmh WNW 5.8 mph9.3 kmh 29.90 in1012.5 mb 0.00 in0.0 mm 0.00 in0.0 mm 0.14 in3.6 mm
03:28 PM 43.9°F6.6°C 29.2°F-1.6°C 56% 5.4 mph WNW8.7 kmh WNW 8.1 mph13.0 kmh 29.90 in1012.5 mb 0.00 in0.0 mm 0.00 in0.0 mm 0.14 in3.6 mm
03:29 PM 43.7°F6.5°C 29.0°F-1.7°C 56% 4.0 mph WNW6.4 kmh WNW 5.8 mph9.3 kmh 29.90 in1012.5 mb 0.00 in0.0 mm 0.00 in0.0 mm 0.14 in3.6 mm
03:30 PM 43.7°F6.5°C 29.0°F-1.7°C 56% 7.4 mph NW11.9 kmh NW 9.2 mph14.8 kmh 29.89 in1012.2 mb 0.00 in0.0 mm 0.00 in0.0 mm 0.14 in3.6 mm
03:31 PM 43.7°F6.5°C 28.6°F-1.9°C 55% 5.8 mph NW9.3 kmh NW 10.3 mph16.6 kmh 29.89 in1012.2 mb 0.00 in0.0 mm 0.00 in0.0 mm 0.14 in3.6 mm
03:32 PM 43.7°F6.5°C 28.2°F-2.1°C 54% 6.9 mph NW11.1 kmh NW 11.4 mph18.3 kmh 29.89 in1012.2 mb 0.00 in0.0 mm 0.00 in0.0 mm 0.14 in3.6 mm
03:33 PM 43.7°F6.5°C 27.7°F-2.4°C 53% 4.3 mph W6.9 kmh W 5.8 mph9.3 kmh 29.90 in1012.5 mb 0.00 in0.0 mm 0.00 in0.0 mm 0.14 in3.6 mm
03:35 PM 43.9°F6.6°C 27.0°F-2.8°C 51% 4.0 mph NW6.4 kmh NW 5.8 mph9.3 kmh 29.89 in1012.2 mb 0.00 in0.0 mm 0.00 in0.0 mm 0.14 in3.6 mm
03:36 PM 43.9°F6.6°C 26.5°F-3.1°C 50% 5.4 mph W8.7 kmh W 8.1 mph13.0 kmh 29.89 in1012.2 mb 0.00 in0.0 mm 0.00 in0.0 mm 0.14 in3.6 mm
03:37 PM 43.9°F6.6°C 26.5°F-3.1°C 50% 2.9 mph WNW4.7 kmh WNW 3.4 mph5.5 kmh 29.90 in1012.5 mb 0.00 in0.0 mm 0.00 in0.0 mm 0.14 in3.6 mm
03:38 PM 43.9°F6.6°C 26.5°F-3.1°C 50% 4.7 mph W7.6 kmh W 5.8 mph9.3 kmh 29.90 in1012.5 mb 0.00 in0.0 mm 0.00 in0.0 mm 0.14 in3.6 mm
03:39 PM 43.9°F6.6°C 26.5°F-3.1°C 50% 4.5 mph NW7.2 kmh NW 5.8 mph9.3 kmh 29.90 in1012.5 mb 0.00 in0.0 mm 0.00 in0.0 mm 0.14 in3.6 mm
03:40 PM 43.9°F6.6°C 26.0°F-3.3°C 49% 6.5 mph WNW10.5 kmh WNW 10.3 mph16.6 kmh 29.90 in1012.5 mb 0.00 in0.0 mm 0.00 in0.0 mm 0.14 in3.6 mm
03:41 PM 43.9°F6.6°C 25.5°F-3.6°C 48% 3.4 mph NW5.5 kmh NW 6.9 mph11.1 kmh 29.90 in1012.5 mb 0.00 in0.0 mm 0.00 in0.0 mm 0.14 in3.6 mm
03:42 PM 44.1°F6.7°C 25.7°F-3.5°C 48% 5.8 mph WNW9.3 kmh WNW 6.9 mph11.1 kmh 29.90 in1012.5 mb 0.00 in0.0 mm 0.00 in0.0 mm 0.14 in3.6 mm
03:43 PM 44.1°F6.7°C 26.2°F-3.2°C 49% 6.9 mph W11.1 kmh W 9.2 mph14.8 kmh 29.90 in1012.5 mb 0.00 in0.0 mm 0.00 in0.0 mm 0.14 in3.6 mm
03:44 PM 44.1°F6.7°C 26.2°F-3.2°C 49% 4.9 mph N7.9 kmh N 9.2 mph14.8 kmh 29.90 in1012.5 mb 0.00 in0.0 mm 0.00 in0.0 mm 0.14 in3.6 mm
03:45 PM 44.2°F6.8°C 26.3°F-3.2°C 49% 3.1 mph WNW5.0 kmh WNW 3.4 mph5.5 kmh 29.91 in1012.9 mb 0.00 in0.0 mm 0.00 in0.0 mm 0.14 in3.6 mm
03:46 PM 44.1°F6.7°C 25.7°F-3.5°C 48% 5.4 mph WSW8.7 kmh WSW 5.8 mph9.3 kmh 29.90 in1012.5 mb 0.00 in0.0 mm 0.00 in0.0 mm 0.14 in3.6 mm
03:47 PM 44.1°F6.7°C 25.2°F-3.8°C 47% 4.5 mph WNW7.2 kmh WNW 5.8 mph9.3 kmh 29.90 in1012.5 mb 0.00 in0.0 mm 0.00 in0.0 mm 0.14 in3.6 mm
03:48 PM 43.9°F6.6°C 25.0°F-3.9°C 47% 9.4 mph WNW15.1 kmh WNW 13.6 mph21.9 kmh 29.90 in1012.5 mb 0.00 in0.0 mm 0.00 in0.0 mm 0.14 in3.6 mm
03:49 PM 43.9°F6.6°C 25.5°F-3.6°C 48% 4.9 mph WNW7.9 kmh WNW 6.9 mph11.1 kmh 29.90 in1012.5 mb 0.00 in0.0 mm 0.00 in0.0 mm 0.14 in3.6 mm
03:50 PM 43.9°F6.6°C 25.0°F-3.9°C 47% 4.9 mph WNW7.9 kmh WNW 9.2 mph14.8 kmh 29.90 in1012.5 mb 0.00 in0.0 mm 0.00 in0.0 mm 0.14 in3.6 mm
03:51 PM 43.9°F6.6°C 25.0°F-3.9°C 47% 4.7 mph WNW7.6 kmh WNW 5.8 mph9.3 kmh 29.89 in1012.2 mb 0.00 in0.0 mm 0.00 in0.0 mm 0.14 in3.6 mm
03:52 PM 43.9°F6.6°C 24.5°F-4.2°C 46% 4.9 mph WNW7.9 kmh WNW 8.1 mph13.0 kmh 29.90 in1012.5 mb 0.00 in0.0 mm 0.00 in0.0 mm 0.14 in3.6 mm
03:53 PM 43.9°F6.6°C 25.0°F-3.9°C 47% 4.5 mph W7.2 kmh W 5.8 mph9.3 kmh 29.91 in1012.9 mb 0.00 in0.0 mm 0.00 in0.0 mm 0.14 in3.6 mm
03:54 PM 43.9°F6.6°C 24.5°F-4.2°C 46% 5.4 mph NW8.7 kmh NW 6.9 mph11.1 kmh 29.90 in1012.5 mb 0.00 in0.0 mm 0.00 in0.0 mm 0.14 in3.6 mm
03:55 PM 43.7°F6.5°C 24.8°F-4.0°C 47% 3.1 mph WNW5.0 kmh WNW 3.4 mph5.5 kmh 29.91 in1012.9 mb 0.00 in0.0 mm 0.00 in0.0 mm 0.14 in3.6 mm
03:56 PM 43.5°F6.4°C 24.6°F-4.1°C 47% 2.5 mph SSE4.0 kmh SSE 4.5 mph7.2 kmh 29.91 in1012.9 mb 0.00 in0.0 mm 0.00 in0.0 mm 0.14 in3.6 mm
03:57 PM 43.3°F6.3°C 24.9°F-3.9°C 48% 5.8 mph W9.3 kmh W 9.2 mph14.8 kmh 29.91 in1012.9 mb 0.00 in0.0 mm 0.00 in0.0 mm 0.14 in3.6 mm
03:58 PM 43.2°F6.2°C 24.9°F-3.9°C 48% 2.5 mph N4.0 kmh N 3.4 mph5.5 kmh 29.91 in1012.9 mb 0.00 in0.0 mm 0.00 in0.0 mm 0.14 in3.6 mm
03:59 PM 43.2°F6.2°C 24.9°F-3.9°C 48% 4.9 mph W7.9 kmh W 6.9 mph11.1 kmh 29.91 in1012.9 mb 0.00 in0.0 mm 0.00 in0.0 mm 0.14 in3.6 mm
04:00 PM 43.0°F6.1°C 25.2°F-3.8°C 49% 3.4 mph W5.5 kmh W 5.8 mph9.3 kmh 29.91 in1012.9 mb 0.00 in0.0 mm 0.00 in0.0 mm 0.14 in3.6 mm
04:01 PM 43.0°F6.1°C 24.7°F-4.1°C 48% 4.7 mph WNW7.6 kmh WNW 5.8 mph9.3 kmh 29.91 in1012.9 mb 0.00 in0.0 mm 0.00 in0.0 mm 0.14 in3.6 mm
04:02 PM 43.0°F6.1°C 24.7°F-4.1°C 48% 6.0 mph WNW9.7 kmh WNW 6.9 mph11.1 kmh 29.91 in1012.9 mb 0.00 in0.0 mm 0.00 in0.0 mm 0.14 in3.6 mm
04:03 PM 43.0°F6.1°C 25.2°F-3.8°C 49% 2.5 mph NW4.0 kmh NW 3.4 mph5.5 kmh 29.91 in1012.9 mb 0.00 in0.0 mm 0.00 in0.0 mm 0.14 in3.6 mm
04:04 PM 43.0°F6.1°C 24.2°F-4.3°C 47% 6.5 mph WNW10.5 kmh WNW 8.1 mph13.0 kmh 29.92 in1013.2 mb 0.00 in0.0 mm 0.00 in0.0 mm 0.14 in3.6 mm
04:05 PM 43.2°F6.2°C 24.9°F-3.9°C 48% 4.7 mph WNW7.6 kmh WNW 6.9 mph11.1 kmh 29.91 in1012.9 mb 0.00 in0.0 mm 0.00 in0.0 mm 0.14 in3.6 mm
04:06 PM 43.2°F6.2°C 25.3°F-3.7°C 49% 6.5 mph WNW10.5 kmh WNW 9.2 mph14.8 kmh 29.91 in1012.9 mb 0.00 in0.0 mm 0.00 in0.0 mm 0.14 in3.6 mm
04:07 PM 43.2°F6.2°C 25.3°F-3.7°C 49% 5.8 mph NW9.3 kmh NW 6.9 mph11.1 kmh 29.92 in1013.2 mb 0.00 in0.0 mm 0.00 in0.0 mm 0.14 in3.6 mm
04:08 PM 43.2°F6.2°C 26.3°F-3.2°C 51% 9.2 mph N14.8 kmh N 13.6 mph21.9 kmh 29.92 in1013.2 mb 0.00 in0.0 mm 0.00 in0.0 mm 0.14 in3.6 mm
04:09 PM 43.0°F6.1°C 27.1°F-2.7°C 53% 3.1 mph NW5.0 kmh NW 4.5 mph7.2 kmh 29.93 in1013.5 mb 0.00 in0.0 mm 0.00 in0.0 mm 0.14 in3.6 mm
04:10 PM 43.0°F6.1°C 28.0°F-2.2°C 55% 2.9 mph E4.7 kmh E 4.5 mph7.2 kmh 29.93 in1013.5 mb 0.00 in0.0 mm 0.00 in0.0 mm 0.14 in3.6 mm
04:11 PM 42.6°F5.9°C 28.4°F-2.0°C 57% 5.4 mph WSW8.7 kmh WSW 8.1 mph13.0 kmh 29.92 in1013.2 mb 0.00 in0.0 mm 0.00 in0.0 mm 0.14 in3.6 mm
04:12 PM 42.4°F5.8°C 29.1°F-1.6°C 59% 4.0 mph W6.4 kmh W 5.8 mph9.3 kmh 29.93 in1013.5 mb 0.00 in0.0 mm 0.00 in0.0 mm 0.14 in3.6 mm
04:13 PM 42.1°F5.6°C 29.6°F-1.3°C 61% 2.5 mph NW4.0 kmh NW 3.4 mph5.5 kmh 29.93 in1013.5 mb 0.00 in0.0 mm 0.00 in0.0 mm 0.14 in3.6 mm
04:14 PM 41.9°F5.5°C 29.8°F-1.2°C 62% 2.0 mph NNW3.2 kmh NNW 2.2 mph3.5 kmh 29.93 in1013.5 mb 0.00 in0.0 mm 0.00 in0.0 mm 0.14 in3.6 mm
04:15 PM 41.7°F5.4°C 29.7°F-1.3°C 62% 6.9 mph WNW11.1 kmh WNW 9.2 mph14.8 kmh 29.93 in1013.5 mb 0.00 in0.0 mm 0.00 in0.0 mm 0.14 in3.6 mm
04:16 PM 41.4°F5.2°C 29.8°F-1.2°C 63% 4.9 mph W7.9 kmh W 8.1 mph13.0 kmh 29.93 in1013.5 mb 0.00 in0.0 mm 0.00 in0.0 mm 0.14 in3.6 mm
04:17 PM 41.2°F5.1°C 29.6°F-1.3°C 63% 2.2 mph NW3.5 kmh NW 4.5 mph7.2 kmh 29.93 in1013.5 mb 0.00 in0.0 mm 0.00 in0.0 mm 0.14 in3.6 mm
04:18 PM 41.2°F5.1°C 29.6°F-1.3°C 63% 2.0 mph N3.2 kmh N 3.4 mph5.5 kmh 29.93 in1013.5 mb 0.00 in0.0 mm 0.00 in0.0 mm 0.14 in3.6 mm
04:19 PM 41.2°F5.1°C 29.6°F-1.3°C 63% 1.3 mph 2.1 kmh 2.2 mph3.5 kmh 29.93 in1013.5 mb 0.00 in0.0 mm 0.00 in0.0 mm 0.14 in3.6 mm
04:20 PM 41.4°F5.2°C 29.4°F-1.4°C 62% 3.1 mph N5.0 kmh N 4.5 mph7.2 kmh 29.93 in1013.5 mb 0.00 in0.0 mm 0.00 in0.0 mm 0.14 in3.6 mm
04:21 PM 41.5°F5.3°C 29.5°F-1.4°C 62% 1.6 mph NNW2.6 kmh NNW 2.2 mph3.5 kmh 29.93 in1013.5 mb 0.00 in0.0 mm 0.00 in0.0 mm 0.14 in3.6 mm
04:22 PM 41.5°F5.3°C 29.5°F-1.4°C 62% 2.0 mph SE3.2 kmh SE 3.4 mph5.5 kmh 29.93 in1013.5 mb 0.00 in0.0 mm 0.00 in0.0 mm 0.14 in3.6 mm
04:23 PM 41.5°F5.3°C 29.1°F-1.6°C 61% 3.4 mph W5.5 kmh W 8.1 mph13.0 kmh 29.93 in1013.5 mb 0.00 in0.0 mm 0.00 in0.0 mm 0.14 in3.6 mm
04:24 PM 41.4°F5.2°C 29.4°F-1.4°C 62% 1.3 mph NNW2.1 kmh NNW 2.2 mph3.5 kmh 29.93 in1013.5 mb 0.00 in0.0 mm 0.00 in0.0 mm 0.14 in3.6 mm
04:25 PM 41.2°F5.1°C 28.4°F-2.0°C 60% 3.4 mph WNW5.5 kmh WNW 4.5 mph7.2 kmh 29.93 in1013.5 mb 0.00 in0.0 mm 0.00 in0.0 mm 0.14 in3.6 mm
04:26 PM 41.2°F5.1°C 28.0°F-2.2°C 59% 4.7 mph W7.6 kmh W 9.2 mph14.8 kmh 29.93 in1013.5 mb 0.00 in0.0 mm 0.00 in0.0 mm 0.14 in3.6 mm
04:27 PM 40.8°F4.9°C 27.2°F-2.7°C 58% 3.8 mph NNW6.1 kmh NNW 5.8 mph9.3 kmh 29.93 in1013.5 mb 0.00 in0.0 mm 0.00 in0.0 mm 0.14 in3.6 mm
04:28 PM 40.8°F4.9°C 26.8°F-2.9°C 57% 4.5 mph WNW7.2 kmh WNW 5.8 mph9.3 kmh 29.93 in1013.5 mb 0.00 in0.0 mm 0.00 in0.0 mm 0.14 in3.6 mm
04:29 PM 40.8°F4.9°C 25.9°F-3.4°C 55% 7.6 mph WSW12.2 kmh WSW 9.2 mph14.8 kmh 29.93 in1013.5 mb 0.00 in0.0 mm 0.00 in0.0 mm 0.14 in3.6 mm
04:30 PM 40.8°F4.9°C 25.5°F-3.6°C 54% 2.5 mph NW4.0 kmh NW 4.5 mph7.2 kmh 29.93 in1013.5 mb 0.00 in0.0 mm 0.00 in0.0 mm 0.14 in3.6 mm
04:31 PM 40.8°F4.9°C 25.0°F-3.9°C 53% 3.6 mph NW5.8 kmh NW 4.5 mph7.2 kmh 29.93 in1013.5 mb 0.00 in0.0 mm 0.00 in0.0 mm 0.14 in3.6 mm
04:32 PM 40.8°F4.9°C 25.0°F-3.9°C 53% 4.5 mph WNW7.2 kmh WNW 5.8 mph9.3 kmh 29.93 in1013.5 mb 0.00 in0.0 mm 0.00 in0.0 mm 0.14 in3.6 mm
04:33 PM 40.8°F4.9°C 24.1°F-4.4°C 51% 6.7 mph W10.8 kmh W 10.3 mph16.6 kmh 29.93 in1013.5 mb 0.00 in0.0 mm 0.00 in0.0 mm 0.14 in3.6 mm
04:34 PM 40.8°F4.9°C 24.1°F-4.4°C 51% 4.3 mph WNW6.9 kmh WNW 4.5 mph7.2 kmh 29.93 in1013.5 mb 0.00 in0.0 mm 0.00 in0.0 mm 0.14 in3.6 mm
04:35 PM 40.8°F4.9°C 24.1°F-4.4°C 51% 3.4 mph W5.5 kmh W 4.5 mph7.2 kmh 29.93 in1013.5 mb 0.00 in0.0 mm 0.00 in0.0 mm 0.14 in3.6 mm
04:36 PM 40.8°F4.9°C 24.1°F-4.4°C 51% 4.7 mph WNW7.6 kmh WNW 6.9 mph11.1 kmh 29.93 in1013.5 mb 0.00 in0.0 mm 0.00 in0.0 mm 0.14 in3.6 mm
04:37 PM 40.8°F4.9°C 24.1°F-4.4°C 51% 6.9 mph W11.1 kmh W 11.4 mph18.3 kmh 29.93 in1013.5 mb 0.00 in0.0 mm 0.00 in0.0 mm 0.14 in3.6 mm
04:38 PM 40.8°F4.9°C 24.1°F-4.4°C 51% 8.1 mph W13.0 kmh W 9.2 mph14.8 kmh 29.94 in1013.9 mb 0.00 in0.0 mm 0.00 in0.0 mm 0.14 in3.6 mm
04:39 PM 40.8°F4.9°C 24.1°F-4.4°C 51% 2.9 mph NW4.7 kmh NW 3.4 mph5.5 kmh 29.94 in1013.9 mb 0.00 in0.0 mm 0.00 in0.0 mm 0.14 in3.6 mm
04:40 PM 40.8°F4.9°C 24.1°F-4.4°C 51% 2.0 mph NW3.2 kmh NW 3.4 mph5.5 kmh 29.93 in1013.5 mb 0.00 in0.0 mm 0.00 in0.0 mm 0.14 in3.6 mm
04:41 PM 40.8°F4.9°C 24.1°F-4.4°C 51% 2.9 mph NW4.7 kmh NW 4.5 mph7.2 kmh 29.94 in1013.9 mb 0.00 in0.0 mm 0.00 in0.0 mm 0.14 in3.6 mm
04:42 PM 40.8°F4.9°C 24.1°F-4.4°C 51% 3.4 mph W5.5 kmh W 6.9 mph11.1 kmh 29.93 in1013.5 mb 0.00 in0.0 mm 0.00 in0.0 mm 0.14 in3.6 mm
04:43 PM 40.8°F4.9°C 24.1°F-4.4°C 51% 5.1 mph SW8.2 kmh SW 11.4 mph18.3 kmh 29.93 in1013.5 mb 0.00 in0.0 mm 0.00 in0.0 mm 0.14 in3.6 mm
04:44 PM 40.8°F4.9°C 24.1°F-4.4°C 51% 8.5 mph W13.7 kmh W 11.4 mph18.3 kmh 29.94 in1013.9 mb 0.00 in0.0 mm 0.00 in0.0 mm 0.14 in3.6 mm
04:45 PM 40.6°F4.8°C 23.9°F-4.5°C 51% 10.5 mph SE16.9 kmh SE 12.5 mph20.1 kmh 29.94 in1013.9 mb 0.00 in0.0 mm 0.00 in0.0 mm 0.14 in3.6 mm
04:46 PM 40.6°F4.8°C 24.4°F-4.2°C 52% 6.7 mph NW10.8 kmh NW 8.1 mph13.0 kmh 29.94 in1013.9 mb 0.00 in0.0 mm 0.00 in0.0 mm 0.14 in3.6 mm
04:47 PM 40.5°F4.7°C 24.3°F-4.3°C 52% 7.6 mph W12.2 kmh W 10.3 mph16.6 kmh 29.94 in1013.9 mb 0.00 in0.0 mm 0.00 in0.0 mm 0.14 in3.6 mm
04:48 PM 40.5°F4.7°C 25.2°F-3.8°C 54% 4.9 mph W7.9 kmh W 6.9 mph11.1 kmh 29.94 in1013.9 mb 0.00 in0.0 mm 0.00 in0.0 mm 0.14 in3.6 mm
04:49 PM 40.5°F4.7°C 24.7°F-4.1°C 53% 11.6 mph W18.7 kmh W 15.9 mph25.6 kmh 29.94 in1013.9 mb 0.00 in0.0 mm 0.00 in0.0 mm 0.14 in3.6 mm
04:50 PM 40.3°F4.6°C 25.0°F-3.9°C 54% 3.8 mph WSW6.1 kmh WSW 5.8 mph9.3 kmh 29.95 in1014.2 mb 0.00 in0.0 mm 0.00 in0.0 mm 0.14 in3.6 mm
04:51 PM 40.3°F4.6°C 25.4°F-3.7°C 55% 4.9 mph WNW7.9 kmh WNW 6.9 mph11.1 kmh 29.95 in1014.2 mb 0.00 in0.0 mm 0.00 in0.0 mm 0.14 in3.6 mm
04:52 PM 40.1°F4.5°C 25.2°F-3.8°C 55% 4.5 mph NW7.2 kmh NW 8.1 mph13.0 kmh 29.95 in1014.2 mb 0.00 in0.0 mm 0.00 in0.0 mm 0.14 in3.6 mm
04:53 PM 40.1°F4.5°C 25.2°F-3.8°C 55% 2.7 mph NW4.3 kmh NW 3.4 mph5.5 kmh 29.94 in1013.9 mb 0.00 in0.0 mm 0.00 in0.0 mm 0.14 in3.6 mm
04:54 PM 39.9°F4.4°C 25.5°F-3.6°C 56% 3.4 mph NNW5.5 kmh NNW 5.8 mph9.3 kmh 29.94 in1013.9 mb 0.00 in0.0 mm 0.00 in0.0 mm 0.14 in3.6 mm
04:55 PM 39.9°F4.4°C 25.9°F-3.4°C 57% 2.2 mph W3.5 kmh W 3.4 mph5.5 kmh 29.94 in1013.9 mb 0.00 in0.0 mm 0.00 in0.0 mm 0.14 in3.6 mm
04:56 PM 39.7°F4.3°C 25.7°F-3.5°C 57% 1.3 mph NW2.1 kmh NW 2.2 mph3.5 kmh 29.94 in1013.9 mb 0.00 in0.0 mm 0.00 in0.0 mm 0.14 in3.6 mm
04:57 PM 39.6°F4.2°C 25.6°F-3.6°C 57% 3.8 mph WNW6.1 kmh WNW 4.5 mph7.2 kmh 29.96 in1014.6 mb 0.00 in0.0 mm 0.00 in0.0 mm 0.14 in3.6 mm
04:58 PM 39.6°F4.2°C 25.2°F-3.8°C 56% 3.4 mph WNW5.5 kmh WNW 4.5 mph7.2 kmh 29.95 in1014.2 mb 0.00 in0.0 mm 0.00 in0.0 mm 0.14 in3.6 mm
04:59 PM 39.6°F4.2°C 25.2°F-3.8°C 56% 6.9 mph NW11.1 kmh NW 8.1 mph13.0 kmh 29.94 in1013.9 mb 0.00 in0.0 mm 0.00 in0.0 mm 0.14 in3.6 mm
05:00 PM 39.6°F4.2°C 25.2°F-3.8°C 56% 7.4 mph W11.9 kmh W 8.1 mph13.0 kmh 29.95 in1014.2 mb 0.00 in0.0 mm 0.00 in0.0 mm 0.14 in3.6 mm
05:01 PM 39.6°F4.2°C 25.2°F-3.8°C 56% 2.0 mph NW3.2 kmh NW 2.2 mph3.5 kmh 29.94 in1013.9 mb 0.00 in0.0 mm 0.00 in0.0 mm 0.14 in3.6 mm
05:02 PM 39.6°F4.2°C 25.2°F-3.8°C 56% 4.0 mph WNW6.4 kmh WNW 4.5 mph7.2 kmh 29.95 in1014.2 mb 0.00 in0.0 mm 0.00 in0.0 mm 0.14 in3.6 mm
05:03 PM 39.6°F4.2°C 25.2°F-3.8°C 56% 3.6 mph W5.8 kmh W 4.5 mph7.2 kmh 29.95 in1014.2 mb 0.00 in0.0 mm 0.00 in0.0 mm 0.14 in3.6 mm
05:04 PM 39.6°F4.2°C 25.2°F-3.8°C 56% 3.6 mph NW5.8 kmh NW 5.8 mph9.3 kmh 29.95 in1014.2 mb 0.00 in0.0 mm 0.00 in0.0 mm 0.14 in3.6 mm
05:05 PM 39.6°F4.2°C 24.8°F-4.0°C 55% 4.5 mph WNW7.2 kmh WNW 6.9 mph11.1 kmh 29.95 in1014.2 mb 0.00 in0.0 mm 0.00 in0.0 mm 0.14 in3.6 mm
05:06 PM 39.6°F4.2°C 24.3°F-4.3°C 54% 6.7 mph WNW10.8 kmh WNW 9.2 mph14.8 kmh 29.95 in1014.2 mb 0.00 in0.0 mm 0.00 in0.0 mm 0.14 in3.6 mm
05:07 PM 39.6°F4.2°C 24.3°F-4.3°C 54% 5.1 mph WNW8.2 kmh WNW 8.1 mph13.0 kmh 29.95 in1014.2 mb 0.00 in0.0 mm 0.00 in0.0 mm 0.14 in3.6 mm
05:08 PM 39.7°F4.3°C 24.4°F-4.2°C 54% 3.4 mph NW5.5 kmh NW 5.8 mph9.3 kmh 29.95 in1014.2 mb 0.00 in0.0 mm 0.00 in0.0 mm 0.14 in3.6 mm
05:09 PM 39.7°F4.3°C 24.4°F-4.2°C 54% 2.9 mph WNW4.7 kmh WNW 4.5 mph7.2 kmh 29.95 in1014.2 mb 0.00 in0.0 mm 0.00 in0.0 mm 0.14 in3.6 mm
05:10 PM 39.7°F4.3°C 24.9°F-3.9°C 55% 4.0 mph W6.4 kmh W 4.5 mph7.2 kmh 29.96 in1014.6 mb 0.00 in0.0 mm 0.00 in0.0 mm 0.14 in3.6 mm
05:11 PM 39.7°F4.3°C 24.9°F-3.9°C 55% 6.9 mph W11.1 kmh W 9.2 mph14.8 kmh 29.96 in1014.6 mb 0.00 in0.0 mm 0.00 in0.0 mm 0.14 in3.6 mm
05:12 PM 39.7°F4.3°C 24.4°F-4.2°C 54% 6.5 mph WNW10.5 kmh WNW 8.1 mph13.0 kmh 29.95 in1014.2 mb 0.00 in0.0 mm 0.00 in0.0 mm 0.14 in3.6 mm
05:13 PM 39.7°F4.3°C 24.4°F-4.2°C 54% 7.4 mph W11.9 kmh W 9.2 mph14.8 kmh 29.96 in1014.6 mb 0.00 in0.0 mm 0.00 in0.0 mm 0.14 in3.6 mm
05:14 PM 39.7°F4.3°C 24.4°F-4.2°C 54% 5.8 mph WNW9.3 kmh WNW 6.9 mph11.1 kmh 29.95 in1014.2 mb 0.00 in0.0 mm 0.00 in0.0 mm 0.14 in3.6 mm
05:15 PM 39.7°F4.3°C 24.4°F-4.2°C 54% 4.3 mph WNW6.9 kmh WNW 5.8 mph9.3 kmh 29.96 in1014.6 mb 0.00 in0.0 mm 0.00 in0.0 mm 0.14 in3.6 mm
05:16 PM 39.7°F4.3°C 24.4°F-4.2°C 54% 4.7 mph WNW7.6 kmh WNW 6.9 mph11.1 kmh 29.96 in1014.6 mb 0.00 in0.0 mm 0.00 in0.0 mm 0.14 in3.6 mm
05:17 PM 39.7°F4.3°C 24.4°F-4.2°C 54% 3.8 mph NW6.1 kmh NW 6.9 mph11.1 kmh 29.96 in1014.6 mb 0.00 in0.0 mm 0.00 in0.0 mm 0.14 in3.6 mm
05:18 PM 39.7°F4.3°C 24.4°F-4.2°C 54% 5.8 mph WNW9.3 kmh WNW 8.1 mph13.0 kmh 29.96 in1014.6 mb 0.00 in0.0 mm 0.00 in0.0 mm 0.14 in3.6 mm
05:19 PM 39.7°F4.3°C 24.9°F-3.9°C 55% 4.7 mph WNW7.6 kmh WNW 5.8 mph9.3 kmh 29.96 in1014.6 mb 0.00 in0.0 mm 0.00 in0.0 mm 0.14 in3.6 mm
05:20 PM 39.7°F4.3°C 24.9°F-3.9°C 55% 9.2 mph W14.8 kmh W 10.3 mph16.6 kmh 29.96 in1014.6 mb 0.00 in0.0 mm 0.00 in0.0 mm 0.14 in3.6 mm
05:21 PM 39.7°F4.3°C 24.9°F-3.9°C 55% 6.9 mph NW11.1 kmh NW 8.1 mph13.0 kmh 29.96 in1014.6 mb 0.00 in0.0 mm 0.00 in0.0 mm 0.14 in3.6 mm
05:22 PM 39.7°F4.3°C 24.4°F-4.2°C 54% 4.9 mph NW7.9 kmh NW 5.8 mph9.3 kmh 29.96 in1014.6 mb 0.00 in0.0 mm 0.00 in0.0 mm 0.14 in3.6 mm
05:23 PM 39.9°F4.4°C 25.1°F-3.8°C 55% 3.4 mph NW5.5 kmh NW 4.5 mph7.2 kmh 29.96 in1014.6 mb 0.00 in0.0 mm 0.00 in0.0 mm 0.14 in3.6 mm
05:24 PM 39.7°F4.3°C 24.9°F-3.9°C 55% 2.2 mph NW3.5 kmh NW 3.4 mph5.5 kmh 29.97 in1014.9 mb 0.00 in0.0 mm 0.00 in0.0 mm 0.14 in3.6 mm
05:25 PM 39.7°F4.3°C 24.9°F-3.9°C 55% 4.0 mph WSW6.4 kmh WSW 5.8 mph9.3 kmh 29.96 in1014.6 mb 0.00 in0.0 mm 0.00 in0.0 mm 0.14 in3.6 mm
05:26 PM 39.7°F4.3°C 24.9°F-3.9°C 55% 4.7 mph WNW7.6 kmh WNW 5.8 mph9.3 kmh 29.96 in1014.6 mb 0.00 in0.0 mm 0.00 in0.0 mm 0.14 in3.6 mm
05:27 PM 39.6°F4.2°C 24.8°F-4.0°C 55% 8.9 mph W14.3 kmh W 11.4 mph18.3 kmh 29.96 in1014.6 mb 0.00 in0.0 mm 0.00 in0.0 mm 0.14 in3.6 mm
05:28 PM 39.6°F4.2°C 24.8°F-4.0°C 55% 5.1 mph NW8.2 kmh NW 5.8 mph9.3 kmh 29.96 in1014.6 mb 0.00 in0.0 mm 0.00 in0.0 mm 0.14 in3.6 mm
05:29 PM 39.6°F4.2°C 24.8°F-4.0°C 55% 3.1 mph W5.0 kmh W 4.5 mph7.2 kmh 29.96 in1014.6 mb 0.00 in0.0 mm 0.00 in0.0 mm 0.14 in3.6 mm
05:30 PM 39.6°F4.2°C 24.8°F-4.0°C 55% 4.9 mph NW7.9 kmh NW 6.9 mph11.1 kmh 29.96 in1014.6 mb 0.00 in0.0 mm 0.00 in0.0 mm 0.14 in3.6 mm
05:31 PM 39.6°F4.2°C 24.8°F-4.0°C 55% 5.1 mph W8.2 kmh W 8.1 mph13.0 kmh 29.96 in1014.6 mb 0.00 in0.0 mm 0.00 in0.0 mm 0.14 in3.6 mm
05:32 PM 39.6°F4.2°C 24.8°F-4.0°C 55% 5.8 mph WNW9.3 kmh WNW 8.1 mph13.0 kmh 29.97 in1014.9 mb 0.00 in0.0 mm 0.00 in0.0 mm 0.14 in3.6 mm
05:33 PM 39.6°F4.2°C 24.8°F-4.0°C 55% 6.5 mph W10.5 kmh W 9.2 mph14.8 kmh 29.96 in1014.6 mb 0.00 in0.0 mm 0.00 in0.0 mm 0.14 in3.6 mm
05:34 PM 39.6°F4.2°C 24.8°F-4.0°C 55% 5.8 mph NW9.3 kmh NW 6.9 mph11.1 kmh 29.97 in1014.9 mb 0.00 in0.0 mm 0.00 in0.0 mm 0.14 in3.6 mm
05:35 PM 39.6°F4.2°C 24.8°F-4.0°C 55% 3.4 mph WNW5.5 kmh WNW 3.4 mph5.5 kmh 29.96 in1014.6 mb 0.00 in0.0 mm 0.00 in0.0 mm 0.14 in3.6 mm
05:36 PM 39.6°F4.2°C 24.8°F-4.0°C 55% 2.5 mph NW4.0 kmh NW 4.5 mph7.2 kmh 29.96 in1014.6 mb 0.00 in0.0 mm 0.00 in0.0 mm 0.14 in3.6 mm
05:37 PM 39.6°F4.2°C 24.3°F-4.3°C 54% 5.1 mph W8.2 kmh W 6.9 mph11.1 kmh 29.96 in1014.6 mb 0.00 in0.0 mm 0.00 in0.0 mm 0.14 in3.6 mm
05:38 PM 39.4°F4.1°C 24.2°F-4.3°C 54% 4.7 mph W7.6 kmh W 5.8 mph9.3 kmh 29.96 in1014.6 mb 0.00 in0.0 mm 0.00 in0.0 mm 0.14 in3.6 mm
05:39 PM 39.4°F4.1°C 24.2°F-4.3°C 54% 5.4 mph W8.7 kmh W 6.9 mph11.1 kmh 29.97 in1014.9 mb 0.00 in0.0 mm 0.00 in0.0 mm 0.14 in3.6 mm
05:40 PM 39.4°F4.1°C 24.2°F-4.3°C 54% 4.3 mph W6.9 kmh W 5.8 mph9.3 kmh 29.97 in1014.9 mb 0.00 in0.0 mm 0.00 in0.0 mm 0.14 in3.6 mm
05:41 PM 39.4°F4.1°C 24.2°F-4.3°C 54% 4.5 mph W7.2 kmh W 6.9 mph11.1 kmh 29.97 in1014.9 mb 0.00 in0.0 mm 0.00 in0.0 mm 0.14 in3.6 mm
05:42 PM 39.4°F4.1°C 24.2°F-4.3°C 54% 6.7 mph W10.8 kmh W 8.1 mph13.0 kmh 29.97 in1014.9 mb 0.00 in0.0 mm 0.00 in0.0 mm 0.14 in3.6 mm
05:43 PM 39.6°F4.2°C 23.9°F-4.5°C 53% 5.4 mph W8.7 kmh W 8.1 mph13.0 kmh 29.97 in1014.9 mb 0.00 in0.0 mm 0.00 in0.0 mm 0.14 in3.6 mm
05:44 PM 39.6°F4.2°C 23.9°F-4.5°C 53% 6.3 mph WNW10.1 kmh WNW 8.1 mph13.0 kmh 29.97 in1014.9 mb 0.00 in0.0 mm 0.00 in0.0 mm 0.14 in3.6 mm
05:45 PM 39.6°F4.2°C 23.9°F-4.5°C 53% 6.5 mph WNW10.5 kmh WNW 8.1 mph13.0 kmh 29.97 in1014.9 mb 0.00 in0.0 mm 0.00 in0.0 mm 0.14 in3.6 mm
05:46 PM 39.6°F4.2°C 23.9°F-4.5°C 53% 6.0 mph WNW9.7 kmh WNW 8.1 mph13.0 kmh 29.97 in1014.9 mb 0.00 in0.0 mm 0.00 in0.0 mm 0.14 in3.6 mm
05:47 PM 39.6°F4.2°C 23.9°F-4.5°C 53% 4.3 mph NW6.9 kmh NW 6.9 mph11.1 kmh 29.98 in1015.2 mb 0.00 in0.0 mm 0.00 in0.0 mm 0.14 in3.6 mm
05:48 PM 39.6°F4.2°C 24.3°F-4.3°C 54% 4.7 mph W7.6 kmh W 5.8 mph9.3 kmh 29.98 in1015.2 mb 0.00 in0.0 mm 0.00 in0.0 mm 0.14 in3.6 mm
05:49 PM 39.6°F4.2°C 24.3°F-4.3°C 54% 6.3 mph NW10.1 kmh NW 8.1 mph13.0 kmh 29.97 in1014.9 mb 0.00 in0.0 mm 0.00 in0.0 mm 0.14 in3.6 mm
05:50 PM 39.6°F4.2°C 23.9°F-4.5°C 53% 4.5 mph NW7.2 kmh NW 6.9 mph11.1 kmh 29.98 in1015.2 mb 0.00 in0.0 mm 0.00 in0.0 mm 0.14 in3.6 mm
05:51 PM 39.6°F4.2°C 24.3°F-4.3°C 54% 7.6 mph W12.2 kmh W 8.1 mph13.0 kmh 29.99 in1015.6 mb 0.00 in0.0 mm 0.00 in0.0 mm 0.14 in3.6 mm
05:52 PM 39.6°F4.2°C 24.3°F-4.3°C 54% 2.2 mph NW3.5 kmh NW 3.4 mph5.5 kmh 29.98 in1015.2 mb 0.00 in0.0 mm 0.00 in0.0 mm 0.14 in3.6 mm
05:53 PM 39.4°F4.1°C 24.2°F-4.3°C 54% 4.5 mph WNW7.2 kmh WNW 6.9 mph11.1 kmh 29.98 in1015.2 mb 0.00 in0.0 mm 0.00 in0.0 mm 0.14 in3.6 mm
05:54 PM 39.4°F4.1°C 24.2°F-4.3°C 54% 4.7 mph WNW7.6 kmh WNW 6.9 mph11.1 kmh 29.99 in1015.6 mb 0.00 in0.0 mm 0.00 in0.0 mm 0.14 in3.6 mm
05:55 PM 39.4°F4.1°C 24.6°F-4.1°C 55% 6.9 mph W11.1 kmh W 8.1 mph13.0 kmh 29.99 in1015.6 mb 0.00 in0.0 mm 0.00 in0.0 mm 0.14 in3.6 mm
05:56 PM 39.4°F4.1°C 24.6°F-4.1°C 55% 3.1 mph WSW5.0 kmh WSW 5.8 mph9.3 kmh 29.99 in1015.6 mb 0.00 in0.0 mm 0.00 in0.0 mm 0.14 in3.6 mm
05:57 PM 39.2°F4.0°C 24.0°F-4.4°C 54% 4.9 mph WNW7.9 kmh WNW 6.9 mph11.1 kmh 29.99 in1015.6 mb 0.00 in0.0 mm 0.00 in0.0 mm 0.14 in3.6 mm
05:58 PM 39.2°F4.0°C 24.4°F-4.2°C 55% 6.0 mph W9.7 kmh W 8.1 mph13.0 kmh 29.99 in1015.6 mb 0.00 in0.0 mm 0.00 in0.0 mm 0.14 in3.6 mm
05:59 PM 39.2°F4.0°C 24.4°F-4.2°C 55% 4.7 mph WNW7.6 kmh WNW 5.8 mph9.3 kmh 29.99 in1015.6 mb 0.00 in0.0 mm 0.00 in0.0 mm 0.14 in3.6 mm
06:00 PM 39.2°F4.0°C 24.4°F-4.2°C 55% 4.7 mph W7.6 kmh W 6.9 mph11.1 kmh 29.99 in1015.6 mb 0.00 in0.0 mm 0.00 in0.0 mm 0.14 in3.6 mm
06:01 PM 39.2°F4.0°C 24.4°F-4.2°C 55% 6.0 mph W9.7 kmh W 6.9 mph11.1 kmh 29.99 in1015.6 mb 0.00 in0.0 mm 0.00 in0.0 mm 0.14 in3.6 mm
06:02 PM 39.2°F4.0°C 24.4°F-4.2°C 55% 5.8 mph WNW9.3 kmh WNW 6.9 mph11.1 kmh 29.99 in1015.6 mb 0.00 in0.0 mm 0.00 in0.0 mm 0.14 in3.6 mm
06:03 PM 39.2°F4.0°C 24.4°F-4.2°C 55% 4.7 mph W7.6 kmh W 6.9 mph11.1 kmh 29.99 in1015.6 mb 0.00 in0.0 mm 0.00 in0.0 mm 0.14 in3.6 mm
06:04 PM 39.0°F3.9°C 24.2°F-4.3°C 55% 4.9 mph W7.9 kmh W 5.8 mph9.3 kmh 30.00 in1015.9 mb 0.00 in0.0 mm 0.00 in0.0 mm 0.14 in3.6 mm
06:05 PM 39.0°F3.9°C 24.7°F-4.1°C 56% 2.7 mph ESE4.3 kmh ESE 4.5 mph7.2 kmh 30.00 in1015.9 mb 0.00 in0.0 mm 0.00 in0.0 mm 0.14 in3.6 mm
06:06 PM 39.0°F3.9°C 24.7°F-4.1°C 56% 0.4 mph NNW0.6 kmh NNW 1.1 mph1.8 kmh 30.00 in1015.9 mb 0.00 in0.0 mm 0.00 in0.0 mm 0.14 in3.6 mm
06:07 PM 39.0°F3.9°C 24.7°F-4.1°C 56% 4.0 mph WNW6.4 kmh WNW 5.8 mph9.3 kmh 30.00 in1015.9 mb 0.00 in0.0 mm 0.00 in0.0 mm 0.14 in3.6 mm
06:08 PM 39.0°F3.9°C 25.1°F-3.8°C 57% 2.2 mph W3.5 kmh W 3.4 mph5.5 kmh 30.01 in1016.3 mb 0.00 in0.0 mm 0.00 in0.0 mm 0.14 in3.6 mm
06:09 PM 39.0°F3.9°C 24.7°F-4.1°C 56% 4.3 mph WNW6.9 kmh WNW 5.8 mph9.3 kmh 30.01 in1016.3 mb 0.00 in0.0 mm 0.00 in0.0 mm 0.14 in3.6 mm
06:10 PM 38.8°F3.8°C 24.5°F-4.2°C 56% 2.9 mph NW4.7 kmh NW 4.5 mph7.2 kmh 30.00 in1015.9 mb 0.00 in0.0 mm 0.00 in0.0 mm 0.14 in3.6 mm
06:11 PM 38.8°F3.8°C 24.5°F-4.2°C 56% 3.8 mph NW6.1 kmh NW 4.5 mph7.2 kmh 30.01 in1016.3 mb 0.00 in0.0 mm 0.00 in0.0 mm 0.14 in3.6 mm
06:12 PM 38.8°F3.8°C 24.5°F-4.2°C 56% 1.3 mph NW2.1 kmh NW 2.2 mph3.5 kmh 30.01 in1016.3 mb 0.00 in0.0 mm 0.00 in0.0 mm 0.14 in3.6 mm
06:13 PM 38.8°F3.8°C 24.5°F-4.2°C 56% 5.8 mph W9.3 kmh W 6.9 mph11.1 kmh 30.00 in1015.9 mb 0.00 in0.0 mm 0.00 in0.0 mm 0.14 in3.6 mm
06:14 PM 38.8°F3.8°C 24.0°F-4.4°C 55% 4.5 mph NW7.2 kmh NW 6.9 mph11.1 kmh 30.01 in1016.3 mb 0.00 in0.0 mm 0.00 in0.0 mm 0.14 in3.6 mm
06:15 PM 38.8°F3.8°C 24.5°F-4.2°C 56% 5.8 mph WNW9.3 kmh WNW 6.9 mph11.1 kmh 30.01 in1016.3 mb 0.00 in0.0 mm 0.00 in0.0 mm 0.14 in3.6 mm
06:16 PM 38.8°F3.8°C 24.5°F-4.2°C 56% 2.0 mph NW3.2 kmh NW 3.4 mph5.5 kmh 30.01 in1016.3 mb 0.00 in0.0 mm 0.00 in0.0 mm 0.14 in3.6 mm
06:17 PM 38.8°F3.8°C 24.9°F-3.9°C 57% 4.0 mph NW6.4 kmh NW 5.8 mph9.3 kmh 30.01 in1016.3 mb 0.00 in0.0 mm 0.00 in0.0 mm 0.14 in3.6 mm
06:18 PM 38.8°F3.8°C 24.5°F-4.2°C 56% 3.4 mph NW5.5 kmh NW 6.9 mph11.1 kmh 30.01 in1016.3 mb 0.00 in0.0 mm 0.00 in0.0 mm 0.14 in3.6 mm
06:19 PM 38.8°F3.8°C 24.5°F-4.2°C 56% 1.6 mph W2.6 kmh W 2.2 mph3.5 kmh 30.01 in1016.3 mb 0.00 in0.0 mm 0.00 in0.0 mm 0.14 in3.6 mm
06:20 PM 38.8°F3.8°C 24.5°F-4.2°C 56% 6.3 mph W10.1 kmh W 8.1 mph13.0 kmh 30.02 in1016.6 mb 0.00 in0.0 mm 0.00 in0.0 mm 0.14 in3.6 mm
06:21 PM 38.8°F3.8°C 24.0°F-4.4°C 55% 7.6 mph WNW12.2 kmh WNW 11.4 mph18.3 kmh 30.02 in1016.6 mb 0.00 in0.0 mm 0.00 in0.0 mm 0.14 in3.6 mm
06:22 PM 38.8°F3.8°C 24.0°F-4.4°C 55% 4.3 mph NW6.9 kmh NW 5.8 mph9.3 kmh 30.02 in1016.6 mb 0.00 in0.0 mm 0.00 in0.0 mm 0.14 in3.6 mm
06:23 PM 38.8°F3.8°C 24.0°F-4.4°C 55% 6.0 mph W9.7 kmh W 8.1 mph13.0 kmh 30.02 in1016.6 mb 0.00 in0.0 mm 0.00 in0.0 mm 0.14 in3.6 mm
06:24 PM 38.8°F3.8°C 24.0°F-4.4°C 55% 2.9 mph WNW4.7 kmh WNW 3.4 mph5.5 kmh 30.02 in1016.6 mb 0.00 in0.0 mm 0.00 in0.0 mm 0.14 in3.6 mm
06:25 PM 38.8°F3.8°C 24.5°F-4.2°C 56% 5.8 mph W9.3 kmh W 9.2 mph14.8 kmh 30.02 in1016.6 mb 0.00 in0.0 mm 0.00 in0.0 mm 0.14 in3.6 mm
06:26 PM 38.8°F3.8°C 24.0°F-4.4°C 55% 8.9 mph WNW14.3 kmh WNW 10.3 mph16.6 kmh 30.02 in1016.6 mb 0.00 in0.0 mm 0.00 in0.0 mm 0.14 in3.6 mm
06:27 PM 38.8°F3.8°C 24.0°F-4.4°C 55% 1.3 mph NW2.1 kmh NW 2.2 mph3.5 kmh 30.02 in1016.6 mb 0.00 in0.0 mm 0.00 in0.0 mm 0.14 in3.6 mm
06:28 PM 38.8°F3.8°C 24.0°F-4.4°C 55% 2.5 mph NNW4.0 kmh NNW 3.4 mph5.5 kmh 30.02 in1016.6 mb 0.00 in0.0 mm 0.00 in0.0 mm 0.14 in3.6 mm
06:29 PM 38.8°F3.8°C 24.0°F-4.4°C 55% 4.0 mph WNW6.4 kmh WNW 4.5 mph7.2 kmh 30.02 in1016.6 mb 0.00 in0.0 mm 0.00 in0.0 mm 0.14 in3.6 mm
06:31 PM 38.8°F3.8°C 24.0°F-4.4°C 55% 3.8 mph W6.1 kmh W 4.5 mph7.2 kmh 30.02 in1016.6 mb 0.00 in0.0 mm 0.00 in0.0 mm 0.14 in3.6 mm
06:32 PM 38.8°F3.8°C 24.0°F-4.4°C 55% 4.9 mph W7.9 kmh W 5.8 mph9.3 kmh 30.01 in1016.3 mb 0.00 in0.0 mm 0.00 in0.0 mm 0.14 in3.6 mm
06:33 PM 38.8°F3.8°C 24.0°F-4.4°C 55% 4.0 mph W6.4 kmh W 5.8 mph9.3 kmh 30.02 in1016.6 mb 0.00 in0.0 mm 0.00 in0.0 mm 0.14 in3.6 mm
06:34 PM 38.7°F3.7°C 23.5°F-4.7°C 54% 5.6 mph W9.0 kmh W 8.1 mph13.0 kmh 30.02 in1016.6 mb 0.00 in0.0 mm 0.00 in0.0 mm 0.14 in3.6 mm
06:35 PM 38.7°F3.7°C 23.5°F-4.7°C 54% 5.8 mph WNW9.3 kmh WNW 9.2 mph14.8 kmh 30.03 in1016.9 mb 0.00 in0.0 mm 0.00 in0.0 mm 0.14 in3.6 mm
06:36 PM 38.8°F3.8°C 24.0°F-4.4°C 55% 4.0 mph WNW6.4 kmh WNW 4.5 mph7.2 kmh 30.02 in1016.6 mb 0.00 in0.0 mm 0.00 in0.0 mm 0.14 in3.6 mm
06:37 PM 38.8°F3.8°C 23.6°F-4.7°C 54% 3.4 mph NW5.5 kmh NW 4.5 mph7.2 kmh 30.02 in1016.6 mb 0.00 in0.0 mm 0.00 in0.0 mm 0.14 in3.6 mm
06:39 PM 38.8°F3.8°C 23.6°F-4.7°C 54% 5.1 mph WNW8.2 kmh WNW 5.8 mph9.3 kmh 30.02 in1016.6 mb 0.00 in0.0 mm 0.00 in0.0 mm 0.14 in3.6 mm
06:40 PM 38.8°F3.8°C 23.2°F-4.9°C 53% 10.5 mph W16.9 kmh W 13.6 mph21.9 kmh 30.03 in1016.9 mb 0.00 in0.0 mm 0.00 in0.0 mm 0.14 in3.6 mm
06:41 PM 38.8°F3.8°C 23.2°F-4.9°C 53% 4.5 mph WNW7.2 kmh WNW 5.8 mph9.3 kmh 30.02 in1016.6 mb 0.00 in0.0 mm 0.00 in0.0 mm 0.14 in3.6 mm
06:43 PM 38.8°F3.8°C 22.7°F-5.2°C 52% 6.9 mph W11.1 kmh W 9.2 mph14.8 kmh 30.02 in1016.6 mb 0.00 in0.0 mm 0.00 in0.0 mm 0.14 in3.6 mm
06:44 PM 38.7°F3.7°C 22.6°F-5.2°C 52% 3.4 mph NW5.5 kmh NW 5.8 mph9.3 kmh 30.03 in1016.9 mb 0.00 in0.0 mm 0.00 in0.0 mm 0.14 in3.6 mm
06:45 PM 38.7°F3.7°C 22.6°F-5.2°C 52% 6.0 mph WSW9.7 kmh WSW 8.1 mph13.0 kmh 30.02 in1016.6 mb 0.00 in0.0 mm 0.00 in0.0 mm 0.14 in3.6 mm
06:46 PM 38.7°F3.7°C 22.6°F-5.2°C 52% 2.7 mph W4.3 kmh W 4.5 mph7.2 kmh 30.03 in1016.9 mb 0.00 in0.0 mm 0.00 in0.0 mm 0.14 in3.6 mm
06:47 PM 38.7°F3.7°C 23.1°F-4.9°C 53% 1.3 mph NE2.1 kmh NE 2.2 mph3.5 kmh 30.03 in1016.9 mb 0.00 in0.0 mm 0.00 in0.0 mm 0.14 in3.6 mm
06:48 PM 38.7°F3.7°C 23.1°F-4.9°C 53% 1.8 mph S2.9 kmh S 2.2 mph3.5 kmh 30.02 in1016.6 mb 0.00 in0.0 mm 0.00 in0.0 mm 0.14 in3.6 mm
06:49 PM 38.7°F3.7°C 23.1°F-4.9°C 53% 2.9 mph NW4.7 kmh NW 3.4 mph5.5 kmh 30.03 in1016.9 mb 0.00 in0.0 mm 0.00 in0.0 mm 0.14 in3.6 mm
06:50 PM 38.7°F3.7°C 23.1°F-4.9°C 53% Calm Calm -- 30.03 in1016.9 mb 0.00 in0.0 mm 0.00 in0.0 mm 0.14 in3.6 mm
06:51 PM 38.5°F3.6°C 22.9°F-5.1°C 53% 2.2 mph NW3.5 kmh NW 3.4 mph5.5 kmh 30.02 in1016.6 mb 0.00 in0.0 mm 0.00 in0.0 mm 0.14 in3.6 mm
06:52 PM 38.5°F3.6°C 22.9°F-5.1°C 53% 1.3 mph NW2.1 kmh NW 2.2 mph3.5 kmh 30.03 in1016.9 mb 0.00 in0.0 mm 0.00 in0.0 mm 0.14 in3.6 mm
06:53 PM 38.3°F3.5°C 22.7°F-5.2°C 53% 2.9 mph WNW4.7 kmh WNW 3.4 mph5.5 kmh 30.03 in1016.9 mb 0.00 in0.0 mm 0.00 in0.0 mm 0.14 in3.6 mm
06:54 PM 38.3°F3.5°C 22.7°F-5.2°C 53% 2.7 mph WNW4.3 kmh WNW 4.5 mph7.2 kmh 30.03 in1016.9 mb 0.00 in0.0 mm 0.00 in0.0 mm 0.14 in3.6 mm
06:55 PM 38.3°F3.5°C 22.2°F-5.4°C 52% 2.5 mph NE4.0 kmh NE 3.4 mph5.5 kmh 30.03 in1016.9 mb 0.00 in0.0 mm 0.00 in0.0 mm 0.14 in3.6 mm
06:56 PM 38.3°F3.5°C 22.2°F-5.4°C 52% 2.2 mph WNW3.5 kmh WNW 3.4 mph5.5 kmh 30.03 in1016.9 mb 0.00 in0.0 mm 0.00 in0.0 mm 0.14 in3.6 mm
06:57 PM 38.3°F3.5°C 22.2°F-5.4°C 52% 0.9 mph N1.4 kmh N 1.1 mph1.8 kmh 30.03 in1016.9 mb 0.00 in0.0 mm 0.00 in0.0 mm 0.14 in3.6 mm
06:58 PM 38.3°F3.5°C 22.2°F-5.4°C 52% 4.9 mph W7.9 kmh W 6.9 mph11.1 kmh 30.03 in1016.9 mb 0.00 in0.0 mm 0.00 in0.0 mm 0.14 in3.6 mm
06:59 PM 38.3°F3.5°C 21.8°F-5.7°C 51% 4.5 mph WNW7.2 kmh WNW 5.8 mph9.3 kmh 30.03 in1016.9 mb 0.00 in0.0 mm 0.00 in0.0 mm 0.14 in3.6 mm
07:00 PM 38.3°F3.5°C 21.3°F-5.9°C 50% 3.4 mph W5.5 kmh W 5.8 mph9.3 kmh 30.03 in1016.9 mb 0.00 in0.0 mm 0.00 in0.0 mm 0.14 in3.6 mm
07:01 PM 38.3°F3.5°C 21.8°F-5.7°C 51% 2.7 mph NW4.3 kmh NW 5.8 mph9.3 kmh 30.04 in1017.3 mb 0.00 in0.0 mm 0.00 in0.0 mm 0.14 in3.6 mm
07:02 PM 38.3°F3.5°C 20.8°F-6.2°C 49% 8.1 mph WNW13.0 kmh WNW 9.2 mph14.8 kmh 30.04 in1017.3 mb 0.00 in0.0 mm 0.00 in0.0 mm 0.14 in3.6 mm
07:03 PM 38.5°F3.6°C 20.5°F-6.4°C 48% 1.3 mph NW2.1 kmh NW 2.2 mph3.5 kmh 30.03 in1016.9 mb 0.00 in0.0 mm 0.00 in0.0 mm 0.14 in3.6 mm
07:04 PM 38.5°F3.6°C 20.5°F-6.4°C 48% 7.4 mph W11.9 kmh W 9.2 mph14.8 kmh 30.04 in1017.3 mb 0.00 in0.0 mm 0.00 in0.0 mm 0.14 in3.6 mm
07:05 PM 38.5°F3.6°C 21.0°F-6.1°C 49% 5.1 mph WNW8.2 kmh WNW 6.9 mph11.1 kmh 30.04 in1017.3 mb 0.00 in0.0 mm 0.00 in0.0 mm 0.14 in3.6 mm
07:07 PM 38.5°F3.6°C 21.0°F-6.1°C 49% 2.5 mph W4.0 kmh W 4.5 mph7.2 kmh 30.03 in1016.9 mb 0.00 in0.0 mm 0.00 in0.0 mm 0.14 in3.6 mm
07:08 PM 38.5°F3.6°C 20.5°F-6.4°C 48% 1.3 mph WNW2.1 kmh WNW 2.2 mph3.5 kmh 30.04 in1017.3 mb 0.00 in0.0 mm 0.00 in0.0 mm 0.14 in3.6 mm
07:09 PM 38.5°F3.6°C 20.5°F-6.4°C 48% 4.7 mph WSW7.6 kmh WSW 6.9 mph11.1 kmh 30.03 in1016.9 mb 0.00 in0.0 mm 0.00 in0.0 mm 0.14 in3.6 mm
07:10 PM 38.5°F3.6°C 20.5°F-6.4°C 48% 2.7 mph WNW4.3 kmh WNW 3.4 mph5.5 kmh 30.05 in1017.6 mb 0.00 in0.0 mm 0.00 in0.0 mm 0.14 in3.6 mm
07:11 PM 38.5°F3.6°C 21.0°F-6.1°C 49% 2.5 mph NW4.0 kmh NW 4.5 mph7.2 kmh 30.05 in1017.6 mb 0.00 in0.0 mm 0.00 in0.0 mm 0.14 in3.6 mm
07:12 PM 38.5°F3.6°C 21.0°F-6.1°C 49% 2.9 mph NW4.7 kmh NW 3.4 mph5.5 kmh 30.05 in1017.6 mb 0.00 in0.0 mm 0.00 in0.0 mm 0.14 in3.6 mm
07:13 PM 38.3°F3.5°C 20.8°F-6.2°C 49% 1.6 mph SSW2.6 kmh SSW 2.2 mph3.5 kmh 30.04 in1017.3 mb 0.00 in0.0 mm 0.00 in0.0 mm 0.14 in3.6 mm
07:14 PM 38.3°F3.5°C 20.8°F-6.2°C 49% 3.1 mph NW5.0 kmh NW 3.4 mph5.5 kmh 30.05 in1017.6 mb 0.00 in0.0 mm 0.00 in0.0 mm 0.14 in3.6 mm
07:15 PM 38.3°F3.5°C 20.8°F-6.2°C 49% 2.5 mph WNW4.0 kmh WNW 3.4 mph5.5 kmh 30.05 in1017.6 mb 0.00 in0.0 mm 0.00 in0.0 mm 0.14 in3.6 mm
07:16 PM 38.3°F3.5°C 20.4°F-6.4°C 48% 3.4 mph NNW5.5 kmh NNW 4.5 mph7.2 kmh 30.05 in1017.6 mb 0.00 in0.0 mm 0.00 in0.0 mm 0.14 in3.6 mm
07:17 PM 38.1°F3.4°C 20.2°F-6.6°C 48% 6.0 mph NW9.7 kmh NW 8.1 mph13.0 kmh 30.05 in1017.6 mb 0.00 in0.0 mm 0.00 in0.0 mm 0.14 in3.6 mm
07:18 PM 38.1°F3.4°C 20.2°F-6.6°C 48% 4.5 mph NW7.2 kmh NW 5.8 mph9.3 kmh 30.05 in1017.6 mb 0.00 in0.0 mm 0.00 in0.0 mm 0.14 in3.6 mm
07:19 PM 38.1°F3.4°C 20.2°F-6.6°C 48% 4.7 mph WSW7.6 kmh WSW 6.9 mph11.1 kmh 30.05 in1017.6 mb 0.00 in0.0 mm 0.00 in0.0 mm 0.14 in3.6 mm
07:20 PM 38.1°F3.4°C 19.7°F-6.8°C 47% 4.3 mph NW6.9 kmh NW 4.5 mph7.2 kmh 30.05 in1017.6 mb 0.00 in0.0 mm 0.00 in0.0 mm 0.14 in3.6 mm
07:21 PM 38.1°F3.4°C 19.7°F-6.8°C 47% 3.1 mph WSW5.0 kmh WSW 4.5 mph7.2 kmh 30.05 in1017.6 mb 0.00 in0.0 mm 0.00 in0.0 mm 0.14 in3.6 mm
07:22 PM 38.1°F3.4°C 19.7°F-6.8°C 47% 3.4 mph SSE5.5 kmh SSE 4.5 mph7.2 kmh 30.05 in1017.6 mb 0.00 in0.0 mm 0.00 in0.0 mm 0.14 in3.6 mm
07:23 PM 38.1°F3.4°C 20.2°F-6.6°C 48% 5.1 mph NW8.2 kmh NW 6.9 mph11.1 kmh 30.05 in1017.6 mb 0.00 in0.0 mm 0.00 in0.0 mm 0.14 in3.6 mm
07:24 PM 38.1°F3.4°C 20.2°F-6.6°C 48% 2.2 mph NW3.5 kmh NW 3.4 mph5.5 kmh 30.05 in1017.6 mb 0.00 in0.0 mm 0.00 in0.0 mm 0.14 in3.6 mm
07:25 PM 37.9°F3.3°C 20.0°F-6.7°C 48% 4.9 mph NW7.9 kmh NW 6.9 mph11.1 kmh 30.05 in1017.6 mb 0.00 in0.0 mm 0.00 in0.0 mm 0.14 in3.6 mm
07:26 PM 37.9°F3.3°C 20.0°F-6.7°C 48% 5.1 mph NW8.2 kmh NW 5.8 mph9.3 kmh 30.05 in1017.6 mb 0.00 in0.0 mm 0.00 in0.0 mm 0.14 in3.6 mm
07:27 PM 37.9°F3.3°C 20.0°F-6.7°C 48% 2.2 mph W3.5 kmh W 3.4 mph5.5 kmh 30.05 in1017.6 mb 0.00 in0.0 mm 0.00 in0.0 mm 0.14 in3.6 mm
07:28 PM 37.9°F3.3°C 20.0°F-6.7°C 48% 0.9 mph NW1.4 kmh NW 2.2 mph3.5 kmh 30.05 in1017.6 mb 0.00 in0.0 mm 0.00 in0.0 mm 0.14 in3.6 mm
07:29 PM 37.9°F3.3°C 20.5°F-6.4°C 49% 1.8 mph NW2.9 kmh NW 3.4 mph5.5 kmh 30.05 in1017.6 mb 0.00 in0.0 mm 0.00 in0.0 mm 0.14 in3.6 mm
07:31 PM 37.8°F3.2°C 20.4°F-6.4°C 49% 1.8 mph NW2.9 kmh NW 2.2 mph3.5 kmh 30.05 in1017.6 mb 0.00 in0.0 mm 0.00 in0.0 mm 0.14 in3.6 mm
07:32 PM 37.8°F3.2°C 20.4°F-6.4°C 49% 6.0 mph NW9.7 kmh NW 8.1 mph13.0 kmh 30.05 in1017.6 mb 0.00 in0.0 mm 0.00 in0.0 mm 0.14 in3.6 mm
07:33 PM 37.8°F3.2°C 20.4°F-6.4°C 49% 2.9 mph WNW4.7 kmh WNW 4.5 mph7.2 kmh 30.05 in1017.6 mb 0.00 in0.0 mm 0.00 in0.0 mm 0.14 in3.6 mm
07:34 PM 37.8°F3.2°C 20.4°F-6.4°C 49% 3.6 mph W5.8 kmh W 5.8 mph9.3 kmh 30.06 in1017.9 mb 0.00 in0.0 mm 0.00 in0.0 mm 0.14 in3.6 mm
07:35 PM 37.8°F3.2°C 20.4°F-6.4°C 49% 2.9 mph ENE4.7 kmh ENE 4.5 mph7.2 kmh 30.06 in1017.9 mb 0.00 in0.0 mm 0.00 in0.0 mm 0.14 in3.6 mm
07:36 PM 37.8°F3.2°C 20.4°F-6.4°C 49% 1.6 mph NW2.6 kmh NW 2.2 mph3.5 kmh 30.06 in1017.9 mb 0.00 in0.0 mm 0.00 in0.0 mm 0.14 in3.6 mm
07:37 PM 37.8°F3.2°C 20.8°F-6.2°C 50% 2.7 mph 4.3 kmh 3.4 mph5.5 kmh 30.06 in1017.9 mb 0.00 in0.0 mm 0.00 in0.0 mm 0.14 in3.6 mm
07:39 PM 37.8°F3.2°C 20.4°F-6.4°C 49% 4.5 mph NW7.2 kmh NW 6.9 mph11.1 kmh 30.06 in1017.9 mb 0.00 in0.0 mm 0.00 in0.0 mm 0.14 in3.6 mm
07:40 PM 37.8°F3.2°C 19.9°F-6.7°C 48% 3.4 mph SE5.5 kmh SE 4.5 mph7.2 kmh 30.06 in1017.9 mb 0.00 in0.0 mm 0.00 in0.0 mm 0.14 in3.6 mm
07:41 PM 37.8°F3.2°C 20.8°F-6.2°C 50% 1.1 mph NW1.8 kmh NW 2.2 mph3.5 kmh 30.06 in1017.9 mb 0.00 in0.0 mm 0.00 in0.0 mm 0.14 in3.6 mm
07:42 PM 37.8°F3.2°C 20.8°F-6.2°C 50% 2.5 mph WNW4.0 kmh WNW 3.4 mph5.5 kmh 30.06 in1017.9 mb 0.00 in0.0 mm 0.00 in0.0 mm 0.14 in3.6 mm
07:43 PM 37.8°F3.2°C 20.8°F-6.2°C 50% 1.3 mph NW2.1 kmh NW 2.2 mph3.5 kmh 30.06 in1017.9 mb 0.00 in0.0 mm 0.00 in0.0 mm 0.14 in3.6 mm
07:44 PM 37.8°F3.2°C 20.8°F-6.2°C 50% Calm Calm -- 30.06 in1017.9 mb 0.00 in0.0 mm 0.00 in0.0 mm 0.14 in3.6 mm
07:45 PM 37.8°F3.2°C 20.8°F-6.2°C 50% 1.3 mph NNW2.1 kmh NNW 2.2 mph3.5 kmh 30.07 in1018.3 mb 0.00 in0.0 mm 0.00 in0.0 mm 0.14 in3.6 mm
07:46 PM 37.8°F3.2°C 20.4°F-6.4°C 49% 2.7 mph WNW4.3 kmh WNW 3.4 mph5.5 kmh 30.06 in1017.9 mb 0.00 in0.0 mm 0.00 in0.0 mm 0.14 in3.6 mm
07:47 PM 37.8°F3.2°C 20.8°F-6.2°C 50% 3.6 mph NNW5.8 kmh NNW 5.8 mph9.3 kmh 30.06 in1017.9 mb 0.00 in0.0 mm 0.00 in0.0 mm 0.14 in3.6 mm
07:48 PM 37.8°F3.2°C 20.4°F-6.4°C 49% 4.3 mph W6.9 kmh W 4.5 mph7.2 kmh 30.06 in1017.9 mb 0.00 in0.0 mm 0.00 in0.0 mm 0.14 in3.6 mm
07:49 PM 37.8°F3.2°C 20.8°F-6.2°C 50% 2.5 mph NW4.0 kmh NW 3.4 mph5.5 kmh 30.06 in1017.9 mb 0.00 in0.0 mm 0.00 in0.0 mm 0.14 in3.6 mm
07:50 PM 37.8°F3.2°C 20.8°F-6.2°C 50% 1.8 mph NW2.9 kmh NW 2.2 mph3.5 kmh 30.07 in1018.3 mb 0.00 in0.0 mm 0.00 in0.0 mm 0.14 in3.6 mm
07:51 PM 37.8°F3.2°C 20.8°F-6.2°C 50% 2.2 mph E3.5 kmh E 3.4 mph5.5 kmh 30.06 in1017.9 mb 0.00 in0.0 mm 0.00 in0.0 mm 0.14 in3.6 mm
07:52 PM 37.8°F3.2°C 20.8°F-6.2°C 50% 2.2 mph S3.5 kmh S 5.8 mph9.3 kmh 30.06 in1017.9 mb 0.00 in0.0 mm 0.00 in0.0 mm 0.14 in3.6 mm
07:53 PM 37.8°F3.2°C 20.8°F-6.2°C 50% 2.2 mph E3.5 kmh E 3.4 mph5.5 kmh 30.06 in1017.9 mb 0.00 in0.0 mm 0.00 in0.0 mm 0.14 in3.6 mm
07:54 PM 37.8°F3.2°C 21.3°F-5.9°C 51% 1.8 mph W2.9 kmh W 3.4 mph5.5 kmh 30.07 in1018.3 mb 0.00 in0.0 mm 0.00 in0.0 mm 0.14 in3.6 mm
07:55 PM 37.8°F3.2°C 20.8°F-6.2°C 50% 3.1 mph NW5.0 kmh NW 3.4 mph5.5 kmh 30.06 in1017.9 mb 0.00 in0.0 mm 0.00 in0.0 mm 0.14 in3.6 mm
07:56 PM 37.8°F3.2°C 21.3°F-5.9°C 51% 2.5 mph NW4.0 kmh NW 3.4 mph5.5 kmh 30.07 in1018.3 mb 0.00 in0.0 mm 0.00 in0.0 mm 0.14 in3.6 mm
07:57 PM 37.8°F3.2°C 21.8°F-5.7°C 52% 1.1 mph NW1.8 kmh NW 2.2 mph3.5 kmh 30.07 in1018.3 mb 0.00 in0.0 mm 0.00 in0.0 mm 0.14 in3.6 mm
07:58 PM 37.8°F3.2°C 20.8°F-6.2°C 50% 6.0 mph NW9.7 kmh NW 8.1 mph13.0 kmh 30.06 in1017.9 mb 0.00 in0.0 mm 0.00 in0.0 mm 0.14 in3.6 mm
07:59 PM 37.8°F3.2°C 21.3°F-5.9°C 51% 9.2 mph WNW14.8 kmh WNW 11.4 mph18.3 kmh 30.07 in1018.3 mb 0.00 in0.0 mm 0.00 in0.0 mm 0.14 in3.6 mm
08:00 PM 37.8°F3.2°C 20.8°F-6.2°C 50% 6.3 mph W10.1 kmh W 8.1 mph13.0 kmh 30.06 in1017.9 mb 0.00 in0.0 mm 0.00 in0.0 mm 0.14 in3.6 mm
08:01 PM 37.8°F3.2°C 21.8°F-5.7°C 52% 1.3 mph N2.1 kmh N 2.2 mph3.5 kmh 30.06 in1017.9 mb 0.00 in0.0 mm 0.00 in0.0 mm 0.14 in3.6 mm
08:02 PM 37.8°F3.2°C 21.3°F-5.9°C 51% 2.5 mph NW4.0 kmh NW 3.4 mph5.5 kmh 30.06 in1017.9 mb 0.00 in0.0 mm 0.00 in0.0 mm 0.14 in3.6 mm
08:03 PM 37.6°F3.1°C 21.1°F-6.1°C 51% 4.0 mph WNW6.4 kmh WNW 5.8 mph9.3 kmh 30.07 in1018.3 mb 0.00 in0.0 mm 0.00 in0.0 mm 0.14 in3.6 mm
08:04 PM 37.6°F3.1°C 21.1°F-6.1°C 51% 2.2 mph W3.5 kmh W 3.4 mph5.5 kmh 30.06 in1017.9 mb 0.00 in0.0 mm 0.00 in0.0 mm 0.14 in3.6 mm
08:05 PM 37.6°F3.1°C 21.6°F-5.8°C 52% 2.0 mph SSW3.2 kmh SSW 2.2 mph3.5 kmh 30.06 in1017.9 mb 0.00 in0.0 mm 0.00 in0.0 mm 0.14 in3.6 mm
08:06 PM 37.6°F3.1°C 21.6°F-5.8°C 52% 1.1 mph WNW1.8 kmh WNW 2.2 mph3.5 kmh 30.06 in1017.9 mb 0.00 in0.0 mm 0.00 in0.0 mm 0.14 in3.6 mm
08:07 PM 37.6°F3.1°C 21.6°F-5.8°C 52% 1.8 mph NW2.9 kmh NW 2.2 mph3.5 kmh 30.06 in1017.9 mb 0.00 in0.0 mm 0.00 in0.0 mm 0.14 in3.6 mm
08:08 PM 37.4°F3.0°C 21.4°F-5.9°C 52% 1.6 mph NW2.6 kmh NW 2.2 mph3.5 kmh 30.07 in1018.3 mb 0.00 in0.0 mm 0.00 in0.0 mm 0.14 in3.6 mm
08:09 PM 37.6°F3.1°C 21.6°F-5.8°C 52% 0.9 mph NW1.4 kmh NW 1.1 mph1.8 kmh 30.07 in1018.3 mb 0.00 in0.0 mm 0.00 in0.0 mm 0.14 in3.6 mm
08:10 PM 37.4°F3.0°C 21.4°F-5.9°C 52% 2.7 mph WNW4.3 kmh WNW 3.4 mph5.5 kmh 30.07 in1018.3 mb 0.00 in0.0 mm 0.00 in0.0 mm 0.14 in3.6 mm
08:11 PM 37.4°F3.0°C 21.4°F-5.9°C 52% 3.8 mph WNW6.1 kmh WNW 5.8 mph9.3 kmh 30.06 in1017.9 mb 0.00 in0.0 mm 0.00 in0.0 mm 0.14 in3.6 mm
08:12 PM 37.4°F3.0°C 21.9°F-5.6°C 53% 4.3 mph NW6.9 kmh NW 5.8 mph9.3 kmh 30.07 in1018.3 mb 0.00 in0.0 mm 0.00 in0.0 mm 0.14 in3.6 mm
08:13 PM 37.4°F3.0°C 21.9°F-5.6°C 53% 0.2 mph NW0.3 kmh NW 1.1 mph1.8 kmh 30.07 in1018.3 mb 0.00 in0.0 mm 0.00 in0.0 mm 0.14 in3.6 mm
08:14 PM 37.4°F3.0°C 21.9°F-5.6°C 53% 2.5 mph WNW4.0 kmh WNW 3.4 mph5.5 kmh 30.06 in1017.9 mb 0.00 in0.0 mm 0.00 in0.0 mm 0.14 in3.6 mm
08:15 PM 37.4°F3.0°C 22.3°F-5.4°C 54% Calm Calm -- 30.07 in1018.3 mb 0.00 in0.0 mm 0.00 in0.0 mm 0.14 in3.6 mm
08:16 PM 37.4°F3.0°C 22.3°F-5.4°C 54% 0.9 mph NW1.4 kmh NW 1.1 mph1.8 kmh 30.06 in1017.9 mb 0.00 in0.0 mm 0.00 in0.0 mm 0.14 in3.6 mm
08:17 PM 37.4°F3.0°C 22.3°F-5.4°C 54% 4.5 mph WNW7.2 kmh WNW 5.8 mph9.3 kmh 30.06 in1017.9 mb 0.00 in0.0 mm 0.00 in0.0 mm 0.14 in3.6 mm
08:18 PM 37.4°F3.0°C 22.3°F-5.4°C 54% 2.2 mph NW3.5 kmh NW 2.2 mph3.5 kmh 30.07 in1018.3 mb 0.00 in0.0 mm 0.00 in0.0 mm 0.14 in3.6 mm
08:19 PM 37.2°F2.9°C 22.5°F-5.3°C 55% Calm Calm -- 30.06 in1017.9 mb 0.00 in0.0 mm 0.00 in0.0 mm 0.14 in3.6 mm
08:20 PM 37.2°F2.9°C 22.1°F-5.5°C 54% 1.3 mph NW2.1 kmh NW 2.2 mph3.5 kmh 30.06 in1017.9 mb 0.00 in0.0 mm 0.00 in0.0 mm 0.14 in3.6 mm
08:21 PM 37.0°F2.8°C 22.4°F-5.3°C 55% 1.6 mph NW2.6 kmh NW 2.2 mph3.5 kmh 30.07 in1018.3 mb 0.00 in0.0 mm 0.00 in0.0 mm 0.14 in3.6 mm
08:22 PM 37.0°F2.8°C 22.4°F-5.3°C 55% 1.1 mph NW1.8 kmh NW 2.2 mph3.5 kmh 30.06 in1017.9 mb 0.00 in0.0 mm 0.00 in0.0 mm 0.14 in3.6 mm
08:23 PM 37.0°F2.8°C 22.4°F-5.3°C 55% 2.5 mph WNW4.0 kmh WNW 4.5 mph7.2 kmh 30.07 in1018.3 mb 0.00 in0.0 mm 0.00 in0.0 mm 0.14 in3.6 mm
08:24 PM 37.0°F2.8°C 21.9°F-5.6°C 54% 2.2 mph WNW3.5 kmh WNW 3.4 mph5.5 kmh 30.06 in1017.9 mb 0.00 in0.0 mm 0.00 in0.0 mm 0.14 in3.6 mm
08:25 PM 37.0°F2.8°C 21.9°F-5.6°C 54% 7.6 mph NW12.2 kmh NW 10.3 mph16.6 kmh 30.06 in1017.9 mb 0.00 in0.0 mm 0.00 in0.0 mm 0.14 in3.6 mm
08:26 PM 36.9°F2.7°C 22.3°F-5.4°C 55% 1.3 mph NNE2.1 kmh NNE 2.2 mph3.5 kmh 30.06 in1017.9 mb 0.00 in0.0 mm 0.00 in0.0 mm 0.14 in3.6 mm
08:27 PM 36.9°F2.7°C 21.8°F-5.7°C 54% 2.2 mph NW3.5 kmh NW 4.5 mph7.2 kmh 30.06 in1017.9 mb 0.00 in0.0 mm 0.00 in0.0 mm 0.14 in3.6 mm
08:28 PM 36.9°F2.7°C 21.8°F-5.7°C 54% 0.7 mph NNW1.1 kmh NNW 1.1 mph1.8 kmh 30.06 in1017.9 mb 0.00 in0.0 mm 0.00 in0.0 mm 0.14 in3.6 mm
08:29 PM 36.9°F2.7°C 21.8°F-5.7°C 54% 4.5 mph W7.2 kmh W 5.8 mph9.3 kmh 30.07 in1018.3 mb 0.00 in0.0 mm 0.00 in0.0 mm 0.14 in3.6 mm
08:30 PM 36.9°F2.7°C 21.8°F-5.7°C 54% 3.4 mph N5.5 kmh N 4.5 mph7.2 kmh 30.06 in1017.9 mb 0.00 in0.0 mm 0.00 in0.0 mm 0.14 in3.6 mm
08:31 PM 36.9°F2.7°C 21.8°F-5.7°C 54% 2.0 mph NW3.2 kmh NW 3.4 mph5.5 kmh 30.06 in1017.9 mb 0.00 in0.0 mm 0.00 in0.0 mm 0.14 in3.6 mm
08:32 PM 36.7°F2.6°C 22.1°F-5.5°C 55% 1.6 mph NW2.6 kmh NW 3.4 mph5.5 kmh 30.07 in1018.3 mb 0.00 in0.0 mm 0.00 in0.0 mm 0.14 in3.6 mm
08:33 PM 36.7°F2.6°C 21.6°F-5.8°C 54% 1.8 mph N2.9 kmh N 2.2 mph3.5 kmh 30.07 in1018.3 mb 0.00 in0.0 mm 0.00 in0.0 mm 0.14 in3.6 mm
08:34 PM 36.7°F2.6°C 22.1°F-5.5°C 55% 1.1 mph NW1.8 kmh NW 1.1 mph1.8 kmh 30.06 in1017.9 mb 0.00 in0.0 mm 0.00 in0.0 mm 0.14 in3.6 mm
08:35 PM 36.5°F2.5°C 21.9°F-5.6°C 55% 1.8 mph NW2.9 kmh NW 3.4 mph5.5 kmh 30.07 in1018.3 mb 0.00 in0.0 mm 0.00 in0.0 mm 0.14 in3.6 mm
08:36 PM 36.5°F2.5°C 21.9°F-5.6°C 55% 1.8 mph NW2.9 kmh NW 2.2 mph3.5 kmh 30.06 in1017.9 mb 0.00 in0.0 mm 0.00 in0.0 mm 0.14 in3.6 mm
08:37 PM 36.5°F2.5°C 21.5°F-5.8°C 54% 2.2 mph WNW3.5 kmh WNW 2.2 mph3.5 kmh 30.06 in1017.9 mb 0.00 in0.0 mm 0.00 in0.0 mm 0.14 in3.6 mm
08:38 PM 36.3°F2.4°C 21.3°F-5.9°C 54% 0.9 mph WNW1.4 kmh WNW 1.1 mph1.8 kmh 30.06 in1017.9 mb 0.00 in0.0 mm 0.00 in0.0 mm 0.14 in3.6 mm
08:39 PM 36.3°F2.4°C 21.7°F-5.7°C 55% 2.5 mph WNW4.0 kmh WNW 4.5 mph7.2 kmh 30.06 in1017.9 mb 0.00 in0.0 mm 0.00 in0.0 mm 0.14 in3.6 mm
08:40 PM 36.3°F2.4°C 21.3°F-5.9°C 54% 6.0 mph W9.7 kmh W 8.1 mph13.0 kmh 30.06 in1017.9 mb 0.00 in0.0 mm 0.00 in0.0 mm 0.14 in3.6 mm
08:41 PM 36.3°F2.4°C 21.7°F-5.7°C 55% 2.5 mph NW4.0 kmh NW 3.4 mph5.5 kmh 30.07 in1018.3 mb 0.00 in0.0 mm 0.00 in0.0 mm 0.14 in3.6 mm
08:42 PM 36.3°F2.4°C 21.3°F-5.9°C 54% 6.7 mph WSW10.8 kmh WSW 10.3 mph16.6 kmh 30.07 in1018.3 mb 0.00 in0.0 mm 0.00 in0.0 mm 0.14 in3.6 mm
08:43 PM 36.5°F2.5°C 21.5°F-5.8°C 54% 2.2 mph WNW3.5 kmh WNW 3.4 mph5.5 kmh 30.06 in1017.9 mb 0.00 in0.0 mm 0.00 in0.0 mm 0.14 in3.6 mm
08:44 PM 36.5°F2.5°C 21.9°F-5.6°C 55% 6.0 mph W9.7 kmh W 9.2 mph14.8 kmh 30.06 in1017.9 mb 0.00 in0.0 mm 0.00 in0.0 mm 0.14 in3.6 mm
08:45 PM 36.5°F2.5°C 21.9°F-5.6°C 55% 2.2 mph NNE3.5 kmh NNE 3.4 mph5.5 kmh 30.06 in1017.9 mb 0.00 in0.0 mm 0.00 in0.0 mm 0.14 in3.6 mm
08:46 PM 36.5°F2.5°C 21.9°F-5.6°C 55% 0.9 mph SW1.4 kmh SW 3.4 mph5.5 kmh 30.07 in1018.3 mb 0.00 in0.0 mm 0.00 in0.0 mm 0.14 in3.6 mm
08:47 PM 36.5°F2.5°C 21.9°F-5.6°C 55% 0.7 mph N1.1 kmh N 1.1 mph1.8 kmh 30.07 in1018.3 mb 0.00 in0.0 mm 0.00 in0.0 mm 0.14 in3.6 mm
08:48 PM 36.5°F2.5°C 21.9°F-5.6°C 55% 1.3 mph NW2.1 kmh NW 2.2 mph3.5 kmh 30.06 in1017.9 mb 0.00 in0.0 mm 0.00 in0.0 mm 0.14 in3.6 mm
08:49 PM 36.5°F2.5°C 22.3°F-5.4°C 56% Calm Calm -- 30.06 in1017.9 mb 0.00 in0.0 mm 0.00 in0.0 mm 0.14 in3.6 mm
08:50 PM 36.3°F2.4°C 21.7°F-5.7°C 55% 1.3 mph N2.1 kmh N 2.2 mph3.5 kmh 30.07 in1018.3 mb 0.00 in0.0 mm 0.00 in0.0 mm 0.14 in3.6 mm
08:51 PM 36.3°F2.4°C 21.7°F-5.7°C 55% 3.1 mph WNW5.0 kmh WNW 4.5 mph7.2 kmh 30.08 in1018.6 mb 0.00 in0.0 mm 0.00 in0.0 mm 0.14 in3.6 mm
08:52 PM 36.3°F2.4°C 21.7°F-5.7°C 55% 2.5 mph NW4.0 kmh NW 4.5 mph7.2 kmh 30.07 in1018.3 mb 0.00 in0.0 mm 0.00 in0.0 mm 0.14 in3.6 mm
08:53 PM 36.3°F2.4°C 22.1°F-5.5°C 56% 1.1 mph N1.8 kmh N 1.1 mph1.8 kmh 30.08 in1018.6 mb 0.00 in0.0 mm 0.00 in0.0 mm 0.14 in3.6 mm
08:54 PM 36.3°F2.4°C 21.7°F-5.7°C 55% 6.9 mph WNW11.1 kmh WNW 8.1 mph13.0 kmh 30.07 in1018.3 mb 0.00 in0.0 mm 0.00 in0.0 mm 0.14 in3.6 mm
08:55 PM 36.3°F2.4°C 21.7°F-5.7°C 55% 2.7 mph W4.3 kmh W 4.5 mph7.2 kmh 30.08 in1018.6 mb 0.00 in0.0 mm 0.00 in0.0 mm 0.14 in3.6 mm
08:56 PM 36.3°F2.4°C 21.7°F-5.7°C 55% 0.9 mph NW1.4 kmh NW 2.2 mph3.5 kmh 30.08 in1018.6 mb 0.00 in0.0 mm 0.00 in0.0 mm 0.14 in3.6 mm
08:57 PM 36.3°F2.4°C 21.7°F-5.7°C 55% 0.7 mph NW1.1 kmh NW 1.1 mph1.8 kmh 30.08 in1018.6 mb 0.00 in0.0 mm 0.00 in0.0 mm 0.14 in3.6 mm
08:58 PM 36.3°F2.4°C 21.7°F-5.7°C 55% 2.2 mph WNW3.5 kmh WNW 3.4 mph5.5 kmh 30.08 in1018.6 mb 0.00 in0.0 mm 0.00 in0.0 mm 0.14 in3.6 mm
08:59 PM 36.3°F2.4°C 21.7°F-5.7°C 55% 5.4 mph WNW8.7 kmh WNW 8.1 mph13.0 kmh 30.07 in1018.3 mb 0.00 in0.0 mm 0.00 in0.0 mm 0.14 in3.6 mm
09:00 PM 36.3°F2.4°C 21.7°F-5.7°C 55% 1.8 mph NW2.9 kmh NW 2.2 mph3.5 kmh 30.08 in1018.6 mb 0.00 in0.0 mm 0.00 in0.0 mm 0.14 in3.6 mm
09:01 PM 36.1°F2.3°C 21.5°F-5.8°C 55% 4.0 mph WNW6.4 kmh WNW 5.8 mph9.3 kmh 30.08 in1018.6 mb 0.00 in0.0 mm 0.00 in0.0 mm 0.14 in3.6 mm
09:02 PM 36.1°F2.3°C 21.5°F-5.8°C 55% 2.9 mph NW4.7 kmh NW 4.5 mph7.2 kmh 30.08 in1018.6 mb 0.00 in0.0 mm 0.00 in0.0 mm 0.14 in3.6 mm
09:03 PM 36.1°F2.3°C 21.5°F-5.8°C 55% 3.8 mph WNW6.1 kmh WNW 4.5 mph7.2 kmh 30.08 in1018.6 mb 0.00 in0.0 mm 0.00 in0.0 mm 0.14 in3.6 mm
09:04 PM 36.1°F2.3°C 21.5°F-5.8°C 55% 2.2 mph ESE3.5 kmh ESE 3.4 mph5.5 kmh 30.07 in1018.3 mb 0.00 in0.0 mm 0.00 in0.0 mm 0.14 in3.6 mm
09:05 PM 36.1°F2.3°C 21.9°F-5.6°C 56% 2.9 mph NW4.7 kmh NW 4.5 mph7.2 kmh 30.08 in1018.6 mb 0.00 in0.0 mm 0.00 in0.0 mm 0.14 in3.6 mm
09:06 PM 36.1°F2.3°C 21.9°F-5.6°C 56% 3.6 mph W5.8 kmh W 6.9 mph11.1 kmh 30.08 in1018.6 mb 0.00 in0.0 mm 0.00 in0.0 mm 0.14 in3.6 mm
09:07 PM 36.0°F2.2°C 21.8°F-5.7°C 56% 5.6 mph WNW9.0 kmh WNW 6.9 mph11.1 kmh 30.07 in1018.3 mb 0.00 in0.0 mm 0.00 in0.0 mm 0.14 in3.6 mm
09:08 PM 36.0°F2.2°C 21.8°F-5.7°C 56% 7.4 mph NW11.9 kmh NW 9.2 mph14.8 kmh 30.08 in1018.6 mb 0.00 in0.0 mm 0.00 in0.0 mm 0.14 in3.6 mm
09:09 PM 36.0°F2.2°C 21.8°F-5.7°C 56% 3.8 mph NW6.1 kmh NW 6.9 mph11.1 kmh 30.08 in1018.6 mb 0.00 in0.0 mm 0.00 in0.0 mm 0.14 in3.6 mm
09:11 PM 35.8°F2.1°C 21.7°F-5.7°C 56% 2.5 mph WNW4.0 kmh WNW 4.5 mph7.2 kmh 30.08 in1018.6 mb 0.00 in0.0 mm 0.00 in0.0 mm 0.14 in3.6 mm
09:12 PM 35.8°F2.1°C 21.7°F-5.7°C 56% 0.9 mph N1.4 kmh N 1.1 mph1.8 kmh 30.08 in1018.6 mb 0.00 in0.0 mm 0.00 in0.0 mm 0.14 in3.6 mm
09:13 PM 35.8°F2.1°C 21.2°F-6.0°C 55% 2.2 mph WSW3.5 kmh WSW 2.2 mph3.5 kmh 30.07 in1018.3 mb 0.00 in0.0 mm 0.00 in0.0 mm 0.14 in3.6 mm
09:14 PM 35.8°F2.1°C 21.7°F-5.7°C 56% 2.9 mph NW4.7 kmh NW 3.4 mph5.5 kmh 30.07 in1018.3 mb 0.00 in0.0 mm 0.00 in0.0 mm 0.14 in3.6 mm
09:15 PM 35.8°F2.1°C 21.2°F-6.0°C 55% 1.6 mph NW2.6 kmh NW 2.2 mph3.5 kmh 30.08 in1018.6 mb 0.00 in0.0 mm 0.00 in0.0 mm 0.14 in3.6 mm
09:16 PM 35.6°F2.0°C 21.0°F-6.1°C 55% 2.5 mph WNW4.0 kmh WNW 3.4 mph5.5 kmh 30.08 in1018.6 mb 0.00 in0.0 mm 0.00 in0.0 mm 0.14 in3.6 mm
09:17 PM 35.6°F2.0°C 21.0°F-6.1°C 55% 3.4 mph NW5.5 kmh NW 4.5 mph7.2 kmh 30.08 in1018.6 mb 0.00 in0.0 mm 0.00 in0.0 mm 0.14 in3.6 mm
09:18 PM 35.6°F2.0°C 21.5°F-5.8°C 56% 0.9 mph N1.4 kmh N 1.1 mph1.8 kmh 30.07 in1018.3 mb 0.00 in0.0 mm 0.00 in0.0 mm 0.14 in3.6 mm
09:19 PM 35.6°F2.0°C 21.0°F-6.1°C 55% 1.8 mph NW2.9 kmh NW 2.2 mph3.5 kmh 30.08 in1018.6 mb 0.00 in0.0 mm 0.00 in0.0 mm 0.14 in3.6 mm
09:20 PM 35.6°F2.0°C 21.5°F-5.8°C 56% 2.0 mph WNW3.2 kmh WNW 3.4 mph5.5 kmh 30.08 in1018.6 mb 0.00 in0.0 mm 0.00 in0.0 mm 0.14 in3.6 mm
09:21 PM 35.4°F1.9°C 20.9°F-6.2°C 55% 2.5 mph WNW4.0 kmh WNW 3.4 mph5.5 kmh 30.08 in1018.6 mb 0.00 in0.0 mm 0.00 in0.0 mm 0.14 in3.6 mm
09:22 PM 35.4°F1.9°C 20.9°F-6.2°C 55% 3.8 mph NW6.1 kmh NW 5.8 mph9.3 kmh 30.09 in1019.0 mb 0.00 in0.0 mm 0.00 in0.0 mm 0.14 in3.6 mm
09:23 PM 35.4°F1.9°C 20.9°F-6.2°C 55% 3.8 mph NNW6.1 kmh NNW 9.2 mph14.8 kmh 30.07 in1018.3 mb 0.00 in0.0 mm 0.00 in0.0 mm 0.14 in3.6 mm
09:24 PM 35.4°F1.9°C 21.3°F-5.9°C 56% 0.7 mph NW1.1 kmh NW 1.1 mph1.8 kmh 30.07 in1018.3 mb 0.00 in0.0 mm 0.00 in0.0 mm 0.14 in3.6 mm
09:25 PM 35.4°F1.9°C 20.9°F-6.2°C 55% 2.2 mph NW3.5 kmh NW 3.4 mph5.5 kmh 30.08 in1018.6 mb 0.00 in0.0 mm 0.00 in0.0 mm 0.14 in3.6 mm
09:26 PM 35.4°F1.9°C 20.9°F-6.2°C 55% 0.7 mph NW1.1 kmh NW 1.1 mph1.8 kmh 30.08 in1018.6 mb 0.00 in0.0 mm 0.00 in0.0 mm 0.14 in3.6 mm
09:27 PM 35.4°F1.9°C 21.3°F-5.9°C 56% 2.0 mph NW3.2 kmh NW 2.2 mph3.5 kmh 30.08 in1018.6 mb 0.00 in0.0 mm 0.00 in0.0 mm 0.14 in3.6 mm
09:28 PM 35.2°F1.8°C 20.7°F-6.3°C 55% 2.5 mph NW4.0 kmh NW 3.4 mph5.5 kmh 30.09 in1019.0 mb 0.00 in0.0 mm 0.00 in0.0 mm 0.14 in3.6 mm
09:29 PM 35.2°F1.8°C 20.7°F-6.3°C 55% 0.7 mph N1.1 kmh N 1.1 mph1.8 kmh 30.09 in1019.0 mb 0.00 in0.0 mm 0.00 in0.0 mm 0.14 in3.6 mm
09:30 PM 35.2°F1.8°C 20.7°F-6.3°C 55% 0.9 mph NNW1.4 kmh NNW 1.1 mph1.8 kmh 30.09 in1019.0 mb 0.00 in0.0 mm 0.00 in0.0 mm 0.14 in3.6 mm
09:31 PM 35.1°F1.7°C 20.6°F-6.3°C 55% 2.5 mph WNW4.0 kmh WNW 5.8 mph9.3 kmh 30.09 in1019.0 mb 0.00 in0.0 mm 0.00 in0.0 mm 0.14 in3.6 mm
09:32 PM 35.1°F1.7°C 20.6°F-6.3°C 55% 3.4 mph W5.5 kmh W 4.5 mph7.2 kmh 30.09 in1019.0 mb 0.00 in0.0 mm 0.00 in0.0 mm 0.14 in3.6 mm
09:33 PM 35.1°F1.7°C 20.6°F-6.3°C 55% 3.8 mph NW6.1 kmh NW 4.5 mph7.2 kmh 30.09 in1019.0 mb 0.00 in0.0 mm 0.00 in0.0 mm 0.14 in3.6 mm
09:35 PM 35.2°F1.8°C 20.2°F-6.6°C 54% 2.0 mph NW3.2 kmh NW 3.4 mph5.5 kmh 30.10 in1019.3 mb 0.00 in0.0 mm 0.00 in0.0 mm 0.14 in3.6 mm
09:36 PM 35.2°F1.8°C 20.2°F-6.6°C 54% 3.1 mph WNW5.0 kmh WNW 4.5 mph7.2 kmh 30.09 in1019.0 mb 0.00 in0.0 mm 0.00 in0.0 mm 0.14 in3.6 mm
09:37 PM 35.2°F1.8°C 20.2°F-6.6°C 54% 2.5 mph NW4.0 kmh NW 3.4 mph5.5 kmh 30.09 in1019.0 mb 0.00 in0.0 mm 0.00 in0.0 mm 0.14 in3.6 mm
09:38 PM 35.2°F1.8°C 20.2°F-6.6°C 54% 3.1 mph E5.0 kmh E 3.4 mph5.5 kmh 30.09 in1019.0 mb 0.00 in0.0 mm 0.00 in0.0 mm 0.14 in3.6 mm
09:39 PM 35.2°F1.8°C 20.7°F-6.3°C 55% 2.2 mph W3.5 kmh W 2.2 mph3.5 kmh 30.09 in1019.0 mb 0.00 in0.0 mm 0.00 in0.0 mm 0.14 in3.6 mm
09:40 PM 35.2°F1.8°C 20.2°F-6.6°C 54% 7.4 mph W11.9 kmh W 8.1 mph13.0 kmh 30.10 in1019.3 mb 0.00 in0.0 mm 0.00 in0.0 mm 0.14 in3.6 mm
09:41 PM 35.1°F1.7°C 20.6°F-6.3°C 55% 5.8 mph WNW9.3 kmh WNW 6.9 mph11.1 kmh 30.09 in1019.0 mb 0.00 in0.0 mm 0.00 in0.0 mm 0.14 in3.6 mm
09:42 PM 35.2°F1.8°C 20.7°F-6.3°C 55% 2.9 mph NNW4.7 kmh NNW 4.5 mph7.2 kmh 30.09 in1019.0 mb 0.00 in0.0 mm 0.00 in0.0 mm 0.14 in3.6 mm
09:43 PM 35.2°F1.8°C 20.2°F-6.6°C 54% 5.8 mph WNW9.3 kmh WNW 6.9 mph11.1 kmh 30.10 in1019.3 mb 0.00 in0.0 mm 0.00 in0.0 mm 0.14 in3.6 mm
09:44 PM 35.2°F1.8°C 20.7°F-6.3°C 55% 0.7 mph NW1.1 kmh NW 1.1 mph1.8 kmh 30.09 in1019.0 mb 0.00 in0.0 mm 0.00 in0.0 mm 0.14 in3.6 mm
09:45 PM 35.1°F1.7°C 20.6°F-6.3°C 55% 4.0 mph W6.4 kmh W 5.8 mph9.3 kmh 30.09 in1019.0 mb 0.00 in0.0 mm 0.00 in0.0 mm 0.14 in3.6 mm
09:46 PM 35.1°F1.7°C 20.1°F-6.6°C 54% 7.6 mph WNW12.2 kmh WNW 9.2 mph14.8 kmh 30.09 in1019.0 mb 0.00 in0.0 mm 0.00 in0.0 mm 0.14 in3.6 mm
09:47 PM 35.1°F1.7°C 20.1°F-6.6°C 54% 6.3 mph WNW10.1 kmh WNW 6.9 mph11.1 kmh 30.09 in1019.0 mb 0.00 in0.0 mm 0.00 in0.0 mm 0.14 in3.6 mm
09:48 PM 35.1°F1.7°C 20.1°F-6.6°C 54% 2.5 mph S4.0 kmh S 3.4 mph5.5 kmh 30.09 in1019.0 mb 0.00 in0.0 mm 0.00 in0.0 mm 0.14 in3.6 mm
09:49 PM 35.1°F1.7°C 20.6°F-6.3°C 55% 2.5 mph NW4.0 kmh NW 3.4 mph5.5 kmh 30.10 in1019.3 mb 0.00 in0.0 mm 0.00 in0.0 mm 0.14 in3.6 mm
09:50 PM 35.1°F1.7°C 20.1°F-6.6°C 54% 4.0 mph WNW6.4 kmh WNW 5.8 mph9.3 kmh 30.10 in1019.3 mb 0.00 in0.0 mm 0.00 in0.0 mm 0.14 in3.6 mm
09:51 PM 35.1°F1.7°C 20.1°F-6.6°C 54% 0.4 mph NW0.6 kmh NW 1.1 mph1.8 kmh 30.10 in1019.3 mb 0.00 in0.0 mm 0.00 in0.0 mm 0.14 in3.6 mm
09:52 PM 35.1°F1.7°C 20.6°F-6.3°C 55% 1.1 mph NW1.8 kmh NW 1.1 mph1.8 kmh 30.09 in1019.0 mb 0.00 in0.0 mm 0.00 in0.0 mm 0.14 in3.6 mm
09:53 PM 35.1°F1.7°C 20.6°F-6.3°C 55% 2.9 mph WNW4.7 kmh WNW 4.5 mph7.2 kmh 30.10 in1019.3 mb 0.00 in0.0 mm 0.00 in0.0 mm 0.14 in3.6 mm
09:54 PM 35.1°F1.7°C 20.1°F-6.6°C 54% 0.9 mph NW1.4 kmh NW 2.2 mph3.5 kmh 30.10 in1019.3 mb 0.00 in0.0 mm 0.00 in0.0 mm 0.14 in3.6 mm
09:55 PM 34.9°F1.6°C 20.0°F-6.7°C 54% 1.8 mph SSW2.9 kmh SSW 3.4 mph5.5 kmh 30.10 in1019.3 mb 0.00 in0.0 mm 0.00 in0.0 mm 0.14 in3.6 mm
09:56 PM 34.9°F1.6°C 20.4°F-6.4°C 55% 0.9 mph NNW1.4 kmh NNW 1.1 mph1.8 kmh 30.10 in1019.3 mb 0.00 in0.0 mm 0.00 in0.0 mm 0.14 in3.6 mm
09:57 PM 34.9°F1.6°C 20.4°F-6.4°C 55% 2.5 mph NW4.0 kmh NW 3.4 mph5.5 kmh 30.10 in1019.3 mb 0.00 in0.0 mm 0.00 in0.0 mm 0.14 in3.6 mm
09:58 PM 34.9°F1.6°C 20.4°F-6.4°C 55% 7.6 mph W12.2 kmh W 11.4 mph18.3 kmh 30.10 in1019.3 mb 0.00 in0.0 mm 0.00 in0.0 mm 0.14 in3.6 mm
09:59 PM 34.9°F1.6°C 20.4°F-6.4°C 55% 4.9 mph W7.9 kmh W 5.8 mph9.3 kmh 30.10 in1019.3 mb 0.00 in0.0 mm 0.00 in0.0 mm 0.14 in3.6 mm
10:00 PM 34.7°F1.5°C 20.2°F-6.6°C 55% 3.8 mph NW6.1 kmh NW 5.8 mph9.3 kmh 30.10 in1019.3 mb 0.00 in0.0 mm 0.00 in0.0 mm 0.14 in3.6 mm
10:01 PM 34.7°F1.5°C 20.2°F-6.6°C 55% 4.7 mph NNW7.6 kmh NNW 6.9 mph11.1 kmh 30.10 in1019.3 mb 0.00 in0.0 mm 0.00 in0.0 mm 0.14 in3.6 mm
10:02 PM 34.9°F1.6°C 20.4°F-6.4°C 55% 1.6 mph NW2.6 kmh NW 3.4 mph5.5 kmh 30.09 in1019.0 mb 0.00 in0.0 mm 0.00 in0.0 mm 0.14 in3.6 mm
10:03 PM 34.9°F1.6°C 20.4°F-6.4°C 55% 2.9 mph WNW4.7 kmh WNW 4.5 mph7.2 kmh 30.10 in1019.3 mb 0.00 in0.0 mm 0.00 in0.0 mm 0.14 in3.6 mm
10:04 PM 34.9°F1.6°C 20.0°F-6.7°C 54% 1.6 mph NW2.6 kmh NW 3.4 mph5.5 kmh 30.11 in1019.6 mb 0.00 in0.0 mm 0.00 in0.0 mm 0.14 in3.6 mm
10:05 PM 34.9°F1.6°C 20.4°F-6.4°C 55% 2.2 mph NW3.5 kmh NW 3.4 mph5.5 kmh 30.10 in1019.3 mb 0.00 in0.0 mm 0.00 in0.0 mm 0.14 in3.6 mm
10:06 PM 34.7°F1.5°C 20.2°F-6.6°C 55% 2.0 mph WNW3.2 kmh WNW 3.4 mph5.5 kmh 30.10 in1019.3 mb 0.00 in0.0 mm 0.00 in0.0 mm 0.14 in3.6 mm
10:07 PM 34.7°F1.5°C 20.6°F-6.3°C 56% 0.2 mph NW0.3 kmh NW 1.1 mph1.8 kmh 30.10 in1019.3 mb 0.00 in0.0 mm 0.00 in0.0 mm 0.14 in3.6 mm
10:08 PM 34.7°F1.5°C 20.2°F-6.6°C 55% 1.6 mph NW2.6 kmh NW 2.2 mph3.5 kmh 30.10 in1019.3 mb 0.00 in0.0 mm 0.00 in0.0 mm 0.14 in3.6 mm
10:09 PM 34.7°F1.5°C 20.2°F-6.6°C 55% 4.5 mph NW7.2 kmh NW 5.8 mph9.3 kmh 30.10 in1019.3 mb 0.00 in0.0 mm 0.00 in0.0 mm 0.14 in3.6 mm
10:10 PM 34.5°F1.4°C 20.0°F-6.7°C 55% 3.6 mph WNW5.8 kmh WNW 5.8 mph9.3 kmh 30.10 in1019.3 mb 0.00 in0.0 mm 0.00 in0.0 mm 0.14 in3.6 mm
10:11 PM 34.5°F1.4°C 20.4°F-6.4°C 56% 1.6 mph NW2.6 kmh NW 2.2 mph3.5 kmh 30.09 in1019.0 mb 0.00 in0.0 mm 0.00 in0.0 mm 0.14 in3.6 mm
10:12 PM 34.5°F1.4°C 20.0°F-6.7°C 55% 2.9 mph W4.7 kmh W 5.8 mph9.3 kmh 30.10 in1019.3 mb 0.00 in0.0 mm 0.00 in0.0 mm 0.14 in3.6 mm
10:13 PM 34.5°F1.4°C 20.0°F-6.7°C 55% 2.9 mph W4.7 kmh W 5.8 mph9.3 kmh 30.10 in1019.3 mb 0.00 in0.0 mm 0.00 in0.0 mm 0.14 in3.6 mm
10:14 PM 34.5°F1.4°C 20.0°F-6.7°C 55% 2.9 mph NW4.7 kmh NW 4.5 mph7.2 kmh 30.10 in1019.3 mb 0.00 in0.0 mm 0.00 in0.0 mm 0.14 in3.6 mm
10:15 PM 34.5°F1.4°C 20.0°F-6.7°C 55% 4.5 mph N7.2 kmh N 8.1 mph13.0 kmh 30.10 in1019.3 mb 0.00 in0.0 mm 0.00 in0.0 mm 0.14 in3.6 mm
10:16 PM 34.5°F1.4°C 19.6°F-6.9°C 54% 3.4 mph WNW5.5 kmh WNW 4.5 mph7.2 kmh 30.10 in1019.3 mb 0.00 in0.0 mm 0.00 in0.0 mm 0.14 in3.6 mm
10:17 PM 34.5°F1.4°C 19.6°F-6.9°C 54% 5.6 mph W9.0 kmh W 6.9 mph11.1 kmh 30.10 in1019.3 mb 0.00 in0.0 mm 0.00 in0.0 mm 0.14 in3.6 mm
10:18 PM 34.5°F1.4°C 19.6°F-6.9°C 54% 2.0 mph N3.2 kmh N 3.4 mph5.5 kmh 30.11 in1019.6 mb 0.00 in0.0 mm 0.00 in0.0 mm 0.14 in3.6 mm
10:19 PM 34.5°F1.4°C 19.6°F-6.9°C 54% 1.3 mph NW2.1 kmh NW 2.2 mph3.5 kmh 30.11 in1019.6 mb 0.00 in0.0 mm 0.00 in0.0 mm 0.14 in3.6 mm
10:20 PM 34.7°F1.5°C 20.2°F-6.6°C 55% 3.1 mph NW5.0 kmh NW 4.5 mph7.2 kmh 30.10 in1019.3 mb 0.00 in0.0 mm 0.00 in0.0 mm 0.14 in3.6 mm
10:21 PM 34.7°F1.5°C 19.8°F-6.8°C 54% 4.9 mph W7.9 kmh W 6.9 mph11.1 kmh 30.10 in1019.3 mb 0.00 in0.0 mm 0.00 in0.0 mm 0.14 in3.6 mm
10:22 PM 34.7°F1.5°C 19.3°F-7.1°C 53% 4.0 mph W6.4 kmh W 6.9 mph11.1 kmh 30.10 in1019.3 mb 0.00 in0.0 mm 0.00 in0.0 mm 0.14 in3.6 mm
10:23 PM 34.7°F1.5°C 19.3°F-7.1°C 53% 3.8 mph WNW6.1 kmh WNW 5.8 mph9.3 kmh 30.10 in1019.3 mb 0.00 in0.0 mm 0.00 in0.0 mm 0.14 in3.6 mm
10:24 PM 34.7°F1.5°C 19.8°F-6.8°C 54% 2.9 mph WNW4.7 kmh WNW 3.4 mph5.5 kmh 30.10 in1019.3 mb 0.00 in0.0 mm 0.00 in0.0 mm 0.14 in3.6 mm
10:25 PM 34.7°F1.5°C 19.8°F-6.8°C 54% 2.9 mph NW4.7 kmh NW 3.4 mph5.5 kmh 30.11 in1019.6 mb 0.00 in0.0 mm 0.00 in0.0 mm 0.14 in3.6 mm
10:26 PM 34.7°F1.5°C 19.8°F-6.8°C 54% 1.8 mph NE2.9 kmh NE 2.2 mph3.5 kmh 30.11 in1019.6 mb 0.00 in0.0 mm 0.00 in0.0 mm 0.14 in3.6 mm
10:27 PM 34.5°F1.4°C 20.0°F-6.7°C 55% 2.5 mph NW4.0 kmh NW 3.4 mph5.5 kmh 30.11 in1019.6 mb 0.00 in0.0 mm 0.00 in0.0 mm 0.14 in3.6 mm
10:28 PM 34.5°F1.4°C 20.0°F-6.7°C 55% 5.6 mph ESE9.0 kmh ESE 8.1 mph13.0 kmh 30.11 in1019.6 mb 0.00 in0.0 mm 0.00 in0.0 mm 0.14 in3.6 mm
10:29 PM 34.3°F1.3°C 19.8°F-6.8°C 55% 1.1 mph NE1.8 kmh NE 2.2 mph3.5 kmh 30.11 in1019.6 mb 0.00 in0.0 mm 0.00 in0.0 mm 0.14 in3.6 mm
10:30 PM 34.3°F1.3°C 19.8°F-6.8°C 55% 1.8 mph NW2.9 kmh NW 3.4 mph5.5 kmh 30.11 in1019.6 mb 0.00 in0.0 mm 0.00 in0.0 mm 0.14 in3.6 mm
10:31 PM 34.3°F1.3°C 19.8°F-6.8°C 55% 4.7 mph W7.6 kmh W 6.9 mph11.1 kmh 30.11 in1019.6 mb 0.00 in0.0 mm 0.00 in0.0 mm 0.14 in3.6 mm
10:32 PM 34.3°F1.3°C 19.4°F-7.0°C 54% 4.0 mph WNW6.4 kmh WNW 5.8 mph9.3 kmh 30.12 in1020.0 mb 0.00 in0.0 mm 0.00 in0.0 mm 0.14 in3.6 mm
10:33 PM 34.3°F1.3°C 19.8°F-6.8°C 55% 3.6 mph WNW5.8 kmh WNW 4.5 mph7.2 kmh 30.11 in1019.6 mb 0.00 in0.0 mm 0.00 in0.0 mm 0.14 in3.6 mm
10:34 PM 34.3°F1.3°C 19.8°F-6.8°C 55% 2.2 mph NNW3.5 kmh NNW 3.4 mph5.5 kmh 30.11 in1019.6 mb 0.00 in0.0 mm 0.00 in0.0 mm 0.14 in3.6 mm
10:35 PM 34.3°F1.3°C 19.8°F-6.8°C 55% 2.2 mph N3.5 kmh N 2.2 mph3.5 kmh 30.11 in1019.6 mb 0.00 in0.0 mm 0.00 in0.0 mm 0.14 in3.6 mm
10:36 PM 34.3°F1.3°C 19.8°F-6.8°C 55% 1.3 mph N2.1 kmh N 2.2 mph3.5 kmh 30.11 in1019.6 mb 0.00 in0.0 mm 0.00 in0.0 mm 0.14 in3.6 mm
10:37 PM 34.3°F1.3°C 19.8°F-6.8°C 55% 1.8 mph ESE2.9 kmh ESE 2.2 mph3.5 kmh 30.12 in1020.0 mb 0.00 in0.0 mm 0.00 in0.0 mm 0.14 in3.6 mm
10:38 PM 34.3°F1.3°C 19.8°F-6.8°C 55% 3.8 mph WNW6.1 kmh WNW 5.8 mph9.3 kmh 30.12 in1020.0 mb 0.00 in0.0 mm 0.00 in0.0 mm 0.14 in3.6 mm
10:39 PM 34.3°F1.3°C 19.8°F-6.8°C 55% 3.8 mph NW6.1 kmh NW 6.9 mph11.1 kmh 30.11 in1019.6 mb 0.00 in0.0 mm 0.00 in0.0 mm 0.14 in3.6 mm
10:40 PM 34.2°F1.2°C 19.7°F-6.8°C 55% 4.0 mph NW6.4 kmh NW 5.8 mph9.3 kmh 30.12 in1020.0 mb 0.00 in0.0 mm 0.00 in0.0 mm 0.14 in3.6 mm
10:41 PM 34.2°F1.2°C 19.7°F-6.8°C 55% 7.4 mph WNW11.9 kmh WNW 9.2 mph14.8 kmh 30.12 in1020.0 mb 0.00 in0.0 mm 0.00 in0.0 mm 0.14 in3.6 mm
10:42 PM 34.3°F1.3°C 19.8°F-6.8°C 55% 1.6 mph NW2.6 kmh NW 3.4 mph5.5 kmh 30.11 in1019.6 mb 0.00 in0.0 mm 0.00 in0.0 mm 0.14 in3.6 mm
10:43 PM 34.3°F1.3°C 19.8°F-6.8°C 55% 4.3 mph NW6.9 kmh NW 5.8 mph9.3 kmh 30.12 in1020.0 mb 0.00 in0.0 mm 0.00 in0.0 mm 0.14 in3.6 mm
10:44 PM 34.3°F1.3°C 19.8°F-6.8°C 55% 1.1 mph NNE1.8 kmh NNE 1.1 mph1.8 kmh 30.12 in1020.0 mb 0.00 in0.0 mm 0.00 in0.0 mm 0.14 in3.6 mm
10:45 PM 34.3°F1.3°C 19.8°F-6.8°C 55% 1.3 mph W2.1 kmh W 3.4 mph5.5 kmh 30.12 in1020.0 mb 0.00 in0.0 mm 0.00 in0.0 mm 0.14 in3.6 mm
10:46 PM 34.3°F1.3°C 19.8°F-6.8°C 55% 2.2 mph WNW3.5 kmh WNW 2.2 mph3.5 kmh 30.12 in1020.0 mb 0.00 in0.0 mm 0.00 in0.0 mm 0.14 in3.6 mm
10:47 PM 34.2°F1.2°C 19.7°F-6.8°C 55% 2.9 mph WNW4.7 kmh WNW 4.5 mph7.2 kmh 30.12 in1020.0 mb 0.00 in0.0 mm 0.00 in0.0 mm 0.14 in3.6 mm
10:48 PM 34.2°F1.2°C 20.2°F-6.6°C 56% 2.5 mph NW4.0 kmh NW 3.4 mph5.5 kmh 30.12 in1020.0 mb 0.00 in0.0 mm 0.00 in0.0 mm 0.14 in3.6 mm
10:49 PM 34.2°F1.2°C 20.2°F-6.6°C 56% 0.7 mph NNW1.1 kmh NNW 1.1 mph1.8 kmh 30.13 in1020.3 mb 0.00 in0.0 mm 0.00 in0.0 mm 0.14 in3.6 mm
10:50 PM 34.2°F1.2°C 19.7°F-6.8°C 55% 2.5 mph SE4.0 kmh SE 3.4 mph5.5 kmh 30.12 in1020.0 mb 0.00 in0.0 mm 0.00 in0.0 mm 0.14 in3.6 mm
10:51 PM 34.2°F1.2°C 19.7°F-6.8°C 55% 4.9 mph E7.9 kmh E 5.8 mph9.3 kmh 30.13 in1020.3 mb 0.00 in0.0 mm 0.00 in0.0 mm 0.14 in3.6 mm
10:52 PM 34.3°F1.3°C 19.8°F-6.8°C 55% 1.3 mph NE2.1 kmh NE 2.2 mph3.5 kmh 30.13 in1020.3 mb 0.00 in0.0 mm 0.00 in0.0 mm 0.14 in3.6 mm
10:53 PM 34.3°F1.3°C 19.8°F-6.8°C 55% 1.8 mph ENE2.9 kmh ENE 2.2 mph3.5 kmh 30.13 in1020.3 mb 0.00 in0.0 mm 0.00 in0.0 mm 0.14 in3.6 mm
10:54 PM 34.3°F1.3°C 19.8°F-6.8°C 55% 1.1 mph N1.8 kmh N 2.2 mph3.5 kmh 30.13 in1020.3 mb 0.00 in0.0 mm 0.00 in0.0 mm 0.14 in3.6 mm
10:55 PM 34.3°F1.3°C 19.8°F-6.8°C 55% 2.5 mph NW4.0 kmh NW 3.4 mph5.5 kmh 30.13 in1020.3 mb 0.00 in0.0 mm 0.00 in0.0 mm 0.14 in3.6 mm
10:56 PM 34.5°F1.4°C 20.4°F-6.4°C 56% 0.9 mph N1.4 kmh N 1.1 mph1.8 kmh 30.13 in1020.3 mb 0.00 in0.0 mm 0.00 in0.0 mm 0.14 in3.6 mm
10:57 PM 34.5°F1.4°C 20.4°F-6.4°C 56% 0.9 mph NE1.4 kmh NE 2.2 mph3.5 kmh 30.13 in1020.3 mb 0.00 in0.0 mm 0.00 in0.0 mm 0.14 in3.6 mm
10:58 PM 34.3°F1.3°C 20.3°F-6.5°C 56% 5.1 mph W8.2 kmh W 6.9 mph11.1 kmh 30.12 in1020.0 mb 0.00 in0.0 mm 0.00 in0.0 mm 0.14 in3.6 mm
10:59 PM 34.3°F1.3°C 19.8°F-6.8°C 55% 2.0 mph WNW3.2 kmh WNW 3.4 mph5.5 kmh 30.14 in1020.7 mb 0.00 in0.0 mm 0.00 in0.0 mm 0.14 in3.6 mm
11:00 PM 34.3°F1.3°C 20.3°F-6.5°C 56% 0.7 mph NW1.1 kmh NW 1.1 mph1.8 kmh 30.13 in1020.3 mb 0.00 in0.0 mm 0.00 in0.0 mm 0.14 in3.6 mm
11:01 PM 34.3°F1.3°C 20.3°F-6.5°C 56% 2.0 mph NW3.2 kmh NW 3.4 mph5.5 kmh 30.14 in1020.7 mb 0.00 in0.0 mm 0.00 in0.0 mm 0.14 in3.6 mm
11:02 PM 34.2°F1.2°C 20.6°F-6.3°C 57% 1.3 mph SW2.1 kmh SW 2.2 mph3.5 kmh 30.14 in1020.7 mb 0.00 in0.0 mm 0.00 in0.0 mm 0.14 in3.6 mm
11:03 PM 34.2°F1.2°C 20.6°F-6.3°C 57% 1.3 mph NW2.1 kmh NW 2.2 mph3.5 kmh 30.12 in1020.0 mb 0.00 in0.0 mm 0.00 in0.0 mm 0.14 in3.6 mm
11:04 PM 34.2°F1.2°C 20.6°F-6.3°C 57% 0.2 mph NW0.3 kmh NW 1.1 mph1.8 kmh 30.13 in1020.3 mb 0.00 in0.0 mm 0.00 in0.0 mm 0.14 in3.6 mm
11:05 PM 34.2°F1.2°C 20.2°F-6.6°C 56% 0.9 mph W1.4 kmh W 1.1 mph1.8 kmh 30.13 in1020.3 mb 0.00 in0.0 mm 0.00 in0.0 mm 0.14 in3.6 mm
11:06 PM 34.2°F1.2°C 20.2°F-6.6°C 56% 2.2 mph ENE3.5 kmh ENE 3.4 mph5.5 kmh 30.14 in1020.7 mb 0.00 in0.0 mm 0.00 in0.0 mm 0.14 in3.6 mm
11:07 PM 34.2°F1.2°C 20.2°F-6.6°C 56% 1.6 mph E2.6 kmh E 3.4 mph5.5 kmh 30.13 in1020.3 mb 0.00 in0.0 mm 0.00 in0.0 mm 0.14 in3.6 mm
11:08 PM 34.2°F1.2°C 20.2°F-6.6°C 56% 2.9 mph NW4.7 kmh NW 4.5 mph7.2 kmh 30.13 in1020.3 mb 0.00 in0.0 mm 0.00 in0.0 mm 0.14 in3.6 mm
11:09 PM 34.2°F1.2°C 20.2°F-6.6°C 56% 2.9 mph ESE4.7 kmh ESE 3.4 mph5.5 kmh 30.13 in1020.3 mb 0.00 in0.0 mm 0.00 in0.0 mm 0.14 in3.6 mm
11:10 PM 34.2°F1.2°C 20.6°F-6.3°C 57% 2.5 mph NE4.0 kmh NE 4.5 mph7.2 kmh 30.13 in1020.3 mb 0.00 in0.0 mm 0.00 in0.0 mm 0.14 in3.6 mm
11:11 PM 34.3°F1.3°C 20.3°F-6.5°C 56% 1.3 mph NW2.1 kmh NW 2.2 mph3.5 kmh 30.13 in1020.3 mb 0.00 in0.0 mm 0.00 in0.0 mm 0.14 in3.6 mm
11:12 PM 34.3°F1.3°C 20.7°F-6.3°C 57% 1.8 mph NW2.9 kmh NW 2.2 mph3.5 kmh 30.13 in1020.3 mb 0.00 in0.0 mm 0.00 in0.0 mm 0.14 in3.6 mm
11:13 PM 34.2°F1.2°C 21.0°F-6.1°C 58% Calm Calm -- 30.13 in1020.3 mb 0.00 in0.0 mm 0.00 in0.0 mm 0.14 in3.6 mm
11:14 PM 34.2°F1.2°C 20.6°F-6.3°C 57% Calm Calm -- 30.12 in1020.0 mb 0.00 in0.0 mm 0.00 in0.0 mm 0.14 in3.6 mm
11:15 PM 34.2°F1.2°C 21.0°F-6.1°C 58% 3.4 mph NW5.5 kmh NW 3.4 mph5.5 kmh 30.14 in1020.7 mb 0.00 in0.0 mm 0.00 in0.0 mm 0.14 in3.6 mm
11:16 PM 34.0°F1.1°C 20.8°F-6.2°C 58% 1.6 mph NW2.6 kmh NW 2.2 mph3.5 kmh 30.13 in1020.3 mb 0.00 in0.0 mm 0.00 in0.0 mm 0.14 in3.6 mm
11:17 PM 34.0°F1.1°C 20.8°F-6.2°C 58% 1.6 mph N2.6 kmh N 3.4 mph5.5 kmh 30.14 in1020.7 mb 0.00 in0.0 mm 0.00 in0.0 mm 0.14 in3.6 mm
11:18 PM 33.8°F1.0°C 20.6°F-6.3°C 58% 0.4 mph N0.6 kmh N 1.1 mph1.8 kmh 30.14 in1020.7 mb 0.00 in0.0 mm 0.00 in0.0 mm 0.14 in3.6 mm
11:19 PM 33.8°F1.0°C 20.6°F-6.3°C 58% 1.6 mph NW2.6 kmh NW 2.2 mph3.5 kmh 30.13 in1020.3 mb 0.00 in0.0 mm 0.00 in0.0 mm 0.14 in3.6 mm
11:20 PM 33.8°F1.0°C 20.6°F-6.3°C 58% 1.1 mph NNW1.8 kmh NNW 2.2 mph3.5 kmh 30.14 in1020.7 mb 0.00 in0.0 mm 0.00 in0.0 mm 0.14 in3.6 mm
11:21 PM 33.6°F0.9°C 20.4°F-6.4°C 58% 2.2 mph NW3.5 kmh NW 3.4 mph5.5 kmh 30.14 in1020.7 mb 0.00 in0.0 mm 0.00 in0.0 mm 0.14 in3.6 mm
11:22 PM 33.6°F0.9°C 20.8°F-6.2°C 59% 2.2 mph WNW3.5 kmh WNW 3.4 mph5.5 kmh 30.14 in1020.7 mb 0.00 in0.0 mm 0.00 in0.0 mm 0.14 in3.6 mm
11:23 PM 33.6°F0.9°C 20.8°F-6.2°C 59% 1.3 mph N2.1 kmh N 2.2 mph3.5 kmh 30.14 in1020.7 mb 0.00 in0.0 mm 0.00 in0.0 mm 0.14 in3.6 mm
11:24 PM 33.6°F0.9°C 20.8°F-6.2°C 59% 0.4 mph N0.6 kmh N 1.1 mph1.8 kmh 30.14 in1020.7 mb 0.00 in0.0 mm 0.00 in0.0 mm 0.14 in3.6 mm
11:25 PM 33.6°F0.9°C 20.8°F-6.2°C 59% 1.6 mph S2.6 kmh S 3.4 mph5.5 kmh 30.14 in1020.7 mb 0.00 in0.0 mm 0.00 in0.0 mm 0.14 in3.6 mm
11:26 PM 33.6°F0.9°C 20.4°F-6.4°C 58% 1.8 mph WNW2.9 kmh WNW 2.2 mph3.5 kmh 30.13 in1020.3 mb 0.00 in0.0 mm 0.00 in0.0 mm 0.14 in3.6 mm
11:27 PM 33.8°F1.0°C 21.0°F-6.1°C 59% 1.1 mph NW1.8 kmh NW 1.1 mph1.8 kmh 30.13 in1020.3 mb 0.00 in0.0 mm 0.00 in0.0 mm 0.14 in3.6 mm
11:28 PM 33.8°F1.0°C 20.6°F-6.3°C 58% 2.2 mph SE3.5 kmh SE 3.4 mph5.5 kmh 30.14 in1020.7 mb 0.00 in0.0 mm 0.00 in0.0 mm 0.14 in3.6 mm
11:29 PM 33.8°F1.0°C 21.0°F-6.1°C 59% 2.2 mph SE3.5 kmh SE 2.2 mph3.5 kmh 30.13 in1020.3 mb 0.00 in0.0 mm 0.00 in0.0 mm 0.14 in3.6 mm
11:30 PM 33.8°F1.0°C 21.0°F-6.1°C 59% Calm Calm -- 30.14 in1020.7 mb 0.00 in0.0 mm 0.00 in0.0 mm 0.14 in3.6 mm
11:31 PM 33.8°F1.0°C 21.0°F-6.1°C 59% 0.9 mph NNW1.4 kmh NNW 1.1 mph1.8 kmh 30.14 in1020.7 mb 0.00 in0.0 mm 0.00 in0.0 mm 0.14 in3.6 mm
11:32 PM 33.6°F0.9°C 21.2°F-6.0°C 60% 2.5 mph W4.0 kmh W 3.4 mph5.5 kmh 30.14 in1020.7 mb 0.00 in0.0 mm 0.00 in0.0 mm 0.14 in3.6 mm
11:33 PM 33.6°F0.9°C 21.2°F-6.0°C 60% 0.7 mph N1.1 kmh N 1.1 mph1.8 kmh 30.14 in1020.7 mb 0.00 in0.0 mm 0.00 in0.0 mm 0.14 in3.6 mm
11:34 PM 33.6°F0.9°C 21.2°F-6.0°C 60% 1.6 mph ENE2.6 kmh ENE 3.4 mph5.5 kmh 30.14 in1020.7 mb 0.00 in0.0 mm 0.00 in0.0 mm 0.14 in3.6 mm
11:35 PM 33.4°F0.8°C 21.0°F-6.1°C 60% 0.7 mph WNW1.1 kmh WNW 1.1 mph1.8 kmh 30.14 in1020.7 mb 0.00 in0.0 mm 0.00 in0.0 mm 0.14 in3.6 mm
11:36 PM 33.4°F0.8°C 21.4°F-5.9°C 61% 0.9 mph NW1.4 kmh NW 1.1 mph1.8 kmh 30.14 in1020.7 mb 0.00 in0.0 mm 0.00 in0.0 mm 0.14 in3.6 mm
11:37 PM 33.4°F0.8°C 21.4°F-5.9°C 61% 0.9 mph NE1.4 kmh NE 1.1 mph1.8 kmh 30.14 in1020.7 mb 0.00 in0.0 mm 0.00 in0.0 mm 0.14 in3.6 mm
11:38 PM 33.4°F0.8°C 21.4°F-5.9°C 61% Calm Calm -- 30.14 in1020.7 mb 0.00 in0.0 mm 0.00 in0.0 mm 0.14 in3.6 mm
11:39 PM 33.3°F0.7°C 21.7°F-5.7°C 62% 1.8 mph NW2.9 kmh NW 3.4 mph5.5 kmh 30.14 in1020.7 mb 0.00 in0.0 mm 0.00 in0.0 mm 0.14 in3.6 mm
11:40 PM 33.3°F0.7°C 21.7°F-5.7°C 62% 2.2 mph WNW3.5 kmh WNW 4.5 mph7.2 kmh 30.14 in1020.7 mb 0.00 in0.0 mm 0.00 in0.0 mm 0.14 in3.6 mm
11:41 PM 33.3°F0.7°C 22.1°F-5.5°C 63% 1.1 mph NW1.8 kmh NW 2.2 mph3.5 kmh 30.14 in1020.7 mb 0.00 in0.0 mm 0.00 in0.0 mm 0.14 in3.6 mm
11:42 PM 33.3°F0.7°C 21.7°F-5.7°C 62% 1.3 mph N2.1 kmh N 2.2 mph3.5 kmh 30.14 in1020.7 mb 0.00 in0.0 mm 0.00 in0.0 mm 0.14 in3.6 mm
11:43 PM 33.3°F0.7°C 22.1°F-5.5°C 63% 1.1 mph N1.8 kmh N 1.1 mph1.8 kmh 30.14 in1020.7 mb 0.00 in0.0 mm 0.00 in0.0 mm 0.14 in3.6 mm
11:44 PM 33.1°F0.6°C 21.9°F-5.6°C 63% 2.2 mph NE3.5 kmh NE 2.2 mph3.5 kmh 30.14 in1020.7 mb 0.00 in0.0 mm 0.00 in0.0 mm 0.14 in3.6 mm
11:45 PM 33.1°F0.6°C 21.9°F-5.6°C 63% 1.8 mph E2.9 kmh E 3.4 mph5.5 kmh 30.14 in1020.7 mb 0.00 in0.0 mm 0.00 in0.0 mm 0.14 in3.6 mm
11:46 PM 33.1°F0.6°C 21.9°F-5.6°C 63% 0.4 mph N0.6 kmh N 1.1 mph1.8 kmh 30.14 in1020.7 mb 0.00 in0.0 mm 0.00 in0.0 mm 0.14 in3.6 mm
11:47 PM 33.1°F0.6°C 21.9°F-5.6°C 63% 1.8 mph NW2.9 kmh NW 2.2 mph3.5 kmh 30.14 in1020.7 mb 0.00 in0.0 mm 0.00 in0.0 mm 0.14 in3.6 mm
11:48 PM 33.1°F0.6°C 21.9°F-5.6°C 63% 2.2 mph NW3.5 kmh NW 2.2 mph3.5 kmh 30.14 in1020.7 mb 0.00 in0.0 mm 0.00 in0.0 mm 0.14 in3.6 mm
11:49 PM 33.1°F0.6°C 21.9°F-5.6°C 63% 1.3 mph NW2.1 kmh NW 2.2 mph3.5 kmh 30.14 in1020.7 mb 0.00 in0.0 mm 0.00 in0.0 mm 0.14 in3.6 mm
11:50 PM 33.1°F0.6°C 21.9°F-5.6°C 63% 1.1 mph WNW1.8 kmh WNW 3.4 mph5.5 kmh 30.14 in1020.7 mb 0.00 in0.0 mm 0.00 in0.0 mm 0.14 in3.6 mm
11:51 PM 33.1°F0.6°C 21.9°F-5.6°C 63% 1.6 mph NW2.6 kmh NW 2.2 mph3.5 kmh 30.14 in1020.7 mb 0.00 in0.0 mm 0.00 in0.0 mm 0.14 in3.6 mm
11:52 PM 33.1°F0.6°C 21.9°F-5.6°C 63% 2.0 mph W3.2 kmh W 3.4 mph5.5 kmh 30.14 in1020.7 mb 0.00 in0.0 mm 0.00 in0.0 mm 0.14 in3.6 mm
11:53 PM 33.1°F0.6°C 21.5°F-5.8°C 62% 3.8 mph WNW6.1 kmh WNW 5.8 mph9.3 kmh 30.14 in1020.7 mb 0.00 in0.0 mm 0.00 in0.0 mm 0.14 in3.6 mm
11:54 PM 33.1°F0.6°C 21.5°F-5.8°C 62% 0.7 mph NNW1.1 kmh NNW 1.1 mph1.8 kmh 30.14 in1020.7 mb 0.00 in0.0 mm 0.00 in0.0 mm 0.14 in3.6 mm
11:55 PM 33.1°F0.6°C 21.5°F-5.8°C 62% 1.8 mph W2.9 kmh W 3.4 mph5.5 kmh 30.14 in1020.7 mb 0.00 in0.0 mm 0.00 in0.0 mm 0.14 in3.6 mm
11:56 PM 33.1°F0.6°C 21.5°F-5.8°C 62% 2.0 mph NW3.2 kmh NW 3.4 mph5.5 kmh 30.14 in1020.7 mb 0.00 in0.0 mm 0.00 in0.0 mm 0.14 in3.6 mm
11:57 PM 33.1°F0.6°C 21.5°F-5.8°C 62% 2.2 mph WNW3.5 kmh WNW 2.2 mph3.5 kmh 30.14 in1020.7 mb 0.00 in0.0 mm 0.00 in0.0 mm 0.14 in3.6 mm
11:58 PM 33.1°F0.6°C 21.9°F-5.6°C 63% 1.3 mph NW2.1 kmh NW 2.2 mph3.5 kmh 30.13 in1020.3 mb 0.00 in0.0 mm 0.00 in0.0 mm 0.14 in3.6 mm
11:59 PM 33.1°F0.6°C 21.5°F-5.8°C 62% 1.8 mph NW2.9 kmh NW 3.4 mph5.5 kmh 30.14 in1020.7 mb 0.00 in0.0 mm 0.00 in0.0 mm 0.14 in3.6 mm